<?xml version="1.0" encoding="UTF-8" standalone="no" ?>
<gpx xmlns="http://www.topografix.com/GPX/1/1" xmlns:xsi="http://www.w3.org/2001/XMLSchema-instance" xsi:schemaLocation="http://www.topografix.com/GPX/1/1 http://www.topografix.com/GPX/1/1/gpx.xsd" version="1.1" creator="VisuGPX - https://www.visugpx.com">
  <metadata>
    <name>Mont Ventoux V1</name>
    <desc><![CDATA[Mont Ventoux 1ere sortie]]></desc>
  </metadata>
  <trk>
    <name><![CDATA[Move]]></name>
    <trkseg>
      <trkpt lat="44.1805" lon="5.25549">
        <ele>1427</ele>
        <time>2014-01-26T09:23:31.240Z</time>
      </trkpt>
      <trkpt lat="44.18044" lon="5.25548">
        <ele>1427</ele>
        <time>2014-01-26T09:23:52.480Z</time>
      </trkpt>
      <trkpt lat="44.18039" lon="5.2555">
        <ele>1427</ele>
        <time>2014-01-26T09:24:15.550Z</time>
      </trkpt>
      <trkpt lat="44.18036" lon="5.25545">
        <ele>1428</ele>
        <time>2014-01-26T09:24:32.580Z</time>
      </trkpt>
      <trkpt lat="44.18032" lon="5.25541">
        <ele>1428</ele>
        <time>2014-01-26T09:25:26.480Z</time>
      </trkpt>
      <trkpt lat="44.18028" lon="5.25537">
        <ele>1429</ele>
        <time>2014-01-26T09:25:31.580Z</time>
      </trkpt>
      <trkpt lat="44.18022" lon="5.25535">
        <ele>1429</ele>
        <time>2014-01-26T09:25:38.580Z</time>
      </trkpt>
      <trkpt lat="44.18017" lon="5.25532">
        <ele>1431</ele>
        <time>2014-01-26T09:25:43.580Z</time>
      </trkpt>
      <trkpt lat="44.18012" lon="5.25527">
        <ele>1431</ele>
        <time>2014-01-26T09:25:47.320Z</time>
      </trkpt>
      <trkpt lat="44.18006" lon="5.25522">
        <ele>1432</ele>
        <time>2014-01-26T09:25:51.480Z</time>
      </trkpt>
      <trkpt lat="44.18" lon="5.25517">
        <ele>1432</ele>
        <time>2014-01-26T09:25:56.480Z</time>
      </trkpt>
      <trkpt lat="44.17993" lon="5.25513">
        <ele>1433</ele>
        <time>2014-01-26T09:26:02.480Z</time>
      </trkpt>
      <trkpt lat="44.17986" lon="5.25506">
        <ele>1433</ele>
        <time>2014-01-26T09:26:08.580Z</time>
      </trkpt>
      <trkpt lat="44.17979" lon="5.25498">
        <ele>1435</ele>
        <time>2014-01-26T09:26:15.580Z</time>
      </trkpt>
      <trkpt lat="44.17974" lon="5.25489">
        <ele>1437</ele>
        <time>2014-01-26T09:26:25.580Z</time>
      </trkpt>
      <trkpt lat="44.1797" lon="5.2548">
        <ele>1438</ele>
        <time>2014-01-26T09:26:30.580Z</time>
      </trkpt>
      <trkpt lat="44.17966" lon="5.2547">
        <ele>1438</ele>
        <time>2014-01-26T09:26:36.580Z</time>
      </trkpt>
      <trkpt lat="44.17963" lon="5.25458">
        <ele>1439</ele>
        <time>2014-01-26T09:26:43.480Z</time>
      </trkpt>
      <trkpt lat="44.17959" lon="5.25447">
        <ele>1441</ele>
        <time>2014-01-26T09:26:51.480Z</time>
      </trkpt>
      <trkpt lat="44.17956" lon="5.25436">
        <ele>1441</ele>
        <time>2014-01-26T09:26:58.580Z</time>
      </trkpt>
      <trkpt lat="44.17953" lon="5.25427">
        <ele>1443</ele>
        <time>2014-01-26T09:27:03.480Z</time>
      </trkpt>
      <trkpt lat="44.1795" lon="5.25417">
        <ele>1443.56</ele>
        <time>2014-01-26T09:27:09.480Z</time>
      </trkpt>
      <trkpt lat="44.17947" lon="5.25407">
        <ele>1444</ele>
        <time>2014-01-26T09:27:15.580Z</time>
      </trkpt>
      <trkpt lat="44.17944" lon="5.25397">
        <ele>1446</ele>
        <time>2014-01-26T09:27:21.580Z</time>
      </trkpt>
      <trkpt lat="44.1794" lon="5.25387">
        <ele>1446</ele>
        <time>2014-01-26T09:27:27.580Z</time>
      </trkpt>
      <trkpt lat="44.17936" lon="5.25377">
        <ele>1448</ele>
        <time>2014-01-26T09:27:33.580Z</time>
      </trkpt>
      <trkpt lat="44.17932" lon="5.25368">
        <ele>1448.6600064</ele>
        <time>2014-01-26T09:27:39.580Z</time>
      </trkpt>
      <trkpt lat="44.1793" lon="5.25359">
        <ele>1449</ele>
        <time>2014-01-26T09:27:45.580Z</time>
      </trkpt>
      <trkpt lat="44.17927" lon="5.25349">
        <ele>1451</ele>
        <time>2014-01-26T09:27:51.480Z</time>
      </trkpt>
      <trkpt lat="44.17926" lon="5.25338">
        <ele>1451</ele>
        <time>2014-01-26T09:27:57.480Z</time>
      </trkpt>
      <trkpt lat="44.17925" lon="5.2533">
        <ele>1453</ele>
        <time>2014-01-26T09:28:13.580Z</time>
      </trkpt>
      <trkpt lat="44.17923" lon="5.25322">
        <ele>1453</ele>
        <time>2014-01-26T09:28:21.580Z</time>
      </trkpt>
      <trkpt lat="44.17922" lon="5.25312">
        <ele>1453</ele>
        <time>2014-01-26T09:28:27.580Z</time>
      </trkpt>
      <trkpt lat="44.1792" lon="5.25303">
        <ele>1455</ele>
        <time>2014-01-26T09:28:33.580Z</time>
      </trkpt>
      <trkpt lat="44.17918" lon="5.25293">
        <ele>1455</ele>
        <time>2014-01-26T09:28:38.580Z</time>
      </trkpt>
      <trkpt lat="44.17917" lon="5.25284">
        <ele>1457</ele>
        <time>2014-01-26T09:28:48.580Z</time>
      </trkpt>
      <trkpt lat="44.17915" lon="5.25273">
        <ele>1458</ele>
        <time>2014-01-26T09:28:54.470Z</time>
      </trkpt>
      <trkpt lat="44.17912" lon="5.25265">
        <ele>1459.3200128</ele>
        <time>2014-01-26T09:28:59.580Z</time>
      </trkpt>
      <trkpt lat="44.17909" lon="5.25257">
        <ele>1460</ele>
        <time>2014-01-26T09:29:04.490Z</time>
      </trkpt>
      <trkpt lat="44.17908" lon="5.25249">
        <ele>1461.3200128</ele>
        <time>2014-01-26T09:29:09.580Z</time>
      </trkpt>
      <trkpt lat="44.17905" lon="5.25242">
        <ele>1462</ele>
        <time>2014-01-26T09:29:14.480Z</time>
      </trkpt>
      <trkpt lat="44.17902" lon="5.25233">
        <ele>1463</ele>
        <time>2014-01-26T09:29:20.480Z</time>
      </trkpt>
      <trkpt lat="44.17899" lon="5.25226">
        <ele>1463</ele>
        <time>2014-01-26T09:29:25.480Z</time>
      </trkpt>
      <trkpt lat="44.17895" lon="5.2522">
        <ele>1465.12</ele>
        <time>2014-01-26T09:29:39.480Z</time>
      </trkpt>
      <trkpt lat="44.17892" lon="5.25214">
        <ele>1466</ele>
        <time>2014-01-26T09:29:44.480Z</time>
      </trkpt>
      <trkpt lat="44.17889" lon="5.25206">
        <ele>1467.9800192</ele>
        <time>2014-01-26T09:29:49.580Z</time>
      </trkpt>
      <trkpt lat="44.17887" lon="5.25198">
        <ele>1469.6599936</ele>
        <time>2014-01-26T09:29:54.580Z</time>
      </trkpt>
      <trkpt lat="44.17887" lon="5.25191">
        <ele>1470</ele>
        <time>2014-01-26T09:29:58.580Z</time>
      </trkpt>
      <trkpt lat="44.17888" lon="5.25183">
        <ele>1471</ele>
        <time>2014-01-26T09:30:03.480Z</time>
      </trkpt>
      <trkpt lat="44.1789" lon="5.25173">
        <ele>1471</ele>
        <time>2014-01-26T09:30:08.480Z</time>
      </trkpt>
      <trkpt lat="44.17893" lon="5.25164">
        <ele>1471</ele>
        <time>2014-01-26T09:30:14.580Z</time>
      </trkpt>
      <trkpt lat="44.17895" lon="5.25153">
        <ele>1471.6599936</ele>
        <time>2014-01-26T09:30:20.580Z</time>
      </trkpt>
      <trkpt lat="44.17898" lon="5.25141">
        <ele>1472</ele>
        <time>2014-01-26T09:30:27.580Z</time>
      </trkpt>
      <trkpt lat="44.17899" lon="5.25129">
        <ele>1473</ele>
        <time>2014-01-26T09:30:34.580Z</time>
      </trkpt>
      <trkpt lat="44.179" lon="5.25116">
        <ele>1475</ele>
        <time>2014-01-26T09:30:42.580Z</time>
      </trkpt>
      <trkpt lat="44.179" lon="5.25103">
        <ele>1477</ele>
        <time>2014-01-26T09:30:51.580Z</time>
      </trkpt>
      <trkpt lat="44.17898" lon="5.2509">
        <ele>1477</ele>
        <time>2014-01-26T09:30:59.480Z</time>
      </trkpt>
      <trkpt lat="44.17896" lon="5.25079">
        <ele>1478</ele>
        <time>2014-01-26T09:31:06.480Z</time>
      </trkpt>
      <trkpt lat="44.17892" lon="5.2507">
        <ele>1480</ele>
        <time>2014-01-26T09:31:12.580Z</time>
      </trkpt>
      <trkpt lat="44.17888" lon="5.25062">
        <ele>1480</ele>
        <time>2014-01-26T09:31:17.580Z</time>
      </trkpt>
      <trkpt lat="44.17884" lon="5.25054">
        <ele>1481</ele>
        <time>2014-01-26T09:31:23.580Z</time>
      </trkpt>
      <trkpt lat="44.1788" lon="5.25046">
        <ele>1481</ele>
        <time>2014-01-26T09:31:28.580Z</time>
      </trkpt>
      <trkpt lat="44.17878" lon="5.25038">
        <ele>1482</ele>
        <time>2014-01-26T09:31:33.580Z</time>
      </trkpt>
      <trkpt lat="44.17874" lon="5.25029">
        <ele>1482</ele>
        <time>2014-01-26T09:31:38.580Z</time>
      </trkpt>
      <trkpt lat="44.17871" lon="5.25022">
        <ele>1484</ele>
        <time>2014-01-26T09:31:44.470Z</time>
      </trkpt>
      <trkpt lat="44.17867" lon="5.25012">
        <ele>1484.6599936</ele>
        <time>2014-01-26T09:31:50.580Z</time>
      </trkpt>
      <trkpt lat="44.17864" lon="5.25005">
        <ele>1485</ele>
        <time>2014-01-26T09:31:55.580Z</time>
      </trkpt>
      <trkpt lat="44.17861" lon="5.24998">
        <ele>1485.6346092308</ele>
        <time>2014-01-26T09:32:00.580Z</time>
      </trkpt>
      <trkpt lat="44.17857" lon="5.24991">
        <ele>1486</ele>
        <time>2014-01-26T09:32:06.480Z</time>
      </trkpt>
      <trkpt lat="44.17854" lon="5.24984">
        <ele>1487</ele>
        <time>2014-01-26T09:32:11.480Z</time>
      </trkpt>
      <trkpt lat="44.1785" lon="5.24977">
        <ele>1487</ele>
        <time>2014-01-26T09:32:17.480Z</time>
      </trkpt>
      <trkpt lat="44.17847" lon="5.24968">
        <ele>1487</ele>
        <time>2014-01-26T09:32:22.450Z</time>
      </trkpt>
      <trkpt lat="44.17844" lon="5.2496">
        <ele>1487</ele>
        <time>2014-01-26T09:32:27.480Z</time>
      </trkpt>
      <trkpt lat="44.17842" lon="5.24954">
        <ele>1490</ele>
        <time>2014-01-26T09:32:31.480Z</time>
      </trkpt>
      <trkpt lat="44.1784" lon="5.24949">
        <ele>1490.4183668138</ele>
        <time>2014-01-26T09:32:35.350Z</time>
      </trkpt>
      <trkpt lat="44.17837" lon="5.24943">
        <ele>1491</ele>
        <time>2014-01-26T09:32:39.480Z</time>
      </trkpt>
      <trkpt lat="44.17834" lon="5.24937">
        <ele>1491</ele>
        <time>2014-01-26T09:32:43.480Z</time>
      </trkpt>
      <trkpt lat="44.17831" lon="5.2493">
        <ele>1491</ele>
        <time>2014-01-26T09:32:48.480Z</time>
      </trkpt>
      <trkpt lat="44.17826" lon="5.24922">
        <ele>1493</ele>
        <time>2014-01-26T09:32:54.480Z</time>
      </trkpt>
      <trkpt lat="44.17822" lon="5.24915">
        <ele>1493.5299968</ele>
        <time>2014-01-26T09:33:00.450Z</time>
      </trkpt>
      <trkpt lat="44.17817" lon="5.24907">
        <ele>1494</ele>
        <time>2014-01-26T09:33:06.480Z</time>
      </trkpt>
      <trkpt lat="44.17813" lon="5.24901">
        <ele>1495</ele>
        <time>2014-01-26T09:33:12.580Z</time>
      </trkpt>
      <trkpt lat="44.17808" lon="5.24894">
        <ele>1495</ele>
        <time>2014-01-26T09:33:18.580Z</time>
      </trkpt>
      <trkpt lat="44.17804" lon="5.24887">
        <ele>1497</ele>
        <time>2014-01-26T09:33:23.580Z</time>
      </trkpt>
      <trkpt lat="44.178" lon="5.2488">
        <ele>1497</ele>
        <time>2014-01-26T09:33:28.580Z</time>
      </trkpt>
      <trkpt lat="44.17795" lon="5.24873">
        <ele>1500</ele>
        <time>2014-01-26T09:33:34.550Z</time>
      </trkpt>
      <trkpt lat="44.1779" lon="5.24866">
        <ele>1501</ele>
        <time>2014-01-26T09:33:40.580Z</time>
      </trkpt>
      <trkpt lat="44.17784" lon="5.24859">
        <ele>1501</ele>
        <time>2014-01-26T09:33:46.580Z</time>
      </trkpt>
      <trkpt lat="44.1778" lon="5.24852">
        <ele>1501</ele>
        <time>2014-01-26T09:33:52.580Z</time>
      </trkpt>
      <trkpt lat="44.17776" lon="5.24844">
        <ele>1501</ele>
        <time>2014-01-26T09:33:58.580Z</time>
      </trkpt>
      <trkpt lat="44.17772" lon="5.24837">
        <ele>1503</ele>
        <time>2014-01-26T09:34:03.480Z</time>
      </trkpt>
      <trkpt lat="44.17768" lon="5.24829">
        <ele>1503</ele>
        <time>2014-01-26T09:34:08.480Z</time>
      </trkpt>
      <trkpt lat="44.17764" lon="5.24822">
        <ele>1505</ele>
        <time>2014-01-26T09:34:13.480Z</time>
      </trkpt>
      <trkpt lat="44.17759" lon="5.24815">
        <ele>1505</ele>
        <time>2014-01-26T09:34:18.360Z</time>
      </trkpt>
      <trkpt lat="44.17754" lon="5.24807">
        <ele>1507</ele>
        <time>2014-01-26T09:34:24.480Z</time>
      </trkpt>
      <trkpt lat="44.17751" lon="5.248">
        <ele>1507</ele>
        <time>2014-01-26T09:34:29.480Z</time>
      </trkpt>
      <trkpt lat="44.17747" lon="5.24793">
        <ele>1509</ele>
        <time>2014-01-26T09:34:34.450Z</time>
      </trkpt>
      <trkpt lat="44.17742" lon="5.24786">
        <ele>1509</ele>
        <time>2014-01-26T09:34:39.580Z</time>
      </trkpt>
      <trkpt lat="44.17738" lon="5.2478">
        <ele>1510</ele>
        <time>2014-01-26T09:34:44.580Z</time>
      </trkpt>
      <trkpt lat="44.17733" lon="5.24774">
        <ele>1511.2940969782</ele>
        <time>2014-01-26T09:34:50.580Z</time>
      </trkpt>
      <trkpt lat="44.17727" lon="5.24767">
        <ele>1512</ele>
        <time>2014-01-26T09:34:57.580Z</time>
      </trkpt>
      <trkpt lat="44.17721" lon="5.24759">
        <ele>1514</ele>
        <time>2014-01-26T09:35:03.580Z</time>
      </trkpt>
      <trkpt lat="44.17716" lon="5.24751">
        <ele>1514</ele>
        <time>2014-01-26T09:35:09.360Z</time>
      </trkpt>
      <trkpt lat="44.17711" lon="5.24743">
        <ele>1516</ele>
        <time>2014-01-26T09:35:15.480Z</time>
      </trkpt>
      <trkpt lat="44.17706" lon="5.24736">
        <ele>1518</ele>
        <time>2014-01-26T09:35:21.450Z</time>
      </trkpt>
      <trkpt lat="44.17701" lon="5.24728">
        <ele>1518</ele>
        <time>2014-01-26T09:35:27.480Z</time>
      </trkpt>
      <trkpt lat="44.17696" lon="5.24722">
        <ele>1521</ele>
        <time>2014-01-26T09:35:32.480Z</time>
      </trkpt>
      <trkpt lat="44.17691" lon="5.24715">
        <ele>1522</ele>
        <time>2014-01-26T09:35:38.480Z</time>
      </trkpt>
      <trkpt lat="44.17687" lon="5.24707">
        <ele>1523</ele>
        <time>2014-01-26T09:35:44.480Z</time>
      </trkpt>
      <trkpt lat="44.17685" lon="5.247">
        <ele>1523</ele>
        <time>2014-01-26T09:35:48.480Z</time>
      </trkpt>
      <trkpt lat="44.17683" lon="5.24694">
        <ele>1525</ele>
        <time>2014-01-26T09:35:52.480Z</time>
      </trkpt>
      <trkpt lat="44.17679" lon="5.24688">
        <ele>1525</ele>
        <time>2014-01-26T09:35:57.480Z</time>
      </trkpt>
      <trkpt lat="44.17675" lon="5.24683">
        <ele>1527</ele>
        <time>2014-01-26T09:36:01.580Z</time>
      </trkpt>
      <trkpt lat="44.17671" lon="5.24678">
        <ele>1527</ele>
        <time>2014-01-26T09:36:06.580Z</time>
      </trkpt>
      <trkpt lat="44.17667" lon="5.24675">
        <ele>1527</ele>
        <time>2014-01-26T09:36:10.580Z</time>
      </trkpt>
      <trkpt lat="44.17663" lon="5.24674">
        <ele>1527</ele>
        <time>2014-01-26T09:36:16.450Z</time>
      </trkpt>
      <trkpt lat="44.17662" lon="5.24679">
        <ele>1528</ele>
        <time>2014-01-26T09:36:21.580Z</time>
      </trkpt>
      <trkpt lat="44.17664" lon="5.24685">
        <ele>1528</ele>
        <time>2014-01-26T09:36:25.580Z</time>
      </trkpt>
      <trkpt lat="44.17667" lon="5.2469">
        <ele>1528</ele>
        <time>2014-01-26T09:36:29.580Z</time>
      </trkpt>
      <trkpt lat="44.17671" lon="5.24695">
        <ele>1530</ele>
        <time>2014-01-26T09:36:33.320Z</time>
      </trkpt>
      <trkpt lat="44.17674" lon="5.247">
        <ele>1530</ele>
        <time>2014-01-26T09:36:37.480Z</time>
      </trkpt>
      <trkpt lat="44.17677" lon="5.24705">
        <ele>1529</ele>
        <time>2014-01-26T09:36:41.480Z</time>
      </trkpt>
      <trkpt lat="44.1768" lon="5.24711">
        <ele>1529</ele>
        <time>2014-01-26T09:36:47.480Z</time>
      </trkpt>
      <trkpt lat="44.17686" lon="5.24722">
        <ele>1529</ele>
        <time>2014-01-26T09:38:23.580Z</time>
      </trkpt>
      <trkpt lat="44.17688" lon="5.24734">
        <ele>1530</ele>
        <time>2014-01-26T09:38:37.580Z</time>
      </trkpt>
      <trkpt lat="44.17691" lon="5.24746">
        <ele>1530</ele>
        <time>2014-01-26T09:38:45.580Z</time>
      </trkpt>
      <trkpt lat="44.17696" lon="5.24761">
        <ele>1532</ele>
        <time>2014-01-26T09:38:52.480Z</time>
      </trkpt>
      <trkpt lat="44.177" lon="5.24774">
        <ele>1532</ele>
        <time>2014-01-26T09:38:59.480Z</time>
      </trkpt>
      <trkpt lat="44.17704" lon="5.24788">
        <ele>1535</ele>
        <time>2014-01-26T09:39:05.430Z</time>
      </trkpt>
      <trkpt lat="44.17708" lon="5.24802">
        <ele>1535</ele>
        <time>2014-01-26T09:39:12.580Z</time>
      </trkpt>
      <trkpt lat="44.17712" lon="5.24817">
        <ele>1535.6599936</ele>
        <time>2014-01-26T09:39:20.580Z</time>
      </trkpt>
      <trkpt lat="44.17716" lon="5.24831">
        <ele>1536</ele>
        <time>2014-01-26T09:39:28.480Z</time>
      </trkpt>
      <trkpt lat="44.17719" lon="5.24845">
        <ele>1536</ele>
        <time>2014-01-26T09:39:35.480Z</time>
      </trkpt>
      <trkpt lat="44.17722" lon="5.24858">
        <ele>1537</ele>
        <time>2014-01-26T09:39:42.460Z</time>
      </trkpt>
      <trkpt lat="44.17725" lon="5.24872">
        <ele>1537</ele>
        <time>2014-01-26T09:39:49.580Z</time>
      </trkpt>
      <trkpt lat="44.17728" lon="5.24884">
        <ele>1539</ele>
        <time>2014-01-26T09:39:56.580Z</time>
      </trkpt>
      <trkpt lat="44.1773" lon="5.24898">
        <ele>1541</ele>
        <time>2014-01-26T09:40:03.580Z</time>
      </trkpt>
      <trkpt lat="44.17734" lon="5.2491">
        <ele>1541</ele>
        <time>2014-01-26T09:40:10.580Z</time>
      </trkpt>
      <trkpt lat="44.17737" lon="5.24924">
        <ele>1541</ele>
        <time>2014-01-26T09:40:17.450Z</time>
      </trkpt>
      <trkpt lat="44.1774" lon="5.24939">
        <ele>1541</ele>
        <time>2014-01-26T09:40:25.480Z</time>
      </trkpt>
      <trkpt lat="44.17742" lon="5.24953">
        <ele>1542</ele>
        <time>2014-01-26T09:40:34.480Z</time>
      </trkpt>
      <trkpt lat="44.17744" lon="5.24966">
        <ele>1543</ele>
        <time>2014-01-26T09:40:42.480Z</time>
      </trkpt>
      <trkpt lat="44.17746" lon="5.24977">
        <ele>1543</ele>
        <time>2014-01-26T09:40:49.480Z</time>
      </trkpt>
      <trkpt lat="44.17748" lon="5.24991">
        <ele>1544</ele>
        <time>2014-01-26T09:40:57.480Z</time>
      </trkpt>
      <trkpt lat="44.1775" lon="5.25003">
        <ele>1545</ele>
        <time>2014-01-26T09:41:05.390Z</time>
      </trkpt>
      <trkpt lat="44.17752" lon="5.25015">
        <ele>1547</ele>
        <time>2014-01-26T09:41:13.580Z</time>
      </trkpt>
      <trkpt lat="44.17754" lon="5.25029">
        <ele>1547</ele>
        <time>2014-01-26T09:41:22.450Z</time>
      </trkpt>
      <trkpt lat="44.17756" lon="5.25043">
        <ele>1547.6099968</ele>
        <time>2014-01-26T09:41:30.530Z</time>
      </trkpt>
      <trkpt lat="44.17757" lon="5.25057">
        <ele>1548</ele>
        <time>2014-01-26T09:41:39.450Z</time>
      </trkpt>
      <trkpt lat="44.17759" lon="5.25072">
        <ele>1549</ele>
        <time>2014-01-26T09:41:47.580Z</time>
      </trkpt>
      <trkpt lat="44.1776" lon="5.25087">
        <ele>1550</ele>
        <time>2014-01-26T09:41:56.450Z</time>
      </trkpt>
      <trkpt lat="44.17761" lon="5.251">
        <ele>1550</ele>
        <time>2014-01-26T09:42:03.480Z</time>
      </trkpt>
      <trkpt lat="44.17762" lon="5.25111">
        <ele>1551.12</ele>
        <time>2014-01-26T09:42:10.480Z</time>
      </trkpt>
      <trkpt lat="44.17764" lon="5.25123">
        <ele>1552</ele>
        <time>2014-01-26T09:42:16.480Z</time>
      </trkpt>
      <trkpt lat="44.17764" lon="5.25135">
        <ele>1553</ele>
        <time>2014-01-26T09:42:23.480Z</time>
      </trkpt>
      <trkpt lat="44.17765" lon="5.25147">
        <ele>1553.8367488212</ele>
        <time>2014-01-26T09:42:30.350Z</time>
      </trkpt>
      <trkpt lat="44.17765" lon="5.25158">
        <ele>1555</ele>
        <time>2014-01-26T09:42:37.480Z</time>
      </trkpt>
      <trkpt lat="44.17765" lon="5.25171">
        <ele>1555</ele>
        <time>2014-01-26T09:42:45.480Z</time>
      </trkpt>
      <trkpt lat="44.17765" lon="5.25184">
        <ele>1555</ele>
        <time>2014-01-26T09:42:53.480Z</time>
      </trkpt>
      <trkpt lat="44.17766" lon="5.25196">
        <ele>1555</ele>
        <time>2014-01-26T09:43:00.480Z</time>
      </trkpt>
      <trkpt lat="44.17766" lon="5.2521">
        <ele>1555</ele>
        <time>2014-01-26T09:43:08.580Z</time>
      </trkpt>
      <trkpt lat="44.17767" lon="5.25223">
        <ele>1555</ele>
        <time>2014-01-26T09:43:16.580Z</time>
      </trkpt>
      <trkpt lat="44.17768" lon="5.25236">
        <ele>1555</ele>
        <time>2014-01-26T09:43:23.450Z</time>
      </trkpt>
      <trkpt lat="44.17769" lon="5.25249">
        <ele>1555</ele>
        <time>2014-01-26T09:43:29.580Z</time>
      </trkpt>
      <trkpt lat="44.1777" lon="5.25262">
        <ele>1557</ele>
        <time>2014-01-26T09:43:35.580Z</time>
      </trkpt>
      <trkpt lat="44.17772" lon="5.25275">
        <ele>1557.5353615019</ele>
        <time>2014-01-26T09:43:40.460Z</time>
      </trkpt>
      <trkpt lat="44.17773" lon="5.25287">
        <ele>1558</ele>
        <time>2014-01-26T09:43:45.580Z</time>
      </trkpt>
      <trkpt lat="44.17775" lon="5.25299">
        <ele>1558</ele>
        <time>2014-01-26T09:43:51.580Z</time>
      </trkpt>
      <trkpt lat="44.17775" lon="5.25311">
        <ele>1558</ele>
        <time>2014-01-26T09:43:57.480Z</time>
      </trkpt>
      <trkpt lat="44.17776" lon="5.25324">
        <ele>1559</ele>
        <time>2014-01-26T09:44:03.480Z</time>
      </trkpt>
      <trkpt lat="44.17778" lon="5.25339">
        <ele>1560</ele>
        <time>2014-01-26T09:44:11.450Z</time>
      </trkpt>
      <trkpt lat="44.17778" lon="5.25353">
        <ele>1560</ele>
        <time>2014-01-26T09:44:18.580Z</time>
      </trkpt>
      <trkpt lat="44.1778" lon="5.25369">
        <ele>1560</ele>
        <time>2014-01-26T09:44:26.580Z</time>
      </trkpt>
      <trkpt lat="44.17782" lon="5.25384">
        <ele>1561</ele>
        <time>2014-01-26T09:44:34.480Z</time>
      </trkpt>
      <trkpt lat="44.17783" lon="5.25397">
        <ele>1561</ele>
        <time>2014-01-26T09:44:41.480Z</time>
      </trkpt>
      <trkpt lat="44.17784" lon="5.25409">
        <ele>1561</ele>
        <time>2014-01-26T09:44:47.580Z</time>
      </trkpt>
      <trkpt lat="44.17785" lon="5.25423">
        <ele>1561</ele>
        <time>2014-01-26T09:44:54.580Z</time>
      </trkpt>
      <trkpt lat="44.17785" lon="5.25437">
        <ele>1561</ele>
        <time>2014-01-26T09:45:01.580Z</time>
      </trkpt>
      <trkpt lat="44.17785" lon="5.2545">
        <ele>1561</ele>
        <time>2014-01-26T09:45:07.480Z</time>
      </trkpt>
      <trkpt lat="44.17785" lon="5.25464">
        <ele>1563</ele>
        <time>2014-01-26T09:45:14.480Z</time>
      </trkpt>
      <trkpt lat="44.17783" lon="5.25476">
        <ele>1563.5104133333</ele>
        <time>2014-01-26T09:45:20.450Z</time>
      </trkpt>
      <trkpt lat="44.1778" lon="5.25488">
        <ele>1564</ele>
        <time>2014-01-26T09:45:26.580Z</time>
      </trkpt>
      <trkpt lat="44.17777" lon="5.25498">
        <ele>1564</ele>
        <time>2014-01-26T09:45:32.580Z</time>
      </trkpt>
      <trkpt lat="44.17775" lon="5.25505">
        <ele>1564</ele>
        <time>2014-01-26T09:45:36.580Z</time>
      </trkpt>
      <trkpt lat="44.17774" lon="5.2551">
        <ele>1564</ele>
        <time>2014-01-26T09:45:39.580Z</time>
      </trkpt>
      <trkpt lat="44.17771" lon="5.25522">
        <ele>1565</ele>
        <time>2014-01-26T09:45:47.580Z</time>
      </trkpt>
      <trkpt lat="44.17769" lon="5.25531">
        <ele>1567</ele>
        <time>2014-01-26T09:45:52.580Z</time>
      </trkpt>
      <trkpt lat="44.17769" lon="5.25543">
        <ele>1567</ele>
        <time>2014-01-26T09:45:59.480Z</time>
      </trkpt>
      <trkpt lat="44.1777" lon="5.25552">
        <ele>1569</ele>
        <time>2014-01-26T09:46:07.480Z</time>
      </trkpt>
      <trkpt lat="44.17773" lon="5.25563">
        <ele>1569</ele>
        <time>2014-01-26T09:46:17.450Z</time>
      </trkpt>
      <trkpt lat="44.17779" lon="5.25574">
        <ele>1570</ele>
        <time>2014-01-26T09:46:24.480Z</time>
      </trkpt>
      <trkpt lat="44.17784" lon="5.25586">
        <ele>1570</ele>
        <time>2014-01-26T09:46:31.350Z</time>
      </trkpt>
      <trkpt lat="44.17789" lon="5.25597">
        <ele>1570</ele>
        <time>2014-01-26T09:46:39.480Z</time>
      </trkpt>
      <trkpt lat="44.17793" lon="5.25612">
        <ele>1571</ele>
        <time>2014-01-26T09:46:47.580Z</time>
      </trkpt>
      <trkpt lat="44.17797" lon="5.25625">
        <ele>1572</ele>
        <time>2014-01-26T09:46:55.550Z</time>
      </trkpt>
      <trkpt lat="44.178" lon="5.2564">
        <ele>1573</ele>
        <time>2014-01-26T09:47:03.480Z</time>
      </trkpt>
      <trkpt lat="44.17801" lon="5.25653">
        <ele>1573.56</ele>
        <time>2014-01-26T09:47:10.480Z</time>
      </trkpt>
      <trkpt lat="44.17802" lon="5.25668">
        <ele>1574</ele>
        <time>2014-01-26T09:47:18.480Z</time>
      </trkpt>
      <trkpt lat="44.17803" lon="5.25682">
        <ele>1575</ele>
        <time>2014-01-26T09:47:25.480Z</time>
      </trkpt>
      <trkpt lat="44.17805" lon="5.25695">
        <ele>1575</ele>
        <time>2014-01-26T09:47:33.480Z</time>
      </trkpt>
      <trkpt lat="44.17805" lon="5.2571">
        <ele>1577</ele>
        <time>2014-01-26T09:47:42.480Z</time>
      </trkpt>
      <trkpt lat="44.17805" lon="5.25723">
        <ele>1577</ele>
        <time>2014-01-26T09:47:49.450Z</time>
      </trkpt>
      <trkpt lat="44.17805" lon="5.25734">
        <ele>1577</ele>
        <time>2014-01-26T09:47:55.480Z</time>
      </trkpt>
      <trkpt lat="44.17804" lon="5.25748">
        <ele>1578</ele>
        <time>2014-01-26T09:48:01.580Z</time>
      </trkpt>
      <trkpt lat="44.17803" lon="5.25759">
        <ele>1578</ele>
        <time>2014-01-26T09:48:06.580Z</time>
      </trkpt>
      <trkpt lat="44.17803" lon="5.25771">
        <ele>1579</ele>
        <time>2014-01-26T09:48:15.580Z</time>
      </trkpt>
      <trkpt lat="44.17801" lon="5.25782">
        <ele>1580</ele>
        <time>2014-01-26T09:48:23.550Z</time>
      </trkpt>
      <trkpt lat="44.178" lon="5.25795">
        <ele>1582</ele>
        <time>2014-01-26T09:48:32.580Z</time>
      </trkpt>
      <trkpt lat="44.178" lon="5.25808">
        <ele>1582</ele>
        <time>2014-01-26T09:48:41.580Z</time>
      </trkpt>
      <trkpt lat="44.17797" lon="5.2582">
        <ele>1582</ele>
        <time>2014-01-26T09:48:49.580Z</time>
      </trkpt>
      <trkpt lat="44.17793" lon="5.2583">
        <ele>1582.6470484891</ele>
        <time>2014-01-26T09:49:00.580Z</time>
      </trkpt>
      <trkpt lat="44.17791" lon="5.2584">
        <ele>1583</ele>
        <time>2014-01-26T09:49:08.480Z</time>
      </trkpt>
      <trkpt lat="44.17788" lon="5.25848">
        <ele>1584</ele>
        <time>2014-01-26T09:49:15.480Z</time>
      </trkpt>
      <trkpt lat="44.17786" lon="5.25857">
        <ele>1584</ele>
        <time>2014-01-26T09:49:23.580Z</time>
      </trkpt>
      <trkpt lat="44.17783" lon="5.25866">
        <ele>1585</ele>
        <time>2014-01-26T09:49:31.580Z</time>
      </trkpt>
      <trkpt lat="44.1778" lon="5.25874">
        <ele>1585</ele>
        <time>2014-01-26T09:49:37.450Z</time>
      </trkpt>
      <trkpt lat="44.17777" lon="5.25882">
        <ele>1586</ele>
        <time>2014-01-26T09:49:44.480Z</time>
      </trkpt>
      <trkpt lat="44.17776" lon="5.25888">
        <ele>1586</ele>
        <time>2014-01-26T09:49:49.480Z</time>
      </trkpt>
      <trkpt lat="44.17773" lon="5.25896">
        <ele>1588</ele>
        <time>2014-01-26T09:49:54.580Z</time>
      </trkpt>
      <trkpt lat="44.17772" lon="5.25901">
        <ele>1588</ele>
        <time>2014-01-26T09:49:58.480Z</time>
      </trkpt>
      <trkpt lat="44.17771" lon="5.25909">
        <ele>1589</ele>
        <time>2014-01-26T09:50:05.480Z</time>
      </trkpt>
      <trkpt lat="44.17771" lon="5.25916">
        <ele>1591</ele>
        <time>2014-01-26T09:50:52.580Z</time>
      </trkpt>
      <trkpt lat="44.17773" lon="5.25923">
        <ele>1591</ele>
        <time>2014-01-26T09:50:57.580Z</time>
      </trkpt>
      <trkpt lat="44.17776" lon="5.25931">
        <ele>1590</ele>
        <time>2014-01-26T09:51:03.480Z</time>
      </trkpt>
      <trkpt lat="44.1778" lon="5.2594">
        <ele>1590</ele>
        <time>2014-01-26T09:51:09.480Z</time>
      </trkpt>
      <trkpt lat="44.17784" lon="5.25951">
        <ele>1592</ele>
        <time>2014-01-26T09:51:17.350Z</time>
      </trkpt>
      <trkpt lat="44.17785" lon="5.25964">
        <ele>1592</ele>
        <time>2014-01-26T09:51:25.480Z</time>
      </trkpt>
      <trkpt lat="44.17787" lon="5.25977">
        <ele>1594</ele>
        <time>2014-01-26T09:51:34.350Z</time>
      </trkpt>
      <trkpt lat="44.17788" lon="5.2599">
        <ele>1595</ele>
        <time>2014-01-26T09:51:42.480Z</time>
      </trkpt>
      <trkpt lat="44.17788" lon="5.26001">
        <ele>1595</ele>
        <time>2014-01-26T09:51:49.480Z</time>
      </trkpt>
      <trkpt lat="44.17789" lon="5.26011">
        <ele>1596</ele>
        <time>2014-01-26T09:51:55.400Z</time>
      </trkpt>
      <trkpt lat="44.17789" lon="5.26021">
        <ele>1598</ele>
        <time>2014-01-26T09:52:01.580Z</time>
      </trkpt>
      <trkpt lat="44.17791" lon="5.26031">
        <ele>1598</ele>
        <time>2014-01-26T09:52:07.580Z</time>
      </trkpt>
      <trkpt lat="44.17791" lon="5.26043">
        <ele>1599</ele>
        <time>2014-01-26T09:52:14.580Z</time>
      </trkpt>
      <trkpt lat="44.1779" lon="5.26055">
        <ele>1599</ele>
        <time>2014-01-26T09:52:21.580Z</time>
      </trkpt>
      <trkpt lat="44.1779" lon="5.26067">
        <ele>1599</ele>
        <time>2014-01-26T09:52:28.480Z</time>
      </trkpt>
      <trkpt lat="44.1779" lon="5.26079">
        <ele>1600</ele>
        <time>2014-01-26T09:52:35.480Z</time>
      </trkpt>
      <trkpt lat="44.17789" lon="5.26089">
        <ele>1602</ele>
        <time>2014-01-26T09:52:41.450Z</time>
      </trkpt>
      <trkpt lat="44.17789" lon="5.261">
        <ele>1602</ele>
        <time>2014-01-26T09:52:49.580Z</time>
      </trkpt>
      <trkpt lat="44.17789" lon="5.26108">
        <ele>1604</ele>
        <time>2014-01-26T09:53:06.480Z</time>
      </trkpt>
      <trkpt lat="44.17788" lon="5.26116">
        <ele>1604</ele>
        <time>2014-01-26T09:53:12.480Z</time>
      </trkpt>
      <trkpt lat="44.17788" lon="5.26125">
        <ele>1604</ele>
        <time>2014-01-26T09:53:17.580Z</time>
      </trkpt>
      <trkpt lat="44.17788" lon="5.26134">
        <ele>1605</ele>
        <time>2014-01-26T09:53:23.580Z</time>
      </trkpt>
      <trkpt lat="44.17788" lon="5.26144">
        <ele>1605</ele>
        <time>2014-01-26T09:53:29.580Z</time>
      </trkpt>
      <trkpt lat="44.17788" lon="5.26154">
        <ele>1606</ele>
        <time>2014-01-26T09:53:36.480Z</time>
      </trkpt>
      <trkpt lat="44.17787" lon="5.26164">
        <ele>1608</ele>
        <time>2014-01-26T09:53:43.480Z</time>
      </trkpt>
      <trkpt lat="44.17786" lon="5.26174">
        <ele>1608</ele>
        <time>2014-01-26T09:53:49.480Z</time>
      </trkpt>
      <trkpt lat="44.17785" lon="5.26185">
        <ele>1609</ele>
        <time>2014-01-26T09:53:56.480Z</time>
      </trkpt>
      <trkpt lat="44.17785" lon="5.26193">
        <ele>1611</ele>
        <time>2014-01-26T09:54:05.480Z</time>
      </trkpt>
      <trkpt lat="44.17784" lon="5.26201">
        <ele>1611.5299968</ele>
        <time>2014-01-26T09:54:10.450Z</time>
      </trkpt>
      <trkpt lat="44.17784" lon="5.2621">
        <ele>1612</ele>
        <time>2014-01-26T09:54:16.480Z</time>
      </trkpt>
      <trkpt lat="44.17783" lon="5.26219">
        <ele>1612</ele>
        <time>2014-01-26T09:54:22.480Z</time>
      </trkpt>
      <trkpt lat="44.17784" lon="5.26229">
        <ele>1612</ele>
        <time>2014-01-26T09:54:29.420Z</time>
      </trkpt>
      <trkpt lat="44.17784" lon="5.26239">
        <ele>1613</ele>
        <time>2014-01-26T09:54:36.580Z</time>
      </trkpt>
      <trkpt lat="44.17785" lon="5.26249">
        <ele>1613</ele>
        <time>2014-01-26T09:54:42.580Z</time>
      </trkpt>
      <trkpt lat="44.17785" lon="5.2626">
        <ele>1613</ele>
        <time>2014-01-26T09:54:49.550Z</time>
      </trkpt>
      <trkpt lat="44.17786" lon="5.2627">
        <ele>1615</ele>
        <time>2014-01-26T09:54:56.580Z</time>
      </trkpt>
      <trkpt lat="44.17788" lon="5.2628">
        <ele>1616</ele>
        <time>2014-01-26T09:55:03.450Z</time>
      </trkpt>
      <trkpt lat="44.17787" lon="5.26289">
        <ele>1618</ele>
        <time>2014-01-26T09:55:25.580Z</time>
      </trkpt>
      <trkpt lat="44.17787" lon="5.26299">
        <ele>1616.3400064</ele>
        <time>2014-01-26T09:55:30.580Z</time>
      </trkpt>
      <trkpt lat="44.17787" lon="5.2631">
        <ele>1616</ele>
        <time>2014-01-26T09:55:36.590Z</time>
      </trkpt>
      <trkpt lat="44.17788" lon="5.2632">
        <ele>1617</ele>
        <time>2014-01-26T09:55:42.580Z</time>
      </trkpt>
      <trkpt lat="44.1779" lon="5.26332">
        <ele>1618</ele>
        <time>2014-01-26T09:55:53.480Z</time>
      </trkpt>
      <trkpt lat="44.1779" lon="5.26345">
        <ele>1618</ele>
        <time>2014-01-26T09:55:58.480Z</time>
      </trkpt>
      <trkpt lat="44.1779" lon="5.26356">
        <ele>1620</ele>
        <time>2014-01-26T09:56:03.450Z</time>
      </trkpt>
      <trkpt lat="44.1779" lon="5.26368">
        <ele>1620</ele>
        <time>2014-01-26T09:56:08.480Z</time>
      </trkpt>
      <trkpt lat="44.1779" lon="5.26378">
        <ele>1623</ele>
        <time>2014-01-26T09:56:13.480Z</time>
      </trkpt>
      <trkpt lat="44.1779" lon="5.26389">
        <ele>1625</ele>
        <time>2014-01-26T09:56:18.390Z</time>
      </trkpt>
      <trkpt lat="44.17789" lon="5.264">
        <ele>1625</ele>
        <time>2014-01-26T09:56:23.350Z</time>
      </trkpt>
      <trkpt lat="44.1779" lon="5.2641">
        <ele>1625</ele>
        <time>2014-01-26T09:56:29.480Z</time>
      </trkpt>
      <trkpt lat="44.1779" lon="5.26419">
        <ele>1625</ele>
        <time>2014-01-26T09:56:35.480Z</time>
      </trkpt>
      <trkpt lat="44.17789" lon="5.26428">
        <ele>1625.4183744106</ele>
        <time>2014-01-26T09:56:40.350Z</time>
      </trkpt>
      <trkpt lat="44.17789" lon="5.26438">
        <ele>1626</ele>
        <time>2014-01-26T09:56:46.580Z</time>
      </trkpt>
      <trkpt lat="44.17789" lon="5.26446">
        <ele>1628</ele>
        <time>2014-01-26T09:56:52.580Z</time>
      </trkpt>
      <trkpt lat="44.17789" lon="5.26455">
        <ele>1629</ele>
        <time>2014-01-26T09:57:29.580Z</time>
      </trkpt>
      <trkpt lat="44.17785" lon="5.26455">
        <ele>1630</ele>
        <time>2014-01-26T09:58:12.580Z</time>
      </trkpt>
      <trkpt lat="44.17782" lon="5.26462">
        <ele>1630</ele>
        <time>2014-01-26T09:59:18.580Z</time>
      </trkpt>
      <trkpt lat="44.17779" lon="5.26471">
        <ele>1634</ele>
        <time>2014-01-26T09:59:32.580Z</time>
      </trkpt>
      <trkpt lat="44.17777" lon="5.2648">
        <ele>1635.3199872</ele>
        <time>2014-01-26T09:59:40.580Z</time>
      </trkpt>
      <trkpt lat="44.17774" lon="5.2649">
        <ele>1636</ele>
        <time>2014-01-26T09:59:47.260Z</time>
      </trkpt>
      <trkpt lat="44.17769" lon="5.26498">
        <ele>1639</ele>
        <time>2014-01-26T09:59:54.480Z</time>
      </trkpt>
      <trkpt lat="44.17763" lon="5.26506">
        <ele>1644</ele>
        <time>2014-01-26T10:00:03.480Z</time>
      </trkpt>
      <trkpt lat="44.1776" lon="5.26514">
        <ele>1646</ele>
        <time>2014-01-26T10:00:12.480Z</time>
      </trkpt>
      <trkpt lat="44.17757" lon="5.26524">
        <ele>1648</ele>
        <time>2014-01-26T10:00:27.450Z</time>
      </trkpt>
      <trkpt lat="44.17753" lon="5.26535">
        <ele>1651.12</ele>
        <time>2014-01-26T10:00:40.480Z</time>
      </trkpt>
      <trkpt lat="44.17748" lon="5.26544">
        <ele>1651</ele>
        <time>2014-01-26T10:00:48.480Z</time>
      </trkpt>
      <trkpt lat="44.17744" lon="5.26554">
        <ele>1657.3199872</ele>
        <time>2014-01-26T10:01:00.580Z</time>
      </trkpt>
      <trkpt lat="44.17741" lon="5.26564">
        <ele>1658</ele>
        <time>2014-01-26T10:01:14.480Z</time>
      </trkpt>
      <trkpt lat="44.17737" lon="5.26575">
        <ele>1659</ele>
        <time>2014-01-26T10:01:25.480Z</time>
      </trkpt>
      <trkpt lat="44.17732" lon="5.26586">
        <ele>1661</ele>
        <time>2014-01-26T10:01:38.580Z</time>
      </trkpt>
      <trkpt lat="44.17729" lon="5.26598">
        <ele>1666</ele>
        <time>2014-01-26T10:01:51.480Z</time>
      </trkpt>
      <trkpt lat="44.17727" lon="5.26609">
        <ele>1668</ele>
        <time>2014-01-26T10:02:05.580Z</time>
      </trkpt>
      <trkpt lat="44.17723" lon="5.26618">
        <ele>1672</ele>
        <time>2014-01-26T10:02:14.580Z</time>
      </trkpt>
      <trkpt lat="44.17721" lon="5.26628">
        <ele>1674</ele>
        <time>2014-01-26T10:02:23.580Z</time>
      </trkpt>
      <trkpt lat="44.17719" lon="5.26641">
        <ele>1675</ele>
        <time>2014-01-26T10:02:43.480Z</time>
      </trkpt>
      <trkpt lat="44.17717" lon="5.26654">
        <ele>1677</ele>
        <time>2014-01-26T10:02:58.480Z</time>
      </trkpt>
      <trkpt lat="44.17713" lon="5.26664">
        <ele>1681</ele>
        <time>2014-01-26T10:03:19.580Z</time>
      </trkpt>
      <trkpt lat="44.17711" lon="5.26673">
        <ele>1682</ele>
        <time>2014-01-26T10:03:28.350Z</time>
      </trkpt>
      <trkpt lat="44.17707" lon="5.26686">
        <ele>1689</ele>
        <time>2014-01-26T10:03:42.580Z</time>
      </trkpt>
      <trkpt lat="44.17702" lon="5.26696">
        <ele>1692</ele>
        <time>2014-01-26T10:03:54.480Z</time>
      </trkpt>
      <trkpt lat="44.17698" lon="5.26706">
        <ele>1695</ele>
        <time>2014-01-26T10:04:11.480Z</time>
      </trkpt>
      <trkpt lat="44.17694" lon="5.26716">
        <ele>1699.2600064</ele>
        <time>2014-01-26T10:04:25.550Z</time>
      </trkpt>
      <trkpt lat="44.1769" lon="5.26728">
        <ele>1702</ele>
        <time>2014-01-26T10:04:45.450Z</time>
      </trkpt>
      <trkpt lat="44.17685" lon="5.26738">
        <ele>1705.9799808</ele>
        <time>2014-01-26T10:05:00.580Z</time>
      </trkpt>
      <trkpt lat="44.17682" lon="5.26748">
        <ele>1710</ele>
        <time>2014-01-26T10:05:21.490Z</time>
      </trkpt>
      <trkpt lat="44.17676" lon="5.26752">
        <ele>1712</ele>
        <time>2014-01-26T10:05:38.480Z</time>
      </trkpt>
      <trkpt lat="44.1767" lon="5.26762">
        <ele>1717</ele>
        <time>2014-01-26T10:06:11.580Z</time>
      </trkpt>
      <trkpt lat="44.17665" lon="5.26771">
        <ele>1717.6599936</ele>
        <time>2014-01-26T10:06:20.580Z</time>
      </trkpt>
      <trkpt lat="44.17661" lon="5.26783">
        <ele>1721</ele>
        <time>2014-01-26T10:06:34.580Z</time>
      </trkpt>
      <trkpt lat="44.17657" lon="5.26794">
        <ele>1725.56</ele>
        <time>2014-01-26T10:06:45.480Z</time>
      </trkpt>
      <trkpt lat="44.17652" lon="5.26802">
        <ele>1727</ele>
        <time>2014-01-26T10:06:57.550Z</time>
      </trkpt>
      <trkpt lat="44.17647" lon="5.26813">
        <ele>1730</ele>
        <time>2014-01-26T10:07:12.480Z</time>
      </trkpt>
      <trkpt lat="44.17642" lon="5.26824">
        <ele>1732</ele>
        <time>2014-01-26T10:07:25.480Z</time>
      </trkpt>
      <trkpt lat="44.17637" lon="5.26834">
        <ele>1740</ele>
        <time>2014-01-26T10:07:37.480Z</time>
      </trkpt>
      <trkpt lat="44.17631" lon="5.26845">
        <ele>1741</ele>
        <time>2014-01-26T10:07:49.580Z</time>
      </trkpt>
      <trkpt lat="44.17626" lon="5.26854">
        <ele>1745</ele>
        <time>2014-01-26T10:08:01.480Z</time>
      </trkpt>
      <trkpt lat="44.17622" lon="5.26863">
        <ele>1751</ele>
        <time>2014-01-26T10:08:18.580Z</time>
      </trkpt>
      <trkpt lat="44.17618" lon="5.26873">
        <ele>1751</ele>
        <time>2014-01-26T10:08:33.580Z</time>
      </trkpt>
      <trkpt lat="44.17614" lon="5.26883">
        <ele>1752</ele>
        <time>2014-01-26T10:08:43.350Z</time>
      </trkpt>
      <trkpt lat="44.1761" lon="5.26893">
        <ele>1753</ele>
        <time>2014-01-26T10:08:55.580Z</time>
      </trkpt>
      <trkpt lat="44.17606" lon="5.26904">
        <ele>1762</ele>
        <time>2014-01-26T10:09:07.580Z</time>
      </trkpt>
      <trkpt lat="44.176" lon="5.26916">
        <ele>1765</ele>
        <time>2014-01-26T10:09:21.580Z</time>
      </trkpt>
      <trkpt lat="44.17594" lon="5.26923">
        <ele>1765</ele>
        <time>2014-01-26T10:09:28.580Z</time>
      </trkpt>
      <trkpt lat="44.17586" lon="5.26931">
        <ele>1765</ele>
        <time>2014-01-26T10:10:45.580Z</time>
      </trkpt>
      <trkpt lat="44.17581" lon="5.26941">
        <ele>1767</ele>
        <time>2014-01-26T10:10:57.580Z</time>
      </trkpt>
      <trkpt lat="44.17576" lon="5.26953">
        <ele>1777</ele>
        <time>2014-01-26T10:11:12.580Z</time>
      </trkpt>
      <trkpt lat="44.17567" lon="5.26959">
        <ele>1780.3399936</ele>
        <time>2014-01-26T10:13:03.580Z</time>
      </trkpt>
      <trkpt lat="44.17557" lon="5.26963">
        <ele>1786.6600064</ele>
        <time>2014-01-26T10:13:15.580Z</time>
      </trkpt>
      <trkpt lat="44.17552" lon="5.26975">
        <ele>1785</ele>
        <time>2014-01-26T10:13:28.580Z</time>
      </trkpt>
      <trkpt lat="44.17546" lon="5.26987">
        <ele>1784.4615384615</ele>
        <time>2014-01-26T10:13:39.480Z</time>
      </trkpt>
      <trkpt lat="44.1754" lon="5.26998">
        <ele>1788</ele>
        <time>2014-01-26T10:13:51.580Z</time>
      </trkpt>
      <trkpt lat="44.17533" lon="5.27007">
        <ele>1800.6599936</ele>
        <time>2014-01-26T10:14:04.580Z</time>
      </trkpt>
      <trkpt lat="44.17526" lon="5.27017">
        <ele>1798</ele>
        <time>2014-01-26T10:14:21.580Z</time>
      </trkpt>
      <trkpt lat="44.17518" lon="5.27022">
        <ele>1799</ele>
        <time>2014-01-26T10:14:58.480Z</time>
      </trkpt>
      <trkpt lat="44.17509" lon="5.27028">
        <ele>1810</ele>
        <time>2014-01-26T10:15:11.580Z</time>
      </trkpt>
      <trkpt lat="44.17501" lon="5.27036">
        <ele>1813</ele>
        <time>2014-01-26T10:15:24.480Z</time>
      </trkpt>
      <trkpt lat="44.17492" lon="5.27042">
        <ele>1823.3653907692</ele>
        <time>2014-01-26T10:15:38.580Z</time>
      </trkpt>
      <trkpt lat="44.17483" lon="5.27045">
        <ele>1828.9400064</ele>
        <time>2014-01-26T10:15:48.450Z</time>
      </trkpt>
      <trkpt lat="44.17475" lon="5.2705">
        <ele>1831</ele>
        <time>2014-01-26T10:15:56.450Z</time>
      </trkpt>
      <trkpt lat="44.17467" lon="5.27054">
        <ele>1832</ele>
        <time>2014-01-26T10:16:04.580Z</time>
      </trkpt>
      <trkpt lat="44.1746" lon="5.27057">
        <ele>1845.24</ele>
        <time>2014-01-26T10:16:14.480Z</time>
      </trkpt>
      <trkpt lat="44.17452" lon="5.27061">
        <ele>1858.4199936</ele>
        <time>2014-01-26T10:16:24.340Z</time>
      </trkpt>
      <trkpt lat="44.17442" lon="5.27064">
        <ele>1873</ele>
        <time>2014-01-26T10:16:35.580Z</time>
      </trkpt>
      <trkpt lat="44.17439" lon="5.27072">
        <ele>1875.6399744</ele>
        <time>2014-01-26T10:16:48.580Z</time>
      </trkpt>
      <trkpt lat="44.17433" lon="5.27077">
        <ele>1876.12</ele>
        <time>2014-01-26T10:19:56.480Z</time>
      </trkpt>
      <trkpt lat="44.17428" lon="5.27079">
        <ele>1858</ele>
        <time>2014-01-26T10:20:26.580Z</time>
      </trkpt>
      <trkpt lat="44.17423" lon="5.27079">
        <ele>1872</ele>
        <time>2014-01-26T10:20:44.580Z</time>
      </trkpt>
      <trkpt lat="44.17415" lon="5.27076">
        <ele>1863</ele>
        <time>2014-01-26T10:20:54.480Z</time>
      </trkpt>
      <trkpt lat="44.17408" lon="5.27074">
        <ele>1857</ele>
        <time>2014-01-26T10:21:03.580Z</time>
      </trkpt>
      <trkpt lat="44.17404" lon="5.27085">
        <ele>1853</ele>
        <time>2014-01-26T10:21:15.480Z</time>
      </trkpt>
      <trkpt lat="44.17403" lon="5.27095">
        <ele>1839.12</ele>
        <time>2014-01-26T10:21:37.480Z</time>
      </trkpt>
      <trkpt lat="44.17404" lon="5.27106">
        <ele>1837</ele>
        <time>2014-01-26T10:21:51.480Z</time>
      </trkpt>
      <trkpt lat="44.17407" lon="5.27112">
        <ele>1845</ele>
        <time>2014-01-26T10:23:21.580Z</time>
      </trkpt>
      <trkpt lat="44.17406" lon="5.2712">
        <ele>1846</ele>
        <time>2014-01-26T10:23:39.580Z</time>
      </trkpt>
      <trkpt lat="44.17403" lon="5.27129">
        <ele>1821</ele>
        <time>2014-01-26T10:28:18.480Z</time>
      </trkpt>
      <trkpt lat="44.17402" lon="5.27137">
        <ele>1817</ele>
        <time>2014-01-26T10:28:35.580Z</time>
      </trkpt>
      <trkpt lat="44.174" lon="5.27142">
        <ele>1825</ele>
        <time>2014-01-26T10:28:49.580Z</time>
      </trkpt>
      <trkpt lat="44.17403" lon="5.27153">
        <ele>1826</ele>
        <time>2014-01-26T10:29:09.580Z</time>
      </trkpt>
      <trkpt lat="44.17403" lon="5.27164">
        <ele>1824</ele>
        <time>2014-01-26T10:29:17.480Z</time>
      </trkpt>
      <trkpt lat="44.174" lon="5.27174">
        <ele>1829.12</ele>
        <time>2014-01-26T10:29:24.480Z</time>
      </trkpt>
      <trkpt lat="44.17396" lon="5.2718">
        <ele>1827.56</ele>
        <time>2014-01-26T10:29:29.480Z</time>
      </trkpt>
      <trkpt lat="44.17392" lon="5.27187">
        <ele>1826</ele>
        <time>2014-01-26T10:29:34.480Z</time>
      </trkpt>
      <trkpt lat="44.17387" lon="5.27192">
        <ele>1826</ele>
        <time>2014-01-26T10:29:39.480Z</time>
      </trkpt>
      <trkpt lat="44.17383" lon="5.272">
        <ele>1826</ele>
        <time>2014-01-26T10:29:51.450Z</time>
      </trkpt>
      <trkpt lat="44.1738" lon="5.27205">
        <ele>1823</ele>
        <time>2014-01-26T10:30:01.480Z</time>
      </trkpt>
      <trkpt lat="44.1738" lon="5.27212">
        <ele>1825</ele>
        <time>2014-01-26T10:30:19.580Z</time>
      </trkpt>
      <trkpt lat="44.17375" lon="5.27216">
        <ele>1831</ele>
        <time>2014-01-26T10:30:29.580Z</time>
      </trkpt>
      <trkpt lat="44.17369" lon="5.27214">
        <ele>1838.9800192</ele>
        <time>2014-01-26T10:30:37.580Z</time>
      </trkpt>
      <trkpt lat="44.17364" lon="5.27216">
        <ele>1832</ele>
        <time>2014-01-26T10:30:43.580Z</time>
      </trkpt>
      <trkpt lat="44.17359" lon="5.27217">
        <ele>1832</ele>
        <time>2014-01-26T10:30:49.580Z</time>
      </trkpt>
      <trkpt lat="44.17355" lon="5.27219">
        <ele>1832</ele>
        <time>2014-01-26T10:30:54.580Z</time>
      </trkpt>
      <trkpt lat="44.1735" lon="5.27221">
        <ele>1832</ele>
        <time>2014-01-26T10:30:59.580Z</time>
      </trkpt>
      <trkpt lat="44.17346" lon="5.27224">
        <ele>1830.56</ele>
        <time>2014-01-26T10:31:16.480Z</time>
      </trkpt>
      <trkpt lat="44.17341" lon="5.27226">
        <ele>1830</ele>
        <time>2014-01-26T10:31:22.480Z</time>
      </trkpt>
      <trkpt lat="44.17335" lon="5.27226">
        <ele>1830</ele>
        <time>2014-01-26T10:31:28.480Z</time>
      </trkpt>
      <trkpt lat="44.1733" lon="5.27227">
        <ele>1832</ele>
        <time>2014-01-26T10:31:32.480Z</time>
      </trkpt>
      <trkpt lat="44.17325" lon="5.27227">
        <ele>1832</ele>
        <time>2014-01-26T10:31:37.480Z</time>
      </trkpt>
      <trkpt lat="44.1732" lon="5.27229">
        <ele>1834</ele>
        <time>2014-01-26T10:31:42.480Z</time>
      </trkpt>
      <trkpt lat="44.17315" lon="5.2723">
        <ele>1834</ele>
        <time>2014-01-26T10:31:47.480Z</time>
      </trkpt>
      <trkpt lat="44.1731" lon="5.27231">
        <ele>1836</ele>
        <time>2014-01-26T10:31:52.580Z</time>
      </trkpt>
      <trkpt lat="44.17306" lon="5.27232">
        <ele>1836</ele>
        <time>2014-01-26T10:31:57.580Z</time>
      </trkpt>
      <trkpt lat="44.17301" lon="5.27232">
        <ele>1837</ele>
        <time>2014-01-26T10:32:03.480Z</time>
      </trkpt>
      <trkpt lat="44.17296" lon="5.27232">
        <ele>1836</ele>
        <time>2014-01-26T10:32:09.580Z</time>
      </trkpt>
      <trkpt lat="44.17291" lon="5.27232">
        <ele>1834</ele>
        <time>2014-01-26T10:32:15.580Z</time>
      </trkpt>
      <trkpt lat="44.17284" lon="5.27236">
        <ele>1833</ele>
        <time>2014-01-26T10:32:26.580Z</time>
      </trkpt>
      <trkpt lat="44.17277" lon="5.27237">
        <ele>1837</ele>
        <time>2014-01-26T10:32:32.580Z</time>
      </trkpt>
      <trkpt lat="44.17271" lon="5.27239">
        <ele>1840</ele>
        <time>2014-01-26T10:32:38.580Z</time>
      </trkpt>
      <trkpt lat="44.17266" lon="5.27244">
        <ele>1837.6399744</ele>
        <time>2014-01-26T10:32:46.580Z</time>
      </trkpt>
      <trkpt lat="44.17268" lon="5.27253">
        <ele>1832.8</ele>
        <time>2014-01-26T10:34:00.480Z</time>
      </trkpt>
      <trkpt lat="44.17276" lon="5.27253">
        <ele>1834.12</ele>
        <time>2014-01-26T10:34:16.480Z</time>
      </trkpt>
      <trkpt lat="44.17282" lon="5.27256">
        <ele>1837</ele>
        <time>2014-01-26T10:34:34.580Z</time>
      </trkpt>
      <trkpt lat="44.17291" lon="5.27259">
        <ele>1833.0200192</ele>
        <time>2014-01-26T10:37:54.580Z</time>
      </trkpt>
      <trkpt lat="44.17298" lon="5.27257">
        <ele>1841</ele>
        <time>2014-01-26T10:38:03.290Z</time>
      </trkpt>
      <trkpt lat="44.17303" lon="5.27254">
        <ele>1839</ele>
        <time>2014-01-26T10:38:11.480Z</time>
      </trkpt>
      <trkpt lat="44.17297" lon="5.27258">
        <ele>1836.600064</ele>
        <time>2014-01-26T10:38:59.580Z</time>
      </trkpt>
      <trkpt lat="44.17304" lon="5.2726">
        <ele>1845</ele>
        <time>2014-01-26T10:39:41.480Z</time>
      </trkpt>
      <trkpt lat="44.17313" lon="5.2726">
        <ele>1843</ele>
        <time>2014-01-26T10:39:51.580Z</time>
      </trkpt>
      <trkpt lat="44.17319" lon="5.27259">
        <ele>1843</ele>
        <time>2014-01-26T10:39:57.580Z</time>
      </trkpt>
      <trkpt lat="44.17327" lon="5.27258">
        <ele>1843</ele>
        <time>2014-01-26T10:40:04.450Z</time>
      </trkpt>
      <trkpt lat="44.17333" lon="5.27258">
        <ele>1843</ele>
        <time>2014-01-26T10:40:10.480Z</time>
      </trkpt>
      <trkpt lat="44.1734" lon="5.27258">
        <ele>1843</ele>
        <time>2014-01-26T10:40:17.480Z</time>
      </trkpt>
      <trkpt lat="44.17347" lon="5.27256">
        <ele>1841</ele>
        <time>2014-01-26T10:40:25.580Z</time>
      </trkpt>
      <trkpt lat="44.17351" lon="5.27251">
        <ele>1839.6800128</ele>
        <time>2014-01-26T10:40:30.580Z</time>
      </trkpt>
      <trkpt lat="44.17355" lon="5.27247">
        <ele>1839</ele>
        <time>2014-01-26T10:40:34.580Z</time>
      </trkpt>
      <trkpt lat="44.17361" lon="5.27245">
        <ele>1839</ele>
        <time>2014-01-26T10:40:38.480Z</time>
      </trkpt>
      <trkpt lat="44.17368" lon="5.27244">
        <ele>1835</ele>
        <time>2014-01-26T10:40:44.480Z</time>
      </trkpt>
      <trkpt lat="44.17373" lon="5.27245">
        <ele>1832</ele>
        <time>2014-01-26T10:40:48.480Z</time>
      </trkpt>
      <trkpt lat="44.17378" lon="5.27247">
        <ele>1829</ele>
        <time>2014-01-26T10:40:52.350Z</time>
      </trkpt>
      <trkpt lat="44.17385" lon="5.27248">
        <ele>1829.44</ele>
        <time>2014-01-26T10:40:58.480Z</time>
      </trkpt>
      <trkpt lat="44.1739" lon="5.2725">
        <ele>1828</ele>
        <time>2014-01-26T10:41:03.480Z</time>
      </trkpt>
      <trkpt lat="44.17396" lon="5.2725">
        <ele>1828</ele>
        <time>2014-01-26T10:41:08.480Z</time>
      </trkpt>
      <trkpt lat="44.174" lon="5.27249">
        <ele>1827</ele>
        <time>2014-01-26T10:41:12.580Z</time>
      </trkpt>
      <trkpt lat="44.17405" lon="5.27252">
        <ele>1827</ele>
        <time>2014-01-26T10:41:17.580Z</time>
      </trkpt>
      <trkpt lat="44.17408" lon="5.27255">
        <ele>1818.3400064</ele>
        <time>2014-01-26T10:44:20.580Z</time>
      </trkpt>
      <trkpt lat="44.17406" lon="5.27261">
        <ele>1815</ele>
        <time>2014-01-26T10:56:54.580Z</time>
      </trkpt>
      <trkpt lat="44.17407" lon="5.27268">
        <ele>1815</ele>
        <time>2014-01-26T10:56:59.580Z</time>
      </trkpt>
      <trkpt lat="44.17406" lon="5.27276">
        <ele>1818</ele>
        <time>2014-01-26T10:57:03.480Z</time>
      </trkpt>
      <trkpt lat="44.17406" lon="5.27282">
        <ele>1813</ele>
        <time>2014-01-26T10:57:07.480Z</time>
      </trkpt>
      <trkpt lat="44.17405" lon="5.27288">
        <ele>1813</ele>
        <time>2014-01-26T10:57:10.480Z</time>
      </trkpt>
      <trkpt lat="44.17405" lon="5.27294">
        <ele>1813</ele>
        <time>2014-01-26T10:57:13.480Z</time>
      </trkpt>
      <trkpt lat="44.17411" lon="5.27297">
        <ele>1808</ele>
        <time>2014-01-26T10:57:17.480Z</time>
      </trkpt>
      <trkpt lat="44.17416" lon="5.27307">
        <ele>1804.849984</ele>
        <time>2014-01-26T10:57:20.550Z</time>
      </trkpt>
      <trkpt lat="44.17422" lon="5.27314">
        <ele>1803.9399424</ele>
        <time>2014-01-26T10:57:24.580Z</time>
      </trkpt>
      <trkpt lat="44.17425" lon="5.27325">
        <ele>1798.0200192</ele>
        <time>2014-01-26T10:57:28.580Z</time>
      </trkpt>
      <trkpt lat="44.1743" lon="5.27335">
        <ele>1805</ele>
        <time>2014-01-26T10:57:33.580Z</time>
      </trkpt>
      <trkpt lat="44.17436" lon="5.27335">
        <ele>1805</ele>
        <time>2014-01-26T10:57:37.480Z</time>
      </trkpt>
      <trkpt lat="44.17444" lon="5.27334">
        <ele>1801.64</ele>
        <time>2014-01-26T10:57:40.480Z</time>
      </trkpt>
      <trkpt lat="44.17451" lon="5.27347">
        <ele>1776.08</ele>
        <time>2014-01-26T10:57:44.480Z</time>
      </trkpt>
      <trkpt lat="44.17459" lon="5.27357">
        <ele>1771.32</ele>
        <time>2014-01-26T10:57:48.480Z</time>
      </trkpt>
      <trkpt lat="44.17465" lon="5.2737">
        <ele>1765.9230769231</ele>
        <time>2014-01-26T10:57:51.480Z</time>
      </trkpt>
      <trkpt lat="44.17475" lon="5.2737">
        <ele>1755.5399936</ele>
        <time>2014-01-26T10:57:58.380Z</time>
      </trkpt>
      <trkpt lat="44.17485" lon="5.27376">
        <ele>1751</ele>
        <time>2014-01-26T10:58:17.270Z</time>
      </trkpt>
      <trkpt lat="44.17494" lon="5.27384">
        <ele>1746</ele>
        <time>2014-01-26T10:58:23.380Z</time>
      </trkpt>
      <trkpt lat="44.17501" lon="5.27393">
        <ele>1742</ele>
        <time>2014-01-26T10:58:28.380Z</time>
      </trkpt>
      <trkpt lat="44.17513" lon="5.27404">
        <ele>1730.0100096</ele>
        <time>2014-01-26T10:58:33.250Z</time>
      </trkpt>
      <trkpt lat="44.1752" lon="5.27418">
        <ele>1723.9200128</ele>
        <time>2014-01-26T10:58:36.380Z</time>
      </trkpt>
      <trkpt lat="44.17515" lon="5.27431">
        <ele>1719.68</ele>
        <time>2014-01-26T10:58:44.480Z</time>
      </trkpt>
      <trkpt lat="44.17522" lon="5.27444">
        <ele>1717.56</ele>
        <time>2014-01-26T10:58:49.480Z</time>
      </trkpt>
      <trkpt lat="44.17533" lon="5.27449">
        <ele>1706.6200192</ele>
        <time>2014-01-26T10:58:53.380Z</time>
      </trkpt>
      <trkpt lat="44.17543" lon="5.27448">
        <ele>1710.2399616</ele>
        <time>2014-01-26T10:58:56.380Z</time>
      </trkpt>
      <trkpt lat="44.17553" lon="5.2745">
        <ele>1699.7451152635</ele>
        <time>2014-01-26T10:58:59.380Z</time>
      </trkpt>
      <trkpt lat="44.17566" lon="5.27449">
        <ele>1697.0800128</ele>
        <time>2014-01-26T10:59:03.380Z</time>
      </trkpt>
      <trkpt lat="44.17577" lon="5.27453">
        <ele>1695</ele>
        <time>2014-01-26T10:59:07.350Z</time>
      </trkpt>
      <trkpt lat="44.17586" lon="5.27454">
        <ele>1691.76</ele>
        <time>2014-01-26T10:59:12.480Z</time>
      </trkpt>
      <trkpt lat="44.17592" lon="5.27438">
        <ele>1686.7799552</ele>
        <time>2014-01-26T10:59:20.380Z</time>
      </trkpt>
      <trkpt lat="44.17601" lon="5.27424">
        <ele>1679.6200192</ele>
        <time>2014-01-26T10:59:23.380Z</time>
      </trkpt>
      <trkpt lat="44.17608" lon="5.27424">
        <ele>1676</ele>
        <time>2014-01-26T10:59:25.250Z</time>
      </trkpt>
      <trkpt lat="44.17618" lon="5.27429">
        <ele>1675.5400064</ele>
        <time>2014-01-26T10:59:29.380Z</time>
      </trkpt>
      <trkpt lat="44.17614" lon="5.27435">
        <ele>1672</ele>
        <time>2014-01-26T11:00:16.250Z</time>
      </trkpt>
      <trkpt lat="44.1762" lon="5.27421">
        <ele>1672</ele>
        <time>2014-01-26T11:00:29.480Z</time>
      </trkpt>
      <trkpt lat="44.17628" lon="5.27411">
        <ele>1672</ele>
        <time>2014-01-26T11:00:32.480Z</time>
      </trkpt>
      <trkpt lat="44.1764" lon="5.274">
        <ele>1672</ele>
        <time>2014-01-26T11:00:35.480Z</time>
      </trkpt>
      <trkpt lat="44.17652" lon="5.27391">
        <ele>1672</ele>
        <time>2014-01-26T11:00:38.450Z</time>
      </trkpt>
      <trkpt lat="44.17662" lon="5.27388">
        <ele>1665.84</ele>
        <time>2014-01-26T11:00:40.480Z</time>
      </trkpt>
      <trkpt lat="44.17672" lon="5.27382">
        <ele>1649.4897796586</ele>
        <time>2014-01-26T11:00:42.190Z</time>
      </trkpt>
      <trkpt lat="44.17682" lon="5.27376">
        <ele>1647.1599744</ele>
        <time>2014-01-26T11:00:44.380Z</time>
      </trkpt>
      <trkpt lat="44.17692" lon="5.2737">
        <ele>1642.0799872</ele>
        <time>2014-01-26T11:00:46.380Z</time>
      </trkpt>
      <trkpt lat="44.17701" lon="5.27365">
        <ele>1640.699968</ele>
        <time>2014-01-26T11:00:48.380Z</time>
      </trkpt>
      <trkpt lat="44.1771" lon="5.27359">
        <ele>1635.3299968</ele>
        <time>2014-01-26T11:00:50.250Z</time>
      </trkpt>
      <trkpt lat="44.17724" lon="5.27349">
        <ele>1625.700032</ele>
        <time>2014-01-26T11:00:53.380Z</time>
      </trkpt>
      <trkpt lat="44.17734" lon="5.27345">
        <ele>1626.1399936</ele>
        <time>2014-01-26T11:00:55.350Z</time>
      </trkpt>
      <trkpt lat="44.17744" lon="5.2734">
        <ele>1619.6200192</ele>
        <time>2014-01-26T11:00:57.380Z</time>
      </trkpt>
      <trkpt lat="44.17755" lon="5.27337">
        <ele>1614.5816331862</ele>
        <time>2014-01-26T11:00:59.350Z</time>
      </trkpt>
      <trkpt lat="44.17765" lon="5.27332">
        <ele>1612.32</ele>
        <time>2014-01-26T11:01:01.480Z</time>
      </trkpt>
      <trkpt lat="44.17779" lon="5.27326">
        <ele>1609.56</ele>
        <time>2014-01-26T11:01:04.480Z</time>
      </trkpt>
      <trkpt lat="44.17791" lon="5.27325">
        <ele>1604.5699968</ele>
        <time>2014-01-26T11:01:07.350Z</time>
      </trkpt>
      <trkpt lat="44.17801" lon="5.27324">
        <ele>1602</ele>
        <time>2014-01-26T11:01:26.480Z</time>
      </trkpt>
      <trkpt lat="44.17813" lon="5.27315">
        <ele>1602</ele>
        <time>2014-01-26T11:01:29.480Z</time>
      </trkpt>
      <trkpt lat="44.17826" lon="5.27307">
        <ele>1591.76</ele>
        <time>2014-01-26T11:01:31.480Z</time>
      </trkpt>
      <trkpt lat="44.17836" lon="5.27299">
        <ele>1582.3265327447</ele>
        <time>2014-01-26T11:01:33.350Z</time>
      </trkpt>
      <trkpt lat="44.17849" lon="5.27292">
        <ele>1581.32</ele>
        <time>2014-01-26T11:01:35.480Z</time>
      </trkpt>
      <trkpt lat="44.17861" lon="5.27289">
        <ele>1572.32</ele>
        <time>2014-01-26T11:01:37.480Z</time>
      </trkpt>
      <trkpt lat="44.17876" lon="5.27287">
        <ele>1570.44</ele>
        <time>2014-01-26T11:01:39.480Z</time>
      </trkpt>
      <trkpt lat="44.17886" lon="5.27288">
        <ele>1572</ele>
        <time>2014-01-26T11:01:41.190Z</time>
      </trkpt>
      <trkpt lat="44.17875" lon="5.27288">
        <ele>1572</ele>
        <time>2014-01-26T11:01:48.380Z</time>
      </trkpt>
      <trkpt lat="44.17884" lon="5.27279">
        <ele>1572.0799872</ele>
        <time>2014-01-26T11:02:00.380Z</time>
      </trkpt>
      <trkpt lat="44.17899" lon="5.2727">
        <ele>1571</ele>
        <time>2014-01-26T11:02:03.380Z</time>
      </trkpt>
      <trkpt lat="44.17911" lon="5.27264">
        <ele>1571</ele>
        <time>2014-01-26T11:02:05.380Z</time>
      </trkpt>
      <trkpt lat="44.17922" lon="5.27257">
        <ele>1571</ele>
        <time>2014-01-26T11:02:07.250Z</time>
      </trkpt>
      <trkpt lat="44.17932" lon="5.27248">
        <ele>1571</ele>
        <time>2014-01-26T11:02:09.380Z</time>
      </trkpt>
      <trkpt lat="44.1794" lon="5.27239">
        <ele>1543.0200832</ele>
        <time>2014-01-26T11:02:11.380Z</time>
      </trkpt>
      <trkpt lat="44.17949" lon="5.27231">
        <ele>1535.4599936</ele>
        <time>2014-01-26T11:02:13.380Z</time>
      </trkpt>
      <trkpt lat="44.17961" lon="5.27224">
        <ele>1534.4600064</ele>
        <time>2014-01-26T11:02:16.380Z</time>
      </trkpt>
      <trkpt lat="44.17953" lon="5.27216">
        <ele>1533.44</ele>
        <time>2014-01-26T11:02:30.480Z</time>
      </trkpt>
      <trkpt lat="44.17951" lon="5.27203">
        <ele>1533</ele>
        <time>2014-01-26T11:02:39.480Z</time>
      </trkpt>
      <trkpt lat="44.17955" lon="5.27189">
        <ele>1531</ele>
        <time>2014-01-26T11:02:42.380Z</time>
      </trkpt>
      <trkpt lat="44.17969" lon="5.27178">
        <ele>1531</ele>
        <time>2014-01-26T11:02:45.380Z</time>
      </trkpt>
      <trkpt lat="44.17985" lon="5.27166">
        <ele>1531</ele>
        <time>2014-01-26T11:02:47.380Z</time>
      </trkpt>
      <trkpt lat="44.17999" lon="5.27157">
        <ele>1531</ele>
        <time>2014-01-26T11:02:49.380Z</time>
      </trkpt>
      <trkpt lat="44.18011" lon="5.27148">
        <ele>1514.3200512</ele>
        <time>2014-01-26T11:02:51.380Z</time>
      </trkpt>
      <trkpt lat="44.18023" lon="5.2714">
        <ele>1503.700032</ele>
        <time>2014-01-26T11:02:53.380Z</time>
      </trkpt>
      <trkpt lat="44.18036" lon="5.2713">
        <ele>1498.1399936</ele>
        <time>2014-01-26T11:02:55.350Z</time>
      </trkpt>
      <trkpt lat="44.18052" lon="5.27113">
        <ele>1489.7451152635</ele>
        <time>2014-01-26T11:02:57.380Z</time>
      </trkpt>
      <trkpt lat="44.18059" lon="5.271">
        <ele>1487.9489831903</ele>
        <time>2014-01-26T11:02:58.250Z</time>
      </trkpt>
      <trkpt lat="44.18066" lon="5.27088">
        <ele>1487.700032</ele>
        <time>2014-01-26T11:02:59.380Z</time>
      </trkpt>
      <trkpt lat="44.18072" lon="5.27074">
        <ele>1478.5599104</ele>
        <time>2014-01-26T11:03:00.380Z</time>
      </trkpt>
      <trkpt lat="44.18076" lon="5.27061">
        <ele>1472.3799808</ele>
        <time>2014-01-26T11:03:01.380Z</time>
      </trkpt>
      <trkpt lat="44.18077" lon="5.27036">
        <ele>1471.6200192</ele>
        <time>2014-01-26T11:03:03.380Z</time>
      </trkpt>
      <trkpt lat="44.18079" lon="5.27013">
        <ele>1466.0800128</ele>
        <time>2014-01-26T11:03:05.380Z</time>
      </trkpt>
      <trkpt lat="44.18074" lon="5.26998">
        <ele>1466.6800128</ele>
        <time>2014-01-26T11:03:07.260Z</time>
      </trkpt>
      <trkpt lat="44.18071" lon="5.26979">
        <ele>1461.56</ele>
        <time>2014-01-26T11:03:10.480Z</time>
      </trkpt>
      <trkpt lat="44.18067" lon="5.26965">
        <ele>1463</ele>
        <time>2014-01-26T11:03:28.480Z</time>
      </trkpt>
      <trkpt lat="44.18069" lon="5.2695">
        <ele>1460.76</ele>
        <time>2014-01-26T11:03:30.480Z</time>
      </trkpt>
      <trkpt lat="44.18074" lon="5.26929">
        <ele>1459</ele>
        <time>2014-01-26T11:03:32.350Z</time>
      </trkpt>
      <trkpt lat="44.18078" lon="5.26915">
        <ele>1459</ele>
        <time>2014-01-26T11:03:33.480Z</time>
      </trkpt>
      <trkpt lat="44.18083" lon="5.269">
        <ele>1459</ele>
        <time>2014-01-26T11:03:34.480Z</time>
      </trkpt>
      <trkpt lat="44.18089" lon="5.26886">
        <ele>1454.52</ele>
        <time>2014-01-26T11:03:35.480Z</time>
      </trkpt>
      <trkpt lat="44.18094" lon="5.26873">
        <ele>1451</ele>
        <time>2014-01-26T11:03:36.480Z</time>
      </trkpt>
      <trkpt lat="44.18099" lon="5.26859">
        <ele>1451</ele>
        <time>2014-01-26T11:03:37.480Z</time>
      </trkpt>
      <trkpt lat="44.18104" lon="5.26844">
        <ele>1451</ele>
        <time>2014-01-26T11:03:38.480Z</time>
      </trkpt>
      <trkpt lat="44.18108" lon="5.26828">
        <ele>1451</ele>
        <time>2014-01-26T11:03:39.480Z</time>
      </trkpt>
      <trkpt lat="44.18113" lon="5.26812">
        <ele>1444.1100416</ele>
        <time>2014-01-26T11:03:40.450Z</time>
      </trkpt>
      <trkpt lat="44.1812" lon="5.2678">
        <ele>1429.32</ele>
        <time>2014-01-26T11:03:42.480Z</time>
      </trkpt>
      <trkpt lat="44.18124" lon="5.26765">
        <ele>1425.2</ele>
        <time>2014-01-26T11:03:43.480Z</time>
      </trkpt>
      <trkpt lat="44.18127" lon="5.2675">
        <ele>1418.52</ele>
        <time>2014-01-26T11:03:44.480Z</time>
      </trkpt>
      <trkpt lat="44.18129" lon="5.26736">
        <ele>1412.76</ele>
        <time>2014-01-26T11:03:45.480Z</time>
      </trkpt>
      <trkpt lat="44.18132" lon="5.26722">
        <ele>1411</ele>
        <time>2014-01-26T11:03:46.480Z</time>
      </trkpt>
      <trkpt lat="44.18133" lon="5.26707">
        <ele>1409.88</ele>
        <time>2014-01-26T11:03:47.480Z</time>
      </trkpt>
      <trkpt lat="44.18136" lon="5.26692">
        <ele>1408.4909120529</ele>
        <time>2014-01-26T11:03:48.480Z</time>
      </trkpt>
      <trkpt lat="44.1814" lon="5.26678">
        <ele>1408.9555410172</ele>
        <time>2014-01-26T11:03:49.450Z</time>
      </trkpt>
      <trkpt lat="44.18157" lon="5.26644">
        <ele>1408.6199808</ele>
        <time>2014-01-26T11:03:52.380Z</time>
      </trkpt>
      <trkpt lat="44.18163" lon="5.26632">
        <ele>1406.0800128</ele>
        <time>2014-01-26T11:03:53.380Z</time>
      </trkpt>
      <trkpt lat="44.18168" lon="5.26619">
        <ele>1403.0200192</ele>
        <time>2014-01-26T11:03:54.250Z</time>
      </trkpt>
      <trkpt lat="44.18173" lon="5.26606">
        <ele>1399</ele>
        <time>2014-01-26T11:03:55.380Z</time>
      </trkpt>
      <trkpt lat="44.18179" lon="5.26594">
        <ele>1397.6199808</ele>
        <time>2014-01-26T11:03:56.380Z</time>
      </trkpt>
      <trkpt lat="44.18188" lon="5.26571">
        <ele>1391.6900224</ele>
        <time>2014-01-26T11:03:58.250Z</time>
      </trkpt>
      <trkpt lat="44.18195" lon="5.26549">
        <ele>1388</ele>
        <time>2014-01-26T11:04:00.580Z</time>
      </trkpt>
      <trkpt lat="44.18198" lon="5.26531">
        <ele>1385.5399936</ele>
        <time>2014-01-26T11:04:02.380Z</time>
      </trkpt>
      <trkpt lat="44.182" lon="5.26512">
        <ele>1389.5576984615</ele>
        <time>2014-01-26T11:04:05.380Z</time>
      </trkpt>
      <trkpt lat="44.182" lon="5.26497">
        <ele>1388</ele>
        <time>2014-01-26T11:04:08.480Z</time>
      </trkpt>
      <trkpt lat="44.18201" lon="5.26481">
        <ele>1388</ele>
        <time>2014-01-26T11:04:11.480Z</time>
      </trkpt>
      <trkpt lat="44.18201" lon="5.26465">
        <ele>1388</ele>
        <time>2014-01-26T11:04:14.480Z</time>
      </trkpt>
      <trkpt lat="44.18199" lon="5.26451">
        <ele>1388</ele>
        <time>2014-01-26T11:04:16.480Z</time>
      </trkpt>
      <trkpt lat="44.18197" lon="5.26438">
        <ele>1388</ele>
        <time>2014-01-26T11:04:18.480Z</time>
      </trkpt>
      <trkpt lat="44.18196" lon="5.26426">
        <ele>1386.32</ele>
        <time>2014-01-26T11:04:20.480Z</time>
      </trkpt>
      <trkpt lat="44.18196" lon="5.26412">
        <ele>1385</ele>
        <time>2014-01-26T11:04:22.480Z</time>
      </trkpt>
      <trkpt lat="44.18198" lon="5.26396">
        <ele>1385</ele>
        <time>2014-01-26T11:04:24.480Z</time>
      </trkpt>
      <trkpt lat="44.182" lon="5.26387">
        <ele>1382.76</ele>
        <time>2014-01-26T11:04:25.480Z</time>
      </trkpt>
      <trkpt lat="44.18203" lon="5.26376">
        <ele>1381</ele>
        <time>2014-01-26T11:04:26.480Z</time>
      </trkpt>
      <trkpt lat="44.18206" lon="5.26365">
        <ele>1381</ele>
        <time>2014-01-26T11:04:27.480Z</time>
      </trkpt>
      <trkpt lat="44.1821" lon="5.26354">
        <ele>1381</ele>
        <time>2014-01-26T11:04:28.480Z</time>
      </trkpt>
      <trkpt lat="44.18214" lon="5.26343">
        <ele>1381</ele>
        <time>2014-01-26T11:04:29.480Z</time>
      </trkpt>
      <trkpt lat="44.18217" lon="5.26331">
        <ele>1375.96</ele>
        <time>2014-01-26T11:04:30.480Z</time>
      </trkpt>
      <trkpt lat="44.18221" lon="5.26319">
        <ele>1369.76</ele>
        <time>2014-01-26T11:04:31.480Z</time>
      </trkpt>
      <trkpt lat="44.18232" lon="5.26299">
        <ele>1366.56</ele>
        <time>2014-01-26T11:04:33.480Z</time>
      </trkpt>
      <trkpt lat="44.1825" lon="5.26285">
        <ele>1362.76</ele>
        <time>2014-01-26T11:04:35.480Z</time>
      </trkpt>
      <trkpt lat="44.18259" lon="5.26278">
        <ele>1360.44</ele>
        <time>2014-01-26T11:04:36.480Z</time>
      </trkpt>
      <trkpt lat="44.18267" lon="5.2627">
        <ele>1360</ele>
        <time>2014-01-26T11:04:37.450Z</time>
      </trkpt>
      <trkpt lat="44.18275" lon="5.26262">
        <ele>1357.76</ele>
        <time>2014-01-26T11:04:38.480Z</time>
      </trkpt>
      <trkpt lat="44.18284" lon="5.26257">
        <ele>1354.9019538946</ele>
        <time>2014-01-26T11:04:39.480Z</time>
      </trkpt>
      <trkpt lat="44.18298" lon="5.26242">
        <ele>1354.44</ele>
        <time>2014-01-26T11:04:41.480Z</time>
      </trkpt>
      <trkpt lat="44.18309" lon="5.26235">
        <ele>1353</ele>
        <time>2014-01-26T11:04:43.480Z</time>
      </trkpt>
      <trkpt lat="44.18318" lon="5.2624">
        <ele>1350.44</ele>
        <time>2014-01-26T11:04:46.480Z</time>
      </trkpt>
      <trkpt lat="44.18325" lon="5.26248">
        <ele>1349</ele>
        <time>2014-01-26T11:05:53.380Z</time>
      </trkpt>
      <trkpt lat="44.18332" lon="5.26256">
        <ele>1347.56</ele>
        <time>2014-01-26T11:06:10.480Z</time>
      </trkpt>
      <trkpt lat="44.18328" lon="5.26249">
        <ele>1348.4600064</ele>
        <time>2014-01-26T11:07:20.380Z</time>
      </trkpt>
      <trkpt lat="44.18323" lon="5.26242">
        <ele>1349</ele>
        <time>2014-01-26T11:07:23.250Z</time>
      </trkpt>
      <trkpt lat="44.18321" lon="5.26234">
        <ele>1349</ele>
        <time>2014-01-26T11:07:26.350Z</time>
      </trkpt>
      <trkpt lat="44.18323" lon="5.26228">
        <ele>1349</ele>
        <time>2014-01-26T11:07:30.350Z</time>
      </trkpt>
      <trkpt lat="44.18329" lon="5.26225">
        <ele>1349</ele>
        <time>2014-01-26T11:07:34.480Z</time>
      </trkpt>
      <trkpt lat="44.18339" lon="5.26232">
        <ele>1347</ele>
        <time>2014-01-26T11:07:41.380Z</time>
      </trkpt>
      <trkpt lat="44.18344" lon="5.26239">
        <ele>1347</ele>
        <time>2014-01-26T11:07:46.380Z</time>
      </trkpt>
      <trkpt lat="44.18346" lon="5.26247">
        <ele>1346</ele>
        <time>2014-01-26T11:07:51.380Z</time>
      </trkpt>
      <trkpt lat="44.18341" lon="5.26246">
        <ele>1346</ele>
        <time>2014-01-26T11:08:19.480Z</time>
      </trkpt>
      <trkpt lat="44.18339" lon="5.26256">
        <ele>1347</ele>
        <time>2014-01-26T11:08:37.480Z</time>
      </trkpt>
      <trkpt lat="44.18346" lon="5.26262">
        <ele>1346</ele>
        <time>2014-01-26T11:09:01.450Z</time>
      </trkpt>
      <trkpt lat="44.18339" lon="5.26265">
        <ele>1344</ele>
        <time>2014-01-26T11:10:59.350Z</time>
      </trkpt>
      <trkpt lat="44.18335" lon="5.26261">
        <ele>1347</ele>
        <time>2014-01-26T11:11:29.380Z</time>
      </trkpt>
      <trkpt lat="44.1834" lon="5.26268">
        <ele>1348</ele>
        <time>2014-01-26T11:12:02.350Z</time>
      </trkpt>
      <trkpt lat="44.18344" lon="5.26281">
        <ele>1348</ele>
        <time>2014-01-26T11:12:13.480Z</time>
      </trkpt>
      <trkpt lat="44.18346" lon="5.26293">
        <ele>1349</ele>
        <time>2014-01-26T11:12:28.380Z</time>
      </trkpt>
      <trkpt lat="44.18346" lon="5.26305">
        <ele>1350</ele>
        <time>2014-01-26T11:12:36.290Z</time>
      </trkpt>
      <trkpt lat="44.18347" lon="5.26315">
        <ele>1351</ele>
        <time>2014-01-26T11:12:43.480Z</time>
      </trkpt>
      <trkpt lat="44.18351" lon="5.26325">
        <ele>1351</ele>
        <time>2014-01-26T11:12:49.480Z</time>
      </trkpt>
      <trkpt lat="44.18352" lon="5.26335">
        <ele>1351</ele>
        <time>2014-01-26T11:12:55.480Z</time>
      </trkpt>
      <trkpt lat="44.18353" lon="5.26346">
        <ele>1350</ele>
        <time>2014-01-26T11:13:01.480Z</time>
      </trkpt>
      <trkpt lat="44.18358" lon="5.26353">
        <ele>1351</ele>
        <time>2014-01-26T11:13:08.480Z</time>
      </trkpt>
      <trkpt lat="44.18363" lon="5.26364">
        <ele>1352</ele>
        <time>2014-01-26T11:13:16.480Z</time>
      </trkpt>
      <trkpt lat="44.18366" lon="5.26376">
        <ele>1353</ele>
        <time>2014-01-26T11:13:24.480Z</time>
      </trkpt>
      <trkpt lat="44.1837" lon="5.26387">
        <ele>1354</ele>
        <time>2014-01-26T11:13:32.480Z</time>
      </trkpt>
      <trkpt lat="44.18376" lon="5.26399">
        <ele>1355.4600064</ele>
        <time>2014-01-26T11:13:40.380Z</time>
      </trkpt>
      <trkpt lat="44.1838" lon="5.26409">
        <ele>1357</ele>
        <time>2014-01-26T11:13:46.350Z</time>
      </trkpt>
      <trkpt lat="44.18385" lon="5.2642">
        <ele>1357</ele>
        <time>2014-01-26T11:13:53.480Z</time>
      </trkpt>
      <trkpt lat="44.18385" lon="5.26435">
        <ele>1360</ele>
        <time>2014-01-26T11:14:05.270Z</time>
      </trkpt>
      <trkpt lat="44.18387" lon="5.26448">
        <ele>1360</ele>
        <time>2014-01-26T11:14:15.380Z</time>
      </trkpt>
      <trkpt lat="44.18392" lon="5.26459">
        <ele>1361</ele>
        <time>2014-01-26T11:14:22.480Z</time>
      </trkpt>
      <trkpt lat="44.184" lon="5.26469">
        <ele>1361</ele>
        <time>2014-01-26T11:14:28.480Z</time>
      </trkpt>
      <trkpt lat="44.18407" lon="5.26479">
        <ele>1361</ele>
        <time>2014-01-26T11:14:34.480Z</time>
      </trkpt>
      <trkpt lat="44.18414" lon="5.2649">
        <ele>1360</ele>
        <time>2014-01-26T11:14:41.380Z</time>
      </trkpt>
      <trkpt lat="44.18419" lon="5.265">
        <ele>1360</ele>
        <time>2014-01-26T11:14:48.250Z</time>
      </trkpt>
      <trkpt lat="44.18425" lon="5.26512">
        <ele>1360</ele>
        <time>2014-01-26T11:14:56.480Z</time>
      </trkpt>
      <trkpt lat="44.18427" lon="5.26526">
        <ele>1360</ele>
        <time>2014-01-26T11:15:06.480Z</time>
      </trkpt>
      <trkpt lat="44.18424" lon="5.26536">
        <ele>1360</ele>
        <time>2014-01-26T11:15:13.380Z</time>
      </trkpt>
      <trkpt lat="44.18428" lon="5.26549">
        <ele>1360</ele>
        <time>2014-01-26T11:15:22.250Z</time>
      </trkpt>
      <trkpt lat="44.18429" lon="5.26561">
        <ele>1360.56</ele>
        <time>2014-01-26T11:15:30.480Z</time>
      </trkpt>
      <trkpt lat="44.18432" lon="5.26574">
        <ele>1361</ele>
        <time>2014-01-26T11:15:39.480Z</time>
      </trkpt>
      <trkpt lat="44.18431" lon="5.26586">
        <ele>1362</ele>
        <time>2014-01-26T11:15:48.480Z</time>
      </trkpt>
      <trkpt lat="44.1843" lon="5.26596">
        <ele>1363</ele>
        <time>2014-01-26T11:15:56.480Z</time>
      </trkpt>
      <trkpt lat="44.18434" lon="5.26607">
        <ele>1365</ele>
        <time>2014-01-26T11:16:04.380Z</time>
      </trkpt>
      <trkpt lat="44.18434" lon="5.26619">
        <ele>1366</ele>
        <time>2014-01-26T11:16:12.380Z</time>
      </trkpt>
      <trkpt lat="44.18437" lon="5.26632">
        <ele>1367</ele>
        <time>2014-01-26T11:16:21.480Z</time>
      </trkpt>
      <trkpt lat="44.18438" lon="5.26642">
        <ele>1368</ele>
        <time>2014-01-26T11:16:31.350Z</time>
      </trkpt>
      <trkpt lat="44.18439" lon="5.26653">
        <ele>1369</ele>
        <time>2014-01-26T11:16:40.380Z</time>
      </trkpt>
      <trkpt lat="44.1844" lon="5.26663">
        <ele>1369</ele>
        <time>2014-01-26T11:16:48.310Z</time>
      </trkpt>
      <trkpt lat="44.18442" lon="5.26677">
        <ele>1370</ele>
        <time>2014-01-26T11:16:58.480Z</time>
      </trkpt>
      <trkpt lat="44.18444" lon="5.26687">
        <ele>1371</ele>
        <time>2014-01-26T11:17:05.350Z</time>
      </trkpt>
      <trkpt lat="44.18449" lon="5.26699">
        <ele>1374</ele>
        <time>2014-01-26T11:17:15.480Z</time>
      </trkpt>
      <trkpt lat="44.18449" lon="5.26712">
        <ele>1374</ele>
        <time>2014-01-26T11:17:24.450Z</time>
      </trkpt>
      <trkpt lat="44.18448" lon="5.26723">
        <ele>1375</ele>
        <time>2014-01-26T11:17:31.480Z</time>
      </trkpt>
      <trkpt lat="44.18449" lon="5.26737">
        <ele>1376</ele>
        <time>2014-01-26T11:17:42.350Z</time>
      </trkpt>
      <trkpt lat="44.18449" lon="5.26746">
        <ele>1377.56</ele>
        <time>2014-01-26T11:17:51.480Z</time>
      </trkpt>
      <trkpt lat="44.18449" lon="5.26758">
        <ele>1379</ele>
        <time>2014-01-26T11:18:01.380Z</time>
      </trkpt>
      <trkpt lat="44.18451" lon="5.26769">
        <ele>1380</ele>
        <time>2014-01-26T11:18:09.380Z</time>
      </trkpt>
      <trkpt lat="44.18451" lon="5.26779">
        <ele>1381</ele>
        <time>2014-01-26T11:18:17.480Z</time>
      </trkpt>
      <trkpt lat="44.18451" lon="5.26791">
        <ele>1382</ele>
        <time>2014-01-26T11:18:25.480Z</time>
      </trkpt>
      <trkpt lat="44.18452" lon="5.26802">
        <ele>1385</ele>
        <time>2014-01-26T11:18:33.290Z</time>
      </trkpt>
      <trkpt lat="44.18453" lon="5.26811">
        <ele>1384.44</ele>
        <time>2014-01-26T11:18:40.480Z</time>
      </trkpt>
      <trkpt lat="44.18456" lon="5.26823">
        <ele>1385</ele>
        <time>2014-01-26T11:18:48.350Z</time>
      </trkpt>
      <trkpt lat="44.18457" lon="5.26835">
        <ele>1384</ele>
        <time>2014-01-26T11:18:57.350Z</time>
      </trkpt>
      <trkpt lat="44.18456" lon="5.26843">
        <ele>1385</ele>
        <time>2014-01-26T11:19:05.250Z</time>
      </trkpt>
      <trkpt lat="44.18457" lon="5.26852">
        <ele>1386</ele>
        <time>2014-01-26T11:19:12.480Z</time>
      </trkpt>
      <trkpt lat="44.18457" lon="5.26862">
        <ele>1386.44</ele>
        <time>2014-01-26T11:19:20.480Z</time>
      </trkpt>
      <trkpt lat="44.18457" lon="5.26872">
        <ele>1386.4599936</ele>
        <time>2014-01-26T11:19:27.380Z</time>
      </trkpt>
      <trkpt lat="44.18458" lon="5.26883">
        <ele>1386</ele>
        <time>2014-01-26T11:19:34.380Z</time>
      </trkpt>
      <trkpt lat="44.18461" lon="5.26896">
        <ele>1386</ele>
        <time>2014-01-26T11:19:44.480Z</time>
      </trkpt>
      <trkpt lat="44.18464" lon="5.26905">
        <ele>1386</ele>
        <time>2014-01-26T11:19:52.370Z</time>
      </trkpt>
      <trkpt lat="44.18466" lon="5.26913">
        <ele>1386</ele>
        <time>2014-01-26T11:20:01.380Z</time>
      </trkpt>
      <trkpt lat="44.18468" lon="5.26924">
        <ele>1387</ele>
        <time>2014-01-26T11:20:23.480Z</time>
      </trkpt>
      <trkpt lat="44.18469" lon="5.26934">
        <ele>1387</ele>
        <time>2014-01-26T11:20:31.480Z</time>
      </trkpt>
      <trkpt lat="44.18468" lon="5.26947">
        <ele>1387</ele>
        <time>2014-01-26T11:20:42.380Z</time>
      </trkpt>
      <trkpt lat="44.1847" lon="5.26961">
        <ele>1387</ele>
        <time>2014-01-26T11:20:52.480Z</time>
      </trkpt>
      <trkpt lat="44.1847" lon="5.26968">
        <ele>1387</ele>
        <time>2014-01-26T11:20:57.480Z</time>
      </trkpt>
      <trkpt lat="44.1847" lon="5.26977">
        <ele>1386</ele>
        <time>2014-01-26T11:21:03.480Z</time>
      </trkpt>
      <trkpt lat="44.18471" lon="5.26985">
        <ele>1386</ele>
        <time>2014-01-26T11:21:08.380Z</time>
      </trkpt>
      <trkpt lat="44.18474" lon="5.26992">
        <ele>1389</ele>
        <time>2014-01-26T11:21:13.380Z</time>
      </trkpt>
      <trkpt lat="44.18474" lon="5.27004">
        <ele>1389</ele>
        <time>2014-01-26T11:21:22.230Z</time>
      </trkpt>
      <trkpt lat="44.18474" lon="5.27012">
        <ele>1390</ele>
        <time>2014-01-26T11:21:28.480Z</time>
      </trkpt>
      <trkpt lat="44.18476" lon="5.27022">
        <ele>1391</ele>
        <time>2014-01-26T11:21:36.480Z</time>
      </trkpt>
      <trkpt lat="44.18477" lon="5.27037">
        <ele>1392</ele>
        <time>2014-01-26T11:21:45.380Z</time>
      </trkpt>
      <trkpt lat="44.18478" lon="5.27052">
        <ele>1393</ele>
        <time>2014-01-26T11:21:55.380Z</time>
      </trkpt>
      <trkpt lat="44.18482" lon="5.27064">
        <ele>1395</ele>
        <time>2014-01-26T11:22:04.480Z</time>
      </trkpt>
      <trkpt lat="44.18483" lon="5.27079">
        <ele>1395</ele>
        <time>2014-01-26T11:22:13.350Z</time>
      </trkpt>
      <trkpt lat="44.18485" lon="5.27093">
        <ele>1396</ele>
        <time>2014-01-26T11:22:22.380Z</time>
      </trkpt>
      <trkpt lat="44.18488" lon="5.27104">
        <ele>1397</ele>
        <time>2014-01-26T11:22:31.250Z</time>
      </trkpt>
      <trkpt lat="44.18491" lon="5.27115">
        <ele>1397</ele>
        <time>2014-01-26T11:22:39.380Z</time>
      </trkpt>
      <trkpt lat="44.1849" lon="5.27129">
        <ele>1398</ele>
        <time>2014-01-26T11:22:49.480Z</time>
      </trkpt>
      <trkpt lat="44.1849" lon="5.27142">
        <ele>1399</ele>
        <time>2014-01-26T11:22:59.480Z</time>
      </trkpt>
      <trkpt lat="44.18494" lon="5.27156">
        <ele>1399.4300032</ele>
        <time>2014-01-26T11:23:10.350Z</time>
      </trkpt>
      <trkpt lat="44.18499" lon="5.2717">
        <ele>1401</ele>
        <time>2014-01-26T11:23:21.250Z</time>
      </trkpt>
      <trkpt lat="44.18496" lon="5.27184">
        <ele>1403</ele>
        <time>2014-01-26T11:23:32.380Z</time>
      </trkpt>
      <trkpt lat="44.18497" lon="5.27198">
        <ele>1404</ele>
        <time>2014-01-26T11:23:42.380Z</time>
      </trkpt>
      <trkpt lat="44.18501" lon="5.2721">
        <ele>1405</ele>
        <time>2014-01-26T11:23:51.380Z</time>
      </trkpt>
      <trkpt lat="44.18503" lon="5.27225">
        <ele>1405</ele>
        <time>2014-01-26T11:24:02.380Z</time>
      </trkpt>
      <trkpt lat="44.18504" lon="5.27237">
        <ele>1407</ele>
        <time>2014-01-26T11:24:12.380Z</time>
      </trkpt>
      <trkpt lat="44.18506" lon="5.27249">
        <ele>1409</ele>
        <time>2014-01-26T11:24:21.480Z</time>
      </trkpt>
      <trkpt lat="44.18507" lon="5.27262">
        <ele>1409</ele>
        <time>2014-01-26T11:24:30.270Z</time>
      </trkpt>
      <trkpt lat="44.18509" lon="5.27274">
        <ele>1409</ele>
        <time>2014-01-26T11:24:39.380Z</time>
      </trkpt>
      <trkpt lat="44.1851" lon="5.27287">
        <ele>1410</ele>
        <time>2014-01-26T11:24:49.380Z</time>
      </trkpt>
      <trkpt lat="44.18512" lon="5.27301">
        <ele>1411.4600064</ele>
        <time>2014-01-26T11:25:00.380Z</time>
      </trkpt>
      <trkpt lat="44.18515" lon="5.27314">
        <ele>1411</ele>
        <time>2014-01-26T11:25:11.380Z</time>
      </trkpt>
      <trkpt lat="44.18515" lon="5.27328">
        <ele>1411</ele>
        <time>2014-01-26T11:25:23.480Z</time>
      </trkpt>
      <trkpt lat="44.18513" lon="5.27342">
        <ele>1412</ele>
        <time>2014-01-26T11:25:35.480Z</time>
      </trkpt>
      <trkpt lat="44.18513" lon="5.27356">
        <ele>1412</ele>
        <time>2014-01-26T11:25:47.480Z</time>
      </trkpt>
      <trkpt lat="44.18517" lon="5.2737">
        <ele>1413</ele>
        <time>2014-01-26T11:25:57.480Z</time>
      </trkpt>
      <trkpt lat="44.18519" lon="5.27384">
        <ele>1414</ele>
        <time>2014-01-26T11:26:06.480Z</time>
      </trkpt>
      <trkpt lat="44.1852" lon="5.27398">
        <ele>1416</ele>
        <time>2014-01-26T11:26:17.380Z</time>
      </trkpt>
      <trkpt lat="44.18522" lon="5.27412">
        <ele>1416</ele>
        <time>2014-01-26T11:26:29.270Z</time>
      </trkpt>
      <trkpt lat="44.18524" lon="5.27424">
        <ele>1416</ele>
        <time>2014-01-26T11:26:35.380Z</time>
      </trkpt>
      <trkpt lat="44.18526" lon="5.27436">
        <ele>1416</ele>
        <time>2014-01-26T11:26:44.380Z</time>
      </trkpt>
      <trkpt lat="44.18528" lon="5.2745">
        <ele>1417</ele>
        <time>2014-01-26T11:26:52.380Z</time>
      </trkpt>
      <trkpt lat="44.18524" lon="5.27461">
        <ele>1416.4599936</ele>
        <time>2014-01-26T11:27:01.380Z</time>
      </trkpt>
      <trkpt lat="44.18524" lon="5.27473">
        <ele>1417</ele>
        <time>2014-01-26T11:27:09.380Z</time>
      </trkpt>
      <trkpt lat="44.18522" lon="5.27485">
        <ele>1417</ele>
        <time>2014-01-26T11:27:18.380Z</time>
      </trkpt>
      <trkpt lat="44.18521" lon="5.275">
        <ele>1417</ele>
        <time>2014-01-26T11:27:28.450Z</time>
      </trkpt>
      <trkpt lat="44.18517" lon="5.27512">
        <ele>1417</ele>
        <time>2014-01-26T11:27:37.370Z</time>
      </trkpt>
      <trkpt lat="44.18516" lon="5.27526">
        <ele>1417</ele>
        <time>2014-01-26T11:27:47.450Z</time>
      </trkpt>
      <trkpt lat="44.18509" lon="5.27535">
        <ele>1417</ele>
        <time>2014-01-26T11:27:56.480Z</time>
      </trkpt>
      <trkpt lat="44.18502" lon="5.27535">
        <ele>1419</ele>
        <time>2014-01-26T11:28:18.480Z</time>
      </trkpt>
      <trkpt lat="44.18494" lon="5.2753">
        <ele>1419</ele>
        <time>2014-01-26T11:28:27.480Z</time>
      </trkpt>
      <trkpt lat="44.18487" lon="5.27527">
        <ele>1419</ele>
        <time>2014-01-26T11:28:47.380Z</time>
      </trkpt>
      <trkpt lat="44.18489" lon="5.2754">
        <ele>1416</ele>
        <time>2014-01-26T11:30:41.380Z</time>
      </trkpt>
      <trkpt lat="44.18499" lon="5.27538">
        <ele>1418</ele>
        <time>2014-01-26T11:31:56.480Z</time>
      </trkpt>
      <trkpt lat="44.18488" lon="5.27537">
        <ele>1419</ele>
        <time>2014-01-26T11:32:23.480Z</time>
      </trkpt>
      <trkpt lat="44.18486" lon="5.27523">
        <ele>1419</ele>
        <time>2014-01-26T11:32:34.380Z</time>
      </trkpt>
      <trkpt lat="44.18483" lon="5.27526">
        <ele>1419</ele>
        <time>2014-01-26T11:34:37.480Z</time>
      </trkpt>
      <trkpt lat="44.1848" lon="5.2752">
        <ele>1421</ele>
        <time>2014-01-26T11:46:12.480Z</time>
      </trkpt>
      <trkpt lat="44.18478" lon="5.27512">
        <ele>1421</ele>
        <time>2014-01-26T11:55:43.480Z</time>
      </trkpt>
      <trkpt lat="44.18478" lon="5.27519">
        <ele>1420</ele>
        <time>2014-01-26T11:56:50.380Z</time>
      </trkpt>
      <trkpt lat="44.1848" lon="5.27521">
        <ele>1419</ele>
        <time>2014-01-26T12:05:45.350Z</time>
      </trkpt>
      <trkpt lat="44.18484" lon="5.27518">
        <ele>1419</ele>
        <time>2014-01-26T12:11:15.340Z</time>
      </trkpt>
      <trkpt lat="44.18476" lon="5.27525">
        <ele>1419</ele>
        <time>2014-01-26T12:12:55.480Z</time>
      </trkpt>
      <trkpt lat="44.18477" lon="5.27512">
        <ele>1419</ele>
        <time>2014-01-26T12:13:25.480Z</time>
      </trkpt>
      <trkpt lat="44.1848" lon="5.27503">
        <ele>1419</ele>
        <time>2014-01-26T12:13:30.480Z</time>
      </trkpt>
      <trkpt lat="44.18479" lon="5.27492">
        <ele>1419</ele>
        <time>2014-01-26T12:13:35.380Z</time>
      </trkpt>
      <trkpt lat="44.1848" lon="5.27482">
        <ele>1419</ele>
        <time>2014-01-26T12:13:40.380Z</time>
      </trkpt>
      <trkpt lat="44.18476" lon="5.27475">
        <ele>1419</ele>
        <time>2014-01-26T12:13:47.380Z</time>
      </trkpt>
      <trkpt lat="44.18474" lon="5.27466">
        <ele>1419</ele>
        <time>2014-01-26T12:13:53.480Z</time>
      </trkpt>
      <trkpt lat="44.18469" lon="5.27458">
        <ele>1419</ele>
        <time>2014-01-26T12:14:02.190Z</time>
      </trkpt>
      <trkpt lat="44.18467" lon="5.2745">
        <ele>1419</ele>
        <time>2014-01-26T12:14:08.480Z</time>
      </trkpt>
      <trkpt lat="44.18465" lon="5.27441">
        <ele>1419</ele>
        <time>2014-01-26T12:14:14.450Z</time>
      </trkpt>
      <trkpt lat="44.18461" lon="5.27431">
        <ele>1427</ele>
        <time>2014-01-26T12:14:22.240Z</time>
      </trkpt>
      <trkpt lat="44.18459" lon="5.27419">
        <ele>1427</ele>
        <time>2014-01-26T12:14:28.380Z</time>
      </trkpt>
      <trkpt lat="44.18454" lon="5.2741">
        <ele>1427</ele>
        <time>2014-01-26T12:14:36.250Z</time>
      </trkpt>
      <trkpt lat="44.18453" lon="5.274">
        <ele>1427</ele>
        <time>2014-01-26T12:14:54.380Z</time>
      </trkpt>
      <trkpt lat="44.18453" lon="5.2739">
        <ele>1427</ele>
        <time>2014-01-26T12:15:31.480Z</time>
      </trkpt>
      <trkpt lat="44.18446" lon="5.27387">
        <ele>1428.56</ele>
        <time>2014-01-26T12:16:40.480Z</time>
      </trkpt>
      <trkpt lat="44.18448" lon="5.27378">
        <ele>1432</ele>
        <time>2014-01-26T12:20:20.380Z</time>
      </trkpt>
      <trkpt lat="44.18443" lon="5.27381">
        <ele>1433</ele>
        <time>2014-01-26T12:20:39.380Z</time>
      </trkpt>
      <trkpt lat="44.18447" lon="5.27386">
        <ele>1435</ele>
        <time>2014-01-26T12:23:13.480Z</time>
      </trkpt>
      <trkpt lat="44.18441" lon="5.27387">
        <ele>1434</ele>
        <time>2014-01-26T12:23:31.480Z</time>
      </trkpt>
      <trkpt lat="44.18435" lon="5.27383">
        <ele>1436</ele>
        <time>2014-01-26T12:23:46.380Z</time>
      </trkpt>
      <trkpt lat="44.18429" lon="5.27382">
        <ele>1437</ele>
        <time>2014-01-26T12:23:52.380Z</time>
      </trkpt>
      <trkpt lat="44.18422" lon="5.27382">
        <ele>1437</ele>
        <time>2014-01-26T12:23:57.380Z</time>
      </trkpt>
      <trkpt lat="44.18417" lon="5.27379">
        <ele>1438</ele>
        <time>2014-01-26T12:24:01.380Z</time>
      </trkpt>
      <trkpt lat="44.18412" lon="5.27374">
        <ele>1439</ele>
        <time>2014-01-26T12:24:07.380Z</time>
      </trkpt>
      <trkpt lat="44.18406" lon="5.27372">
        <ele>1441</ele>
        <time>2014-01-26T12:24:18.380Z</time>
      </trkpt>
      <trkpt lat="44.184" lon="5.27371">
        <ele>1443</ele>
        <time>2014-01-26T12:24:24.380Z</time>
      </trkpt>
      <trkpt lat="44.18395" lon="5.27371">
        <ele>1443</ele>
        <time>2014-01-26T12:24:28.380Z</time>
      </trkpt>
      <trkpt lat="44.18391" lon="5.2737">
        <ele>1445.4600064</ele>
        <time>2014-01-26T12:24:32.380Z</time>
      </trkpt>
      <trkpt lat="44.18385" lon="5.27368">
        <ele>1446</ele>
        <time>2014-01-26T12:24:37.480Z</time>
      </trkpt>
      <trkpt lat="44.1838" lon="5.27365">
        <ele>1448</ele>
        <time>2014-01-26T12:24:41.390Z</time>
      </trkpt>
      <trkpt lat="44.18375" lon="5.27363">
        <ele>1448</ele>
        <time>2014-01-26T12:24:45.480Z</time>
      </trkpt>
      <trkpt lat="44.1837" lon="5.27361">
        <ele>1449.0769230769</ele>
        <time>2014-01-26T12:24:50.480Z</time>
      </trkpt>
      <trkpt lat="44.18365" lon="5.27358">
        <ele>1450</ele>
        <time>2014-01-26T12:24:55.480Z</time>
      </trkpt>
      <trkpt lat="44.1836" lon="5.27355">
        <ele>1451</ele>
        <time>2014-01-26T12:25:01.480Z</time>
      </trkpt>
      <trkpt lat="44.18356" lon="5.27353">
        <ele>1451</ele>
        <time>2014-01-26T12:25:09.480Z</time>
      </trkpt>
      <trkpt lat="44.18352" lon="5.27349">
        <ele>1454</ele>
        <time>2014-01-26T12:25:13.480Z</time>
      </trkpt>
      <trkpt lat="44.18347" lon="5.27349">
        <ele>1455</ele>
        <time>2014-01-26T12:25:19.480Z</time>
      </trkpt>
      <trkpt lat="44.18341" lon="5.2735">
        <ele>1456</ele>
        <time>2014-01-26T12:25:27.480Z</time>
      </trkpt>
      <trkpt lat="44.18336" lon="5.27347">
        <ele>1459</ele>
        <time>2014-01-26T12:25:33.480Z</time>
      </trkpt>
      <trkpt lat="44.18331" lon="5.27348">
        <ele>1461</ele>
        <time>2014-01-26T12:25:43.380Z</time>
      </trkpt>
      <trkpt lat="44.1833" lon="5.27354">
        <ele>1462.3800192</ele>
        <time>2014-01-26T12:25:50.380Z</time>
      </trkpt>
      <trkpt lat="44.18332" lon="5.27358">
        <ele>1464</ele>
        <time>2014-01-26T12:25:57.380Z</time>
      </trkpt>
      <trkpt lat="44.18327" lon="5.27361">
        <ele>1463</ele>
        <time>2014-01-26T12:26:07.480Z</time>
      </trkpt>
      <trkpt lat="44.18321" lon="5.2736">
        <ele>1465</ele>
        <time>2014-01-26T12:26:14.480Z</time>
      </trkpt>
      <trkpt lat="44.18316" lon="5.27362">
        <ele>1465</ele>
        <time>2014-01-26T12:26:19.480Z</time>
      </trkpt>
      <trkpt lat="44.1831" lon="5.27362">
        <ele>1468</ele>
        <time>2014-01-26T12:26:23.480Z</time>
      </trkpt>
      <trkpt lat="44.18306" lon="5.2736">
        <ele>1469</ele>
        <time>2014-01-26T12:26:28.480Z</time>
      </trkpt>
      <trkpt lat="44.18301" lon="5.27359">
        <ele>1470</ele>
        <time>2014-01-26T12:26:37.380Z</time>
      </trkpt>
      <trkpt lat="44.18297" lon="5.27358">
        <ele>1471</ele>
        <time>2014-01-26T12:26:45.380Z</time>
      </trkpt>
      <trkpt lat="44.18292" lon="5.27356">
        <ele>1474</ele>
        <time>2014-01-26T12:26:51.380Z</time>
      </trkpt>
      <trkpt lat="44.18288" lon="5.27353">
        <ele>1476</ele>
        <time>2014-01-26T12:26:56.380Z</time>
      </trkpt>
      <trkpt lat="44.18284" lon="5.27351">
        <ele>1476</ele>
        <time>2014-01-26T12:27:00.380Z</time>
      </trkpt>
      <trkpt lat="44.1828" lon="5.27348">
        <ele>1476</ele>
        <time>2014-01-26T12:27:05.380Z</time>
      </trkpt>
      <trkpt lat="44.18276" lon="5.27346">
        <ele>1478</ele>
        <time>2014-01-26T12:27:11.380Z</time>
      </trkpt>
      <trkpt lat="44.18271" lon="5.27344">
        <ele>1477.5399936</ele>
        <time>2014-01-26T12:27:16.380Z</time>
      </trkpt>
      <trkpt lat="44.18267" lon="5.27342">
        <ele>1480</ele>
        <time>2014-01-26T12:27:23.380Z</time>
      </trkpt>
      <trkpt lat="44.18262" lon="5.2734">
        <ele>1482</ele>
        <time>2014-01-26T12:27:28.380Z</time>
      </trkpt>
      <trkpt lat="44.18256" lon="5.27337">
        <ele>1483</ele>
        <time>2014-01-26T12:27:35.380Z</time>
      </trkpt>
      <trkpt lat="44.18251" lon="5.27336">
        <ele>1485</ele>
        <time>2014-01-26T12:27:41.330Z</time>
      </trkpt>
      <trkpt lat="44.18246" lon="5.27334">
        <ele>1486</ele>
        <time>2014-01-26T12:27:46.480Z</time>
      </trkpt>
      <trkpt lat="44.1824" lon="5.27332">
        <ele>1487</ele>
        <time>2014-01-26T12:27:53.480Z</time>
      </trkpt>
      <trkpt lat="44.18236" lon="5.27331">
        <ele>1486</ele>
        <time>2014-01-26T12:27:58.340Z</time>
      </trkpt>
      <trkpt lat="44.18233" lon="5.27329">
        <ele>1490</ele>
        <time>2014-01-26T12:28:02.480Z</time>
      </trkpt>
      <trkpt lat="44.18229" lon="5.27328">
        <ele>1490</ele>
        <time>2014-01-26T12:28:07.480Z</time>
      </trkpt>
      <trkpt lat="44.18225" lon="5.27325">
        <ele>1491</ele>
        <time>2014-01-26T12:28:11.480Z</time>
      </trkpt>
      <trkpt lat="44.18222" lon="5.27325">
        <ele>1491</ele>
        <time>2014-01-26T12:28:14.480Z</time>
      </trkpt>
      <trkpt lat="44.18218" lon="5.27322">
        <ele>1490</ele>
        <time>2014-01-26T12:28:19.380Z</time>
      </trkpt>
      <trkpt lat="44.18213" lon="5.27321">
        <ele>1492</ele>
        <time>2014-01-26T12:28:26.380Z</time>
      </trkpt>
      <trkpt lat="44.18208" lon="5.27318">
        <ele>1495</ele>
        <time>2014-01-26T12:28:33.350Z</time>
      </trkpt>
      <trkpt lat="44.18203" lon="5.27316">
        <ele>1494</ele>
        <time>2014-01-26T12:28:39.480Z</time>
      </trkpt>
      <trkpt lat="44.18199" lon="5.27314">
        <ele>1497</ele>
        <time>2014-01-26T12:28:46.480Z</time>
      </trkpt>
      <trkpt lat="44.18194" lon="5.27313">
        <ele>1496.5399936</ele>
        <time>2014-01-26T12:28:56.380Z</time>
      </trkpt>
      <trkpt lat="44.18188" lon="5.27312">
        <ele>1499</ele>
        <time>2014-01-26T12:29:02.380Z</time>
      </trkpt>
      <trkpt lat="44.18184" lon="5.2731">
        <ele>1500</ele>
        <time>2014-01-26T12:29:08.480Z</time>
      </trkpt>
      <trkpt lat="44.18179" lon="5.27308">
        <ele>1501</ele>
        <time>2014-01-26T12:29:13.480Z</time>
      </trkpt>
      <trkpt lat="44.18173" lon="5.27306">
        <ele>1501</ele>
        <time>2014-01-26T12:29:18.480Z</time>
      </trkpt>
      <trkpt lat="44.18167" lon="5.27304">
        <ele>1504</ele>
        <time>2014-01-26T12:29:24.340Z</time>
      </trkpt>
      <trkpt lat="44.18162" lon="5.27301">
        <ele>1508</ele>
        <time>2014-01-26T12:29:31.480Z</time>
      </trkpt>
      <trkpt lat="44.18157" lon="5.27301">
        <ele>1508</ele>
        <time>2014-01-26T12:29:38.480Z</time>
      </trkpt>
      <trkpt lat="44.18152" lon="5.27299">
        <ele>1510</ele>
        <time>2014-01-26T12:29:45.380Z</time>
      </trkpt>
      <trkpt lat="44.18146" lon="5.27298">
        <ele>1511</ele>
        <time>2014-01-26T12:29:53.380Z</time>
      </trkpt>
      <trkpt lat="44.18141" lon="5.27297">
        <ele>1511</ele>
        <time>2014-01-26T12:29:58.240Z</time>
      </trkpt>
      <trkpt lat="44.18137" lon="5.27295">
        <ele>1514.9199872</ele>
        <time>2014-01-26T12:30:05.380Z</time>
      </trkpt>
      <trkpt lat="44.18132" lon="5.27295">
        <ele>1516</ele>
        <time>2014-01-26T12:30:10.380Z</time>
      </trkpt>
      <trkpt lat="44.18128" lon="5.27294">
        <ele>1516</ele>
        <time>2014-01-26T12:30:14.340Z</time>
      </trkpt>
      <trkpt lat="44.18122" lon="5.27292">
        <ele>1518</ele>
        <time>2014-01-26T12:30:21.480Z</time>
      </trkpt>
      <trkpt lat="44.18117" lon="5.2729">
        <ele>1518</ele>
        <time>2014-01-26T12:30:28.480Z</time>
      </trkpt>
      <trkpt lat="44.18112" lon="5.27293">
        <ele>1522</ele>
        <time>2014-01-26T12:30:39.380Z</time>
      </trkpt>
      <trkpt lat="44.18109" lon="5.27288">
        <ele>1524</ele>
        <time>2014-01-26T12:30:47.380Z</time>
      </trkpt>
      <trkpt lat="44.18107" lon="5.27281">
        <ele>1526</ele>
        <time>2014-01-26T12:30:53.380Z</time>
      </trkpt>
      <trkpt lat="44.18104" lon="5.27275">
        <ele>1526</ele>
        <time>2014-01-26T12:30:59.380Z</time>
      </trkpt>
      <trkpt lat="44.18102" lon="5.27269">
        <ele>1528</ele>
        <time>2014-01-26T12:31:04.380Z</time>
      </trkpt>
      <trkpt lat="44.18099" lon="5.27263">
        <ele>1528.9200128</ele>
        <time>2014-01-26T12:31:10.380Z</time>
      </trkpt>
      <trkpt lat="44.18097" lon="5.27257">
        <ele>1530</ele>
        <time>2014-01-26T12:31:15.380Z</time>
      </trkpt>
      <trkpt lat="44.18093" lon="5.27253">
        <ele>1530.4600064</ele>
        <time>2014-01-26T12:31:20.380Z</time>
      </trkpt>
      <trkpt lat="44.18089" lon="5.27251">
        <ele>1531</ele>
        <time>2014-01-26T12:31:24.380Z</time>
      </trkpt>
      <trkpt lat="44.18084" lon="5.27249">
        <ele>1532</ele>
        <time>2014-01-26T12:31:31.380Z</time>
      </trkpt>
      <trkpt lat="44.18079" lon="5.27247">
        <ele>1532</ele>
        <time>2014-01-26T12:31:36.380Z</time>
      </trkpt>
      <trkpt lat="44.18074" lon="5.27245">
        <ele>1536</ele>
        <time>2014-01-26T12:31:43.480Z</time>
      </trkpt>
      <trkpt lat="44.1807" lon="5.27243">
        <ele>1537</ele>
        <time>2014-01-26T12:31:49.480Z</time>
      </trkpt>
      <trkpt lat="44.18066" lon="5.27241">
        <ele>1538</ele>
        <time>2014-01-26T12:31:55.450Z</time>
      </trkpt>
      <trkpt lat="44.18061" lon="5.2724">
        <ele>1538.56</ele>
        <time>2014-01-26T12:32:00.480Z</time>
      </trkpt>
      <trkpt lat="44.18056" lon="5.2724">
        <ele>1539</ele>
        <time>2014-01-26T12:32:05.480Z</time>
      </trkpt>
      <trkpt lat="44.18052" lon="5.27238">
        <ele>1541</ele>
        <time>2014-01-26T12:32:11.480Z</time>
      </trkpt>
      <trkpt lat="44.18047" lon="5.27236">
        <ele>1541</ele>
        <time>2014-01-26T12:32:17.380Z</time>
      </trkpt>
      <trkpt lat="44.18043" lon="5.27241">
        <ele>1545</ele>
        <time>2014-01-26T12:32:47.340Z</time>
      </trkpt>
      <trkpt lat="44.18041" lon="5.27246">
        <ele>1547</ele>
        <time>2014-01-26T12:32:52.480Z</time>
      </trkpt>
      <trkpt lat="44.18037" lon="5.27249">
        <ele>1547</ele>
        <time>2014-01-26T12:32:59.480Z</time>
      </trkpt>
      <trkpt lat="44.18033" lon="5.27249">
        <ele>1547</ele>
        <time>2014-01-26T12:33:04.340Z</time>
      </trkpt>
      <trkpt lat="44.18031" lon="5.27246">
        <ele>1549</ele>
        <time>2014-01-26T12:35:16.480Z</time>
      </trkpt>
      <trkpt lat="44.18022" lon="5.27248">
        <ele>1548.9019676739</ele>
        <time>2014-01-26T12:36:10.380Z</time>
      </trkpt>
      <trkpt lat="44.18015" lon="5.27248">
        <ele>1550</ele>
        <time>2014-01-26T12:36:17.380Z</time>
      </trkpt>
      <trkpt lat="44.18009" lon="5.27249">
        <ele>1552</ele>
        <time>2014-01-26T12:36:24.380Z</time>
      </trkpt>
      <trkpt lat="44.18001" lon="5.27247">
        <ele>1554</ele>
        <time>2014-01-26T12:36:33.480Z</time>
      </trkpt>
      <trkpt lat="44.17992" lon="5.27245">
        <ele>1556</ele>
        <time>2014-01-26T12:36:44.480Z</time>
      </trkpt>
      <trkpt lat="44.17985" lon="5.27245">
        <ele>1560</ele>
        <time>2014-01-26T12:37:00.390Z</time>
      </trkpt>
      <trkpt lat="44.17978" lon="5.27247">
        <ele>1560</ele>
        <time>2014-01-26T12:37:09.480Z</time>
      </trkpt>
      <trkpt lat="44.1797" lon="5.27245">
        <ele>1565</ele>
        <time>2014-01-26T12:37:19.340Z</time>
      </trkpt>
      <trkpt lat="44.17963" lon="5.27249">
        <ele>1567</ele>
        <time>2014-01-26T12:37:26.480Z</time>
      </trkpt>
      <trkpt lat="44.17956" lon="5.2725">
        <ele>1569.5185185185</ele>
        <time>2014-01-26T12:37:35.480Z</time>
      </trkpt>
      <trkpt lat="44.1795" lon="5.27247">
        <ele>1571</ele>
        <time>2014-01-26T12:38:09.480Z</time>
      </trkpt>
      <trkpt lat="44.17943" lon="5.27249">
        <ele>1572</ele>
        <time>2014-01-26T12:38:15.480Z</time>
      </trkpt>
      <trkpt lat="44.17936" lon="5.2725">
        <ele>1575</ele>
        <time>2014-01-26T12:38:22.480Z</time>
      </trkpt>
      <trkpt lat="44.17928" lon="5.27257">
        <ele>1578</ele>
        <time>2014-01-26T12:38:33.480Z</time>
      </trkpt>
      <trkpt lat="44.1792" lon="5.27262">
        <ele>1583.12</ele>
        <time>2014-01-26T12:38:45.480Z</time>
      </trkpt>
      <trkpt lat="44.17915" lon="5.27271">
        <ele>1585</ele>
        <time>2014-01-26T12:38:54.480Z</time>
      </trkpt>
      <trkpt lat="44.17907" lon="5.27276">
        <ele>1586</ele>
        <time>2014-01-26T12:39:07.380Z</time>
      </trkpt>
      <trkpt lat="44.17899" lon="5.27276">
        <ele>1588</ele>
        <time>2014-01-26T12:39:16.380Z</time>
      </trkpt>
      <trkpt lat="44.17892" lon="5.2728">
        <ele>1590</ele>
        <time>2014-01-26T12:39:26.380Z</time>
      </trkpt>
      <trkpt lat="44.17884" lon="5.27288">
        <ele>1595</ele>
        <time>2014-01-26T12:39:48.480Z</time>
      </trkpt>
      <trkpt lat="44.17876" lon="5.2729">
        <ele>1598.12</ele>
        <time>2014-01-26T12:40:00.480Z</time>
      </trkpt>
      <trkpt lat="44.17869" lon="5.27293">
        <ele>1601</ele>
        <time>2014-01-26T12:40:11.480Z</time>
      </trkpt>
      <trkpt lat="44.17861" lon="5.27297">
        <ele>1601</ele>
        <time>2014-01-26T12:40:19.480Z</time>
      </trkpt>
      <trkpt lat="44.17853" lon="5.273">
        <ele>1608</ele>
        <time>2014-01-26T12:40:29.180Z</time>
      </trkpt>
      <trkpt lat="44.17845" lon="5.27303">
        <ele>1612</ele>
        <time>2014-01-26T12:40:41.380Z</time>
      </trkpt>
      <trkpt lat="44.17838" lon="5.27308">
        <ele>1614.4600064</ele>
        <time>2014-01-26T12:40:50.380Z</time>
      </trkpt>
      <trkpt lat="44.17832" lon="5.27312">
        <ele>1617</ele>
        <time>2014-01-26T12:40:57.380Z</time>
      </trkpt>
      <trkpt lat="44.17825" lon="5.27316">
        <ele>1617</ele>
        <time>2014-01-26T12:41:04.340Z</time>
      </trkpt>
      <trkpt lat="44.17818" lon="5.27318">
        <ele>1619</ele>
        <time>2014-01-26T12:41:12.480Z</time>
      </trkpt>
      <trkpt lat="44.1781" lon="5.27323">
        <ele>1623</ele>
        <time>2014-01-26T12:41:23.380Z</time>
      </trkpt>
      <trkpt lat="44.17801" lon="5.27327">
        <ele>1627</ele>
        <time>2014-01-26T12:41:33.380Z</time>
      </trkpt>
      <trkpt lat="44.17794" lon="5.27331">
        <ele>1631</ele>
        <time>2014-01-26T12:41:41.480Z</time>
      </trkpt>
      <trkpt lat="44.17786" lon="5.27335">
        <ele>1634</ele>
        <time>2014-01-26T12:41:54.380Z</time>
      </trkpt>
      <trkpt lat="44.17779" lon="5.27336">
        <ele>1636</ele>
        <time>2014-01-26T12:42:04.380Z</time>
      </trkpt>
      <trkpt lat="44.17772" lon="5.27338">
        <ele>1637</ele>
        <time>2014-01-26T12:42:13.350Z</time>
      </trkpt>
      <trkpt lat="44.17764" lon="5.27337">
        <ele>1641</ele>
        <time>2014-01-26T12:42:24.380Z</time>
      </trkpt>
      <trkpt lat="44.17757" lon="5.27335">
        <ele>1642</ele>
        <time>2014-01-26T12:42:29.280Z</time>
      </trkpt>
      <trkpt lat="44.1775" lon="5.27332">
        <ele>1644</ele>
        <time>2014-01-26T12:42:41.480Z</time>
      </trkpt>
      <trkpt lat="44.17744" lon="5.27328">
        <ele>1644</ele>
        <time>2014-01-26T12:42:49.480Z</time>
      </trkpt>
      <trkpt lat="44.17736" lon="5.27331">
        <ele>1650</ele>
        <time>2014-01-26T12:43:03.240Z</time>
      </trkpt>
      <trkpt lat="44.17728" lon="5.27331">
        <ele>1652</ele>
        <time>2014-01-26T12:43:12.380Z</time>
      </trkpt>
      <trkpt lat="44.17721" lon="5.27327">
        <ele>1654</ele>
        <time>2014-01-26T12:43:21.380Z</time>
      </trkpt>
      <trkpt lat="44.17716" lon="5.2732">
        <ele>1654</ele>
        <time>2014-01-26T12:43:25.380Z</time>
      </trkpt>
      <trkpt lat="44.17709" lon="5.27316">
        <ele>1657</ele>
        <time>2014-01-26T12:43:33.240Z</time>
      </trkpt>
      <trkpt lat="44.17702" lon="5.27316">
        <ele>1657</ele>
        <time>2014-01-26T12:43:39.380Z</time>
      </trkpt>
      <trkpt lat="44.17695" lon="5.27317">
        <ele>1661.3799808</ele>
        <time>2014-01-26T12:43:45.380Z</time>
      </trkpt>
      <trkpt lat="44.17688" lon="5.27319">
        <ele>1663.4599936</ele>
        <time>2014-01-26T12:43:55.380Z</time>
      </trkpt>
      <trkpt lat="44.17683" lon="5.27314">
        <ele>1665</ele>
        <time>2014-01-26T12:44:08.380Z</time>
      </trkpt>
      <trkpt lat="44.1768" lon="5.27309">
        <ele>1667</ele>
        <time>2014-01-26T12:44:19.380Z</time>
      </trkpt>
      <trkpt lat="44.17681" lon="5.27304">
        <ele>1668</ele>
        <time>2014-01-26T12:44:26.480Z</time>
      </trkpt>
      <trkpt lat="44.17682" lon="5.27297">
        <ele>1668</ele>
        <time>2014-01-26T12:44:31.380Z</time>
      </trkpt>
      <trkpt lat="44.17686" lon="5.2729">
        <ele>1668</ele>
        <time>2014-01-26T12:44:37.380Z</time>
      </trkpt>
      <trkpt lat="44.17691" lon="5.2728">
        <ele>1669</ele>
        <time>2014-01-26T12:44:43.480Z</time>
      </trkpt>
      <trkpt lat="44.17697" lon="5.27272">
        <ele>1671</ele>
        <time>2014-01-26T12:44:51.480Z</time>
      </trkpt>
      <trkpt lat="44.17704" lon="5.27267">
        <ele>1673</ele>
        <time>2014-01-26T12:45:12.380Z</time>
      </trkpt>
      <trkpt lat="44.1771" lon="5.2726">
        <ele>1673</ele>
        <time>2014-01-26T12:45:18.480Z</time>
      </trkpt>
      <trkpt lat="44.17714" lon="5.27255">
        <ele>1673</ele>
        <time>2014-01-26T12:45:24.480Z</time>
      </trkpt>
      <trkpt lat="44.17719" lon="5.2725">
        <ele>1673</ele>
        <time>2014-01-26T12:45:29.480Z</time>
      </trkpt>
      <trkpt lat="44.17723" lon="5.27242">
        <ele>1675</ele>
        <time>2014-01-26T12:45:36.350Z</time>
      </trkpt>
      <trkpt lat="44.17725" lon="5.27234">
        <ele>1677</ele>
        <time>2014-01-26T12:45:44.380Z</time>
      </trkpt>
      <trkpt lat="44.17727" lon="5.27224">
        <ele>1679</ele>
        <time>2014-01-26T12:45:52.480Z</time>
      </trkpt>
      <trkpt lat="44.17726" lon="5.27214">
        <ele>1680</ele>
        <time>2014-01-26T12:46:03.480Z</time>
      </trkpt>
      <trkpt lat="44.17727" lon="5.272">
        <ele>1684</ele>
        <time>2014-01-26T12:46:22.480Z</time>
      </trkpt>
      <trkpt lat="44.17725" lon="5.27189">
        <ele>1686</ele>
        <time>2014-01-26T12:46:32.350Z</time>
      </trkpt>
      <trkpt lat="44.17721" lon="5.27183">
        <ele>1686</ele>
        <time>2014-01-26T12:46:39.380Z</time>
      </trkpt>
      <trkpt lat="44.17727" lon="5.27184">
        <ele>1687</ele>
        <time>2014-01-26T12:47:08.380Z</time>
      </trkpt>
      <trkpt lat="44.17732" lon="5.27191">
        <ele>1689</ele>
        <time>2014-01-26T12:49:25.480Z</time>
      </trkpt>
      <trkpt lat="44.17728" lon="5.27199">
        <ele>1689</ele>
        <time>2014-01-26T12:50:06.380Z</time>
      </trkpt>
      <trkpt lat="44.17726" lon="5.27195">
        <ele>1684</ele>
        <time>2014-01-26T12:57:36.480Z</time>
      </trkpt>
      <trkpt lat="44.17727" lon="5.27187">
        <ele>1683</ele>
        <time>2014-01-26T12:59:22.240Z</time>
      </trkpt>
      <trkpt lat="44.17729" lon="5.27183">
        <ele>1683</ele>
        <time>2014-01-26T12:59:27.380Z</time>
      </trkpt>
      <trkpt lat="44.17731" lon="5.27173">
        <ele>1684</ele>
        <time>2014-01-26T12:59:31.480Z</time>
      </trkpt>
      <trkpt lat="44.17731" lon="5.27164">
        <ele>1684</ele>
        <time>2014-01-26T12:59:34.480Z</time>
      </trkpt>
      <trkpt lat="44.17732" lon="5.27159">
        <ele>1682.88</ele>
        <time>2014-01-26T12:59:40.480Z</time>
      </trkpt>
      <trkpt lat="44.17738" lon="5.27154">
        <ele>1681</ele>
        <time>2014-01-26T13:01:45.480Z</time>
      </trkpt>
      <trkpt lat="44.17749" lon="5.27158">
        <ele>1681</ele>
        <time>2014-01-26T13:01:48.480Z</time>
      </trkpt>
      <trkpt lat="44.17756" lon="5.27159">
        <ele>1667.5399936</ele>
        <time>2014-01-26T13:02:04.380Z</time>
      </trkpt>
      <trkpt lat="44.17763" lon="5.2716">
        <ele>1663</ele>
        <time>2014-01-26T13:02:11.380Z</time>
      </trkpt>
      <trkpt lat="44.17773" lon="5.27162">
        <ele>1656.6099968</ele>
        <time>2014-01-26T13:02:21.310Z</time>
      </trkpt>
      <trkpt lat="44.17777" lon="5.27173">
        <ele>1655</ele>
        <time>2014-01-26T13:05:02.480Z</time>
      </trkpt>
      <trkpt lat="44.17787" lon="5.27174">
        <ele>1655</ele>
        <time>2014-01-26T13:05:06.280Z</time>
      </trkpt>
      <trkpt lat="44.17799" lon="5.27179">
        <ele>1650.8599424</ele>
        <time>2014-01-26T13:05:10.380Z</time>
      </trkpt>
      <trkpt lat="44.1781" lon="5.27184">
        <ele>1637.1000064</ele>
        <time>2014-01-26T13:05:13.370Z</time>
      </trkpt>
      <trkpt lat="44.17819" lon="5.27187">
        <ele>1633.88</ele>
        <time>2014-01-26T13:05:16.480Z</time>
      </trkpt>
      <trkpt lat="44.17831" lon="5.27192">
        <ele>1626.3199872</ele>
        <time>2014-01-26T13:05:19.260Z</time>
      </trkpt>
      <trkpt lat="44.17844" lon="5.27186">
        <ele>1621.56</ele>
        <time>2014-01-26T13:05:23.280Z</time>
      </trkpt>
      <trkpt lat="44.17851" lon="5.27192">
        <ele>1614.88</ele>
        <time>2014-01-26T13:05:25.480Z</time>
      </trkpt>
      <trkpt lat="44.17863" lon="5.27193">
        <ele>1611.4800384</ele>
        <time>2014-01-26T13:05:28.340Z</time>
      </trkpt>
      <trkpt lat="44.1787" lon="5.27198">
        <ele>1606.3499904</ele>
        <time>2014-01-26T13:05:30.370Z</time>
      </trkpt>
      <trkpt lat="44.17881" lon="5.27192">
        <ele>1601.2</ele>
        <time>2014-01-26T13:05:33.280Z</time>
      </trkpt>
      <trkpt lat="44.1789" lon="5.27199">
        <ele>1594.92</ele>
        <time>2014-01-26T13:05:35.280Z</time>
      </trkpt>
      <trkpt lat="44.17899" lon="5.27199">
        <ele>1593.1176588696</ele>
        <time>2014-01-26T13:05:38.370Z</time>
      </trkpt>
      <trkpt lat="44.17913" lon="5.27199">
        <ele>1584.0800128</ele>
        <time>2014-01-26T13:05:41.380Z</time>
      </trkpt>
      <trkpt lat="44.17922" lon="5.272">
        <ele>1583.5400064</ele>
        <time>2014-01-26T13:05:43.380Z</time>
      </trkpt>
      <trkpt lat="44.17932" lon="5.27203">
        <ele>1575.64</ele>
        <time>2014-01-26T13:05:46.280Z</time>
      </trkpt>
      <trkpt lat="44.17938" lon="5.27209">
        <ele>1575</ele>
        <time>2014-01-26T13:06:38.380Z</time>
      </trkpt>
      <trkpt lat="44.17946" lon="5.27208">
        <ele>1575</ele>
        <time>2014-01-26T13:06:41.380Z</time>
      </trkpt>
      <trkpt lat="44.17952" lon="5.272">
        <ele>1575</ele>
        <time>2014-01-26T13:06:43.380Z</time>
      </trkpt>
      <trkpt lat="44.1796" lon="5.27192">
        <ele>1575</ele>
        <time>2014-01-26T13:06:45.380Z</time>
      </trkpt>
      <trkpt lat="44.1797" lon="5.27183">
        <ele>1575</ele>
        <time>2014-01-26T13:06:47.240Z</time>
      </trkpt>
      <trkpt lat="44.17982" lon="5.27176">
        <ele>1575</ele>
        <time>2014-01-26T13:06:49.380Z</time>
      </trkpt>
      <trkpt lat="44.17992" lon="5.27165">
        <ele>1558.52</ele>
        <time>2014-01-26T13:06:51.480Z</time>
      </trkpt>
      <trkpt lat="44.18003" lon="5.2716">
        <ele>1546.5400064</ele>
        <time>2014-01-26T13:06:53.380Z</time>
      </trkpt>
      <trkpt lat="44.1801" lon="5.27149">
        <ele>1545.6200192</ele>
        <time>2014-01-26T13:06:55.380Z</time>
      </trkpt>
      <trkpt lat="44.18022" lon="5.27141">
        <ele>1538.1599872</ele>
        <time>2014-01-26T13:06:57.340Z</time>
      </trkpt>
      <trkpt lat="44.18032" lon="5.27128">
        <ele>1536.64</ele>
        <time>2014-01-26T13:06:59.280Z</time>
      </trkpt>
      <trkpt lat="44.18034" lon="5.27116">
        <ele>1533.2</ele>
        <time>2014-01-26T13:07:00.480Z</time>
      </trkpt>
      <trkpt lat="44.18036" lon="5.27085">
        <ele>1530</ele>
        <time>2014-01-26T13:07:02.380Z</time>
      </trkpt>
      <trkpt lat="44.18043" lon="5.27053">
        <ele>1523.836722699</ele>
        <time>2014-01-26T13:07:04.320Z</time>
      </trkpt>
      <trkpt lat="44.1805" lon="5.27024">
        <ele>1516.2000128</ele>
        <time>2014-01-26T13:07:06.370Z</time>
      </trkpt>
      <trkpt lat="44.18054" lon="5.26999">
        <ele>1511.6199808</ele>
        <time>2014-01-26T13:07:08.380Z</time>
      </trkpt>
      <trkpt lat="44.18058" lon="5.26977">
        <ele>1506.5399936</ele>
        <time>2014-01-26T13:07:10.380Z</time>
      </trkpt>
      <trkpt lat="44.18065" lon="5.26954">
        <ele>1502.3000192</ele>
        <time>2014-01-26T13:07:12.370Z</time>
      </trkpt>
      <trkpt lat="44.1807" lon="5.26928">
        <ele>1494.699968</ele>
        <time>2014-01-26T13:07:14.380Z</time>
      </trkpt>
      <trkpt lat="44.18077" lon="5.26901">
        <ele>1491.36</ele>
        <time>2014-01-26T13:07:16.240Z</time>
      </trkpt>
      <trkpt lat="44.1808" lon="5.26887">
        <ele>1487.76</ele>
        <time>2014-01-26T13:07:17.480Z</time>
      </trkpt>
      <trkpt lat="44.1809" lon="5.26861">
        <ele>1482.68</ele>
        <time>2014-01-26T13:07:19.360Z</time>
      </trkpt>
      <trkpt lat="44.18101" lon="5.2683">
        <ele>1473.2199424</ele>
        <time>2014-01-26T13:07:21.340Z</time>
      </trkpt>
      <trkpt lat="44.1811" lon="5.26797">
        <ele>1461.5400064</ele>
        <time>2014-01-26T13:07:23.380Z</time>
      </trkpt>
      <trkpt lat="44.18118" lon="5.26763">
        <ele>1457.5400064</ele>
        <time>2014-01-26T13:07:25.380Z</time>
      </trkpt>
      <trkpt lat="44.18123" lon="5.26731">
        <ele>1461.9199872</ele>
        <time>2014-01-26T13:07:27.380Z</time>
      </trkpt>
      <trkpt lat="44.18123" lon="5.26702">
        <ele>1458.1600256</ele>
        <time>2014-01-26T13:07:29.380Z</time>
      </trkpt>
      <trkpt lat="44.18122" lon="5.26672">
        <ele>1455</ele>
        <time>2014-01-26T13:07:32.370Z</time>
      </trkpt>
      <trkpt lat="44.18122" lon="5.26661">
        <ele>1454</ele>
        <time>2014-01-26T13:07:34.380Z</time>
      </trkpt>
      <trkpt lat="44.18121" lon="5.26652">
        <ele>1454</ele>
        <time>2014-01-26T13:07:36.380Z</time>
      </trkpt>
      <trkpt lat="44.1812" lon="5.26637">
        <ele>1455</ele>
        <time>2014-01-26T13:07:42.480Z</time>
      </trkpt>
      <trkpt lat="44.18116" lon="5.26625">
        <ele>1457</ele>
        <time>2014-01-26T13:07:57.580Z</time>
      </trkpt>
      <trkpt lat="44.18113" lon="5.26619">
        <ele>1459</ele>
        <time>2014-01-26T13:08:10.480Z</time>
      </trkpt>
      <trkpt lat="44.18113" lon="5.26612">
        <ele>1459</ele>
        <time>2014-01-26T13:08:21.480Z</time>
      </trkpt>
      <trkpt lat="44.18113" lon="5.26605">
        <ele>1459</ele>
        <time>2014-01-26T13:08:29.340Z</time>
      </trkpt>
      <trkpt lat="44.18111" lon="5.26597">
        <ele>1459</ele>
        <time>2014-01-26T13:08:36.480Z</time>
      </trkpt>
      <trkpt lat="44.18112" lon="5.26588">
        <ele>1459</ele>
        <time>2014-01-26T13:08:39.480Z</time>
      </trkpt>
      <trkpt lat="44.18115" lon="5.26576">
        <ele>1459</ele>
        <time>2014-01-26T13:08:42.480Z</time>
      </trkpt>
      <trkpt lat="44.18116" lon="5.26568">
        <ele>1459</ele>
        <time>2014-01-26T13:08:44.340Z</time>
      </trkpt>
      <trkpt lat="44.18116" lon="5.26562">
        <ele>1459</ele>
        <time>2014-01-26T13:08:46.340Z</time>
      </trkpt>
      <trkpt lat="44.18116" lon="5.26557">
        <ele>1459</ele>
        <time>2014-01-26T13:08:48.480Z</time>
      </trkpt>
      <trkpt lat="44.18117" lon="5.2655">
        <ele>1457.88</ele>
        <time>2014-01-26T13:08:50.480Z</time>
      </trkpt>
      <trkpt lat="44.18116" lon="5.26542">
        <ele>1457</ele>
        <time>2014-01-26T13:08:52.270Z</time>
      </trkpt>
      <trkpt lat="44.18116" lon="5.26535">
        <ele>1457</ele>
        <time>2014-01-26T13:08:54.380Z</time>
      </trkpt>
      <trkpt lat="44.18114" lon="5.26526">
        <ele>1457</ele>
        <time>2014-01-26T13:08:57.380Z</time>
      </trkpt>
      <trkpt lat="44.18116" lon="5.26516">
        <ele>1455</ele>
        <time>2014-01-26T13:09:26.410Z</time>
      </trkpt>
      <trkpt lat="44.18118" lon="5.26506">
        <ele>1455</ele>
        <time>2014-01-26T13:09:28.480Z</time>
      </trkpt>
      <trkpt lat="44.18118" lon="5.26493">
        <ele>1453.88</ele>
        <time>2014-01-26T13:09:30.480Z</time>
      </trkpt>
      <trkpt lat="44.18116" lon="5.26478">
        <ele>1453</ele>
        <time>2014-01-26T13:09:32.270Z</time>
      </trkpt>
      <trkpt lat="44.18118" lon="5.2647">
        <ele>1453</ele>
        <time>2014-01-26T13:09:33.380Z</time>
      </trkpt>
      <trkpt lat="44.18122" lon="5.26462">
        <ele>1453</ele>
        <time>2014-01-26T13:09:34.380Z</time>
      </trkpt>
      <trkpt lat="44.18126" lon="5.26454">
        <ele>1453</ele>
        <time>2014-01-26T13:09:35.380Z</time>
      </trkpt>
      <trkpt lat="44.18133" lon="5.26432">
        <ele>1453</ele>
        <time>2014-01-26T13:09:37.240Z</time>
      </trkpt>
      <trkpt lat="44.1814" lon="5.26424">
        <ele>1453</ele>
        <time>2014-01-26T13:09:38.580Z</time>
      </trkpt>
      <trkpt lat="44.18149" lon="5.26418">
        <ele>1453</ele>
        <time>2014-01-26T13:09:39.580Z</time>
      </trkpt>
      <trkpt lat="44.18167" lon="5.26405">
        <ele>1436.08</ele>
        <time>2014-01-26T13:09:41.480Z</time>
      </trkpt>
      <trkpt lat="44.18183" lon="5.26389">
        <ele>1428.700032</ele>
        <time>2014-01-26T13:09:43.380Z</time>
      </trkpt>
      <trkpt lat="44.18199" lon="5.26371">
        <ele>1421.6200192</ele>
        <time>2014-01-26T13:09:45.380Z</time>
      </trkpt>
      <trkpt lat="44.18213" lon="5.2635">
        <ele>1418.0800128</ele>
        <time>2014-01-26T13:09:47.380Z</time>
      </trkpt>
      <trkpt lat="44.18223" lon="5.26324">
        <ele>1414.6200192</ele>
        <time>2014-01-26T13:09:49.380Z</time>
      </trkpt>
      <trkpt lat="44.1824" lon="5.26307">
        <ele>1408.6200192</ele>
        <time>2014-01-26T13:09:51.380Z</time>
      </trkpt>
      <trkpt lat="44.18259" lon="5.26296">
        <ele>1405.1153969231</ele>
        <time>2014-01-26T13:09:53.380Z</time>
      </trkpt>
      <trkpt lat="44.18272" lon="5.26275">
        <ele>1401.28</ele>
        <time>2014-01-26T13:09:55.280Z</time>
      </trkpt>
      <trkpt lat="44.18277" lon="5.26265">
        <ele>1397.76</ele>
        <time>2014-01-26T13:09:56.480Z</time>
      </trkpt>
      <trkpt lat="44.18293" lon="5.26255">
        <ele>1394.5399936</ele>
        <time>2014-01-26T13:09:58.380Z</time>
      </trkpt>
      <trkpt lat="44.18306" lon="5.26266">
        <ele>1390</ele>
        <time>2014-01-26T13:10:01.280Z</time>
      </trkpt>
      <trkpt lat="44.18311" lon="5.26267">
        <ele>1390</ele>
        <time>2014-01-26T13:10:04.380Z</time>
      </trkpt>
      <trkpt lat="44.18309" lon="5.26261">
        <ele>1388</ele>
        <time>2014-01-26T13:11:14.380Z</time>
      </trkpt>
      <trkpt lat="44.18309" lon="5.26253">
        <ele>1388</ele>
        <time>2014-01-26T13:11:20.270Z</time>
      </trkpt>
      <trkpt lat="44.18309" lon="5.26249">
        <ele>1388</ele>
        <time>2014-01-26T13:12:23.480Z</time>
      </trkpt>
      <trkpt lat="44.1831" lon="5.26251">
        <ele>1388</ele>
        <time>2014-01-26T13:13:21.480Z</time>
      </trkpt>
      <trkpt lat="44.18307" lon="5.26251">
        <ele>1387</ele>
        <time>2014-01-26T13:15:09.380Z</time>
      </trkpt>
      <trkpt lat="44.18307" lon="5.26245">
        <ele>1387</ele>
        <time>2014-01-26T13:15:28.380Z</time>
      </trkpt>
      <trkpt lat="44.18307" lon="5.2624">
        <ele>1388</ele>
        <time>2014-01-26T13:15:31.370Z</time>
      </trkpt>
      <trkpt lat="44.18308" lon="5.26236">
        <ele>1388</ele>
        <time>2014-01-26T13:15:34.340Z</time>
      </trkpt>
      <trkpt lat="44.18308" lon="5.26232">
        <ele>1388</ele>
        <time>2014-01-26T13:15:37.470Z</time>
      </trkpt>
      <trkpt lat="44.18308" lon="5.26227">
        <ele>1388</ele>
        <time>2014-01-26T13:15:40.480Z</time>
      </trkpt>
      <trkpt lat="44.18308" lon="5.26223">
        <ele>1388</ele>
        <time>2014-01-26T13:15:43.480Z</time>
      </trkpt>
      <trkpt lat="44.18309" lon="5.26219">
        <ele>1388</ele>
        <time>2014-01-26T13:15:46.480Z</time>
      </trkpt>
      <trkpt lat="44.1831" lon="5.26214">
        <ele>1388</ele>
        <time>2014-01-26T13:15:55.480Z</time>
      </trkpt>
      <trkpt lat="44.18305" lon="5.26216">
        <ele>1389</ele>
        <time>2014-01-26T13:22:42.480Z</time>
      </trkpt>
      <trkpt lat="44.18301" lon="5.26215">
        <ele>1389</ele>
        <time>2014-01-26T13:22:57.270Z</time>
      </trkpt>
      <trkpt lat="44.18297" lon="5.26213">
        <ele>1391</ele>
        <time>2014-01-26T13:23:01.470Z</time>
      </trkpt>
      <trkpt lat="44.18294" lon="5.26212">
        <ele>1391</ele>
        <time>2014-01-26T13:23:03.480Z</time>
      </trkpt>
      <trkpt lat="44.18291" lon="5.26209">
        <ele>1391</ele>
        <time>2014-01-26T13:23:06.480Z</time>
      </trkpt>
      <trkpt lat="44.18287" lon="5.26207">
        <ele>1391</ele>
        <time>2014-01-26T13:23:09.480Z</time>
      </trkpt>
      <trkpt lat="44.18283" lon="5.26205">
        <ele>1393</ele>
        <time>2014-01-26T13:23:12.240Z</time>
      </trkpt>
      <trkpt lat="44.18279" lon="5.26203">
        <ele>1393</ele>
        <time>2014-01-26T13:23:15.380Z</time>
      </trkpt>
      <trkpt lat="44.18276" lon="5.262">
        <ele>1393</ele>
        <time>2014-01-26T13:23:18.380Z</time>
      </trkpt>
      <trkpt lat="44.18271" lon="5.26195">
        <ele>1394</ele>
        <time>2014-01-26T13:23:25.480Z</time>
      </trkpt>
      <trkpt lat="44.18267" lon="5.26187">
        <ele>1396</ele>
        <time>2014-01-26T13:23:32.270Z</time>
      </trkpt>
      <trkpt lat="44.18262" lon="5.26184">
        <ele>1396</ele>
        <time>2014-01-26T13:23:37.380Z</time>
      </trkpt>
      <trkpt lat="44.18256" lon="5.26179">
        <ele>1399</ele>
        <time>2014-01-26T13:23:43.480Z</time>
      </trkpt>
      <trkpt lat="44.18251" lon="5.26175">
        <ele>1399</ele>
        <time>2014-01-26T13:23:49.480Z</time>
      </trkpt>
      <trkpt lat="44.18246" lon="5.2617">
        <ele>1400</ele>
        <time>2014-01-26T13:23:54.380Z</time>
      </trkpt>
      <trkpt lat="44.18241" lon="5.26167">
        <ele>1400</ele>
        <time>2014-01-26T13:23:59.380Z</time>
      </trkpt>
      <trkpt lat="44.18233" lon="5.26161">
        <ele>1402</ele>
        <time>2014-01-26T13:24:06.480Z</time>
      </trkpt>
      <trkpt lat="44.18228" lon="5.26155">
        <ele>1402</ele>
        <time>2014-01-26T13:24:13.480Z</time>
      </trkpt>
      <trkpt lat="44.18223" lon="5.26146">
        <ele>1403.0769230769</ele>
        <time>2014-01-26T13:24:20.480Z</time>
      </trkpt>
      <trkpt lat="44.18219" lon="5.26135">
        <ele>1404</ele>
        <time>2014-01-26T13:24:36.480Z</time>
      </trkpt>
      <trkpt lat="44.18211" lon="5.26128">
        <ele>1405</ele>
        <time>2014-01-26T13:24:43.380Z</time>
      </trkpt>
      <trkpt lat="44.18208" lon="5.26117">
        <ele>1405.9200128</ele>
        <time>2014-01-26T13:24:50.380Z</time>
      </trkpt>
      <trkpt lat="44.18203" lon="5.26108">
        <ele>1407</ele>
        <time>2014-01-26T13:24:56.340Z</time>
      </trkpt>
      <trkpt lat="44.18198" lon="5.26099">
        <ele>1409</ele>
        <time>2014-01-26T13:25:03.480Z</time>
      </trkpt>
      <trkpt lat="44.18193" lon="5.26089">
        <ele>1409</ele>
        <time>2014-01-26T13:25:08.480Z</time>
      </trkpt>
      <trkpt lat="44.18188" lon="5.26082">
        <ele>1409</ele>
        <time>2014-01-26T13:25:12.340Z</time>
      </trkpt>
      <trkpt lat="44.18185" lon="5.26077">
        <ele>1409</ele>
        <time>2014-01-26T13:25:28.480Z</time>
      </trkpt>
      <trkpt lat="44.1818" lon="5.26072">
        <ele>1410</ele>
        <time>2014-01-26T13:25:32.270Z</time>
      </trkpt>
      <trkpt lat="44.18176" lon="5.26065">
        <ele>1410</ele>
        <time>2014-01-26T13:25:37.380Z</time>
      </trkpt>
      <trkpt lat="44.18172" lon="5.26059">
        <ele>1411</ele>
        <time>2014-01-26T13:25:41.480Z</time>
      </trkpt>
      <trkpt lat="44.18165" lon="5.26054">
        <ele>1411</ele>
        <time>2014-01-26T13:25:46.340Z</time>
      </trkpt>
      <trkpt lat="44.18161" lon="5.26046">
        <ele>1413</ele>
        <time>2014-01-26T13:25:51.380Z</time>
      </trkpt>
      <trkpt lat="44.18158" lon="5.2604">
        <ele>1413</ele>
        <time>2014-01-26T13:25:55.380Z</time>
      </trkpt>
      <trkpt lat="44.18155" lon="5.26036">
        <ele>1413</ele>
        <time>2014-01-26T13:25:58.380Z</time>
      </trkpt>
      <trkpt lat="44.18152" lon="5.26033">
        <ele>1416</ele>
        <time>2014-01-26T13:26:01.480Z</time>
      </trkpt>
      <trkpt lat="44.18148" lon="5.26031">
        <ele>1416</ele>
        <time>2014-01-26T13:26:04.370Z</time>
      </trkpt>
      <trkpt lat="44.18144" lon="5.2603">
        <ele>1417</ele>
        <time>2014-01-26T13:26:07.270Z</time>
      </trkpt>
      <trkpt lat="44.18141" lon="5.26027">
        <ele>1417.9200128</ele>
        <time>2014-01-26T13:26:10.380Z</time>
      </trkpt>
      <trkpt lat="44.18138" lon="5.26024">
        <ele>1419</ele>
        <time>2014-01-26T13:26:13.480Z</time>
      </trkpt>
      <trkpt lat="44.18135" lon="5.2602">
        <ele>1420</ele>
        <time>2014-01-26T13:26:16.380Z</time>
      </trkpt>
      <trkpt lat="44.18132" lon="5.26017">
        <ele>1420</ele>
        <time>2014-01-26T13:26:19.380Z</time>
      </trkpt>
      <trkpt lat="44.18128" lon="5.26013">
        <ele>1421</ele>
        <time>2014-01-26T13:26:22.370Z</time>
      </trkpt>
      <trkpt lat="44.18126" lon="5.2601">
        <ele>1421</ele>
        <time>2014-01-26T13:26:24.480Z</time>
      </trkpt>
      <trkpt lat="44.18123" lon="5.26007">
        <ele>1421</ele>
        <time>2014-01-26T13:26:26.480Z</time>
      </trkpt>
      <trkpt lat="44.18121" lon="5.26003">
        <ele>1421</ele>
        <time>2014-01-26T13:26:28.480Z</time>
      </trkpt>
      <trkpt lat="44.18118" lon="5.26">
        <ele>1422.12</ele>
        <time>2014-01-26T13:26:30.480Z</time>
      </trkpt>
      <trkpt lat="44.18115" lon="5.25997">
        <ele>1423</ele>
        <time>2014-01-26T13:26:33.380Z</time>
      </trkpt>
      <trkpt lat="44.18113" lon="5.25995">
        <ele>1423</ele>
        <time>2014-01-26T13:26:35.380Z</time>
      </trkpt>
      <trkpt lat="44.18111" lon="5.2599">
        <ele>1423</ele>
        <time>2014-01-26T13:26:38.270Z</time>
      </trkpt>
      <trkpt lat="44.18111" lon="5.25986">
        <ele>1426</ele>
        <time>2014-01-26T13:26:45.480Z</time>
      </trkpt>
      <trkpt lat="44.18113" lon="5.25982">
        <ele>1426</ele>
        <time>2014-01-26T13:26:48.480Z</time>
      </trkpt>
      <trkpt lat="44.18117" lon="5.25976">
        <ele>1427</ele>
        <time>2014-01-26T13:26:52.270Z</time>
      </trkpt>
      <trkpt lat="44.18117" lon="5.25972">
        <ele>1427</ele>
        <time>2014-01-26T13:26:55.270Z</time>
      </trkpt>
      <trkpt lat="44.18118" lon="5.25962">
        <ele>1432</ele>
        <time>2014-01-26T13:27:02.270Z</time>
      </trkpt>
      <trkpt lat="44.18119" lon="5.25954">
        <ele>1433</ele>
        <time>2014-01-26T13:27:22.470Z</time>
      </trkpt>
      <trkpt lat="44.18118" lon="5.25941">
        <ele>1433</ele>
        <time>2014-01-26T13:27:29.270Z</time>
      </trkpt>
      <trkpt lat="44.18117" lon="5.25934">
        <ele>1434</ele>
        <time>2014-01-26T13:27:45.340Z</time>
      </trkpt>
      <trkpt lat="44.18112" lon="5.25935">
        <ele>1433</ele>
        <time>2014-01-26T13:28:09.380Z</time>
      </trkpt>
      <trkpt lat="44.18112" lon="5.25922">
        <ele>1435</ele>
        <time>2014-01-26T13:28:21.380Z</time>
      </trkpt>
      <trkpt lat="44.18109" lon="5.25915">
        <ele>1435</ele>
        <time>2014-01-26T13:28:27.380Z</time>
      </trkpt>
      <trkpt lat="44.18103" lon="5.25911">
        <ele>1435</ele>
        <time>2014-01-26T13:28:34.380Z</time>
      </trkpt>
      <trkpt lat="44.18102" lon="5.25903">
        <ele>1437</ele>
        <time>2014-01-26T13:28:45.380Z</time>
      </trkpt>
      <trkpt lat="44.18102" lon="5.25893">
        <ele>1437</ele>
        <time>2014-01-26T13:28:53.240Z</time>
      </trkpt>
      <trkpt lat="44.18102" lon="5.25881">
        <ele>1437</ele>
        <time>2014-01-26T13:28:59.280Z</time>
      </trkpt>
      <trkpt lat="44.18102" lon="5.2587">
        <ele>1436</ele>
        <time>2014-01-26T13:29:04.380Z</time>
      </trkpt>
      <trkpt lat="44.18102" lon="5.25862">
        <ele>1436</ele>
        <time>2014-01-26T13:29:08.380Z</time>
      </trkpt>
      <trkpt lat="44.18101" lon="5.25854">
        <ele>1436</ele>
        <time>2014-01-26T13:29:11.270Z</time>
      </trkpt>
      <trkpt lat="44.18099" lon="5.25847">
        <ele>1436</ele>
        <time>2014-01-26T13:29:15.380Z</time>
      </trkpt>
      <trkpt lat="44.18096" lon="5.25839">
        <ele>1436</ele>
        <time>2014-01-26T13:29:19.480Z</time>
      </trkpt>
      <trkpt lat="44.18094" lon="5.25832">
        <ele>1436</ele>
        <time>2014-01-26T13:29:23.480Z</time>
      </trkpt>
      <trkpt lat="44.18091" lon="5.25825">
        <ele>1436</ele>
        <time>2014-01-26T13:29:27.340Z</time>
      </trkpt>
      <trkpt lat="44.1809" lon="5.25816">
        <ele>1436</ele>
        <time>2014-01-26T13:29:32.480Z</time>
      </trkpt>
      <trkpt lat="44.1809" lon="5.25806">
        <ele>1436</ele>
        <time>2014-01-26T13:29:37.380Z</time>
      </trkpt>
      <trkpt lat="44.1809" lon="5.25794">
        <ele>1436</ele>
        <time>2014-01-26T13:29:43.380Z</time>
      </trkpt>
      <trkpt lat="44.18089" lon="5.25784">
        <ele>1436</ele>
        <time>2014-01-26T13:29:48.380Z</time>
      </trkpt>
      <trkpt lat="44.18088" lon="5.25773">
        <ele>1437</ele>
        <time>2014-01-26T13:29:54.480Z</time>
      </trkpt>
      <trkpt lat="44.18087" lon="5.25765">
        <ele>1437</ele>
        <time>2014-01-26T13:29:58.480Z</time>
      </trkpt>
      <trkpt lat="44.18088" lon="5.25754">
        <ele>1435</ele>
        <time>2014-01-26T13:30:03.380Z</time>
      </trkpt>
      <trkpt lat="44.18088" lon="5.25742">
        <ele>1435</ele>
        <time>2014-01-26T13:30:08.240Z</time>
      </trkpt>
      <trkpt lat="44.18088" lon="5.25732">
        <ele>1437</ele>
        <time>2014-01-26T13:30:12.370Z</time>
      </trkpt>
      <trkpt lat="44.18087" lon="5.2572">
        <ele>1437</ele>
        <time>2014-01-26T13:30:17.480Z</time>
      </trkpt>
      <trkpt lat="44.18087" lon="5.2571">
        <ele>1438</ele>
        <time>2014-01-26T13:30:22.270Z</time>
      </trkpt>
      <trkpt lat="44.18089" lon="5.25698">
        <ele>1438</ele>
        <time>2014-01-26T13:30:28.250Z</time>
      </trkpt>
      <trkpt lat="44.1809" lon="5.2569">
        <ele>1438</ele>
        <time>2014-01-26T13:30:32.380Z</time>
      </trkpt>
      <trkpt lat="44.18091" lon="5.25677">
        <ele>1438</ele>
        <time>2014-01-26T13:30:39.380Z</time>
      </trkpt>
      <trkpt lat="44.1809" lon="5.25668">
        <ele>1437</ele>
        <time>2014-01-26T13:30:44.480Z</time>
      </trkpt>
      <trkpt lat="44.1809" lon="5.25658">
        <ele>1437</ele>
        <time>2014-01-26T13:30:49.480Z</time>
      </trkpt>
      <trkpt lat="44.1809" lon="5.25646">
        <ele>1437</ele>
        <time>2014-01-26T13:30:56.480Z</time>
      </trkpt>
      <trkpt lat="44.18089" lon="5.25634">
        <ele>1436</ele>
        <time>2014-01-26T13:31:03.380Z</time>
      </trkpt>
      <trkpt lat="44.1809" lon="5.25627">
        <ele>1436</ele>
        <time>2014-01-26T13:31:16.380Z</time>
      </trkpt>
      <trkpt lat="44.18092" lon="5.25619">
        <ele>1435</ele>
        <time>2014-01-26T13:32:23.470Z</time>
      </trkpt>
      <trkpt lat="44.18093" lon="5.25629">
        <ele>1434</ele>
        <time>2014-01-26T13:33:13.380Z</time>
      </trkpt>
      <trkpt lat="44.18092" lon="5.25624">
        <ele>1435</ele>
        <time>2014-01-26T13:47:57.380Z</time>
      </trkpt>
      <trkpt lat="44.18086" lon="5.25622">
        <ele>1435</ele>
        <time>2014-01-26T13:48:32.380Z</time>
      </trkpt>
      <trkpt lat="44.18087" lon="5.25618">
        <ele>1435</ele>
        <time>2014-01-26T13:49:04.480Z</time>
      </trkpt>
      <trkpt lat="44.18086" lon="5.2561">
        <ele>1435</ele>
        <time>2014-01-26T13:49:13.480Z</time>
      </trkpt>
      <trkpt lat="44.1808" lon="5.256">
        <ele>1435</ele>
        <time>2014-01-26T13:49:20.380Z</time>
      </trkpt>
      <trkpt lat="44.18076" lon="5.2559">
        <ele>1435</ele>
        <time>2014-01-26T13:49:27.480Z</time>
      </trkpt>
      <trkpt lat="44.18071" lon="5.25582">
        <ele>1435</ele>
        <time>2014-01-26T13:49:34.240Z</time>
      </trkpt>
      <trkpt lat="44.18066" lon="5.25575">
        <ele>1435</ele>
        <time>2014-01-26T13:49:41.380Z</time>
      </trkpt>
      <trkpt lat="44.18064" lon="5.25568">
        <ele>1435</ele>
        <time>2014-01-26T13:49:47.380Z</time>
      </trkpt>
      <trkpt lat="44.18061" lon="5.25562">
        <ele>1435</ele>
        <time>2014-01-26T13:49:55.480Z</time>
      </trkpt>
      <trkpt lat="44.18056" lon="5.25557">
        <ele>1435</ele>
        <time>2014-01-26T13:50:03.380Z</time>
      </trkpt>
      <trkpt lat="44.18051" lon="5.25557">
        <ele>1435</ele>
        <time>2014-01-26T13:51:00.380Z</time>
      </trkpt>
      <trkpt lat="44.18046" lon="5.25555">
        <ele>1435</ele>
        <time>2014-01-26T13:51:38.350Z</time>
      </trkpt>
      <trkpt lat="44.18041" lon="5.25549">
        <ele>1435</ele>
        <time>2014-01-26T13:51:56.380Z</time>
      </trkpt>
      <trkpt lat="44.18035" lon="5.25547">
        <ele>1435</ele>
        <time>2014-01-26T13:52:03.480Z</time>
      </trkpt>
      <trkpt lat="44.1803" lon="5.25543">
        <ele>1435</ele>
        <time>2014-01-26T13:52:11.380Z</time>
      </trkpt>
      <trkpt lat="44.18023" lon="5.25538">
        <ele>1435</ele>
        <time>2014-01-26T13:52:19.380Z</time>
      </trkpt>
      <trkpt lat="44.18015" lon="5.25536">
        <ele>1435</ele>
        <time>2014-01-26T13:52:26.480Z</time>
      </trkpt>
      <trkpt lat="44.18009" lon="5.25532">
        <ele>1441</ele>
        <time>2014-01-26T13:52:33.200Z</time>
      </trkpt>
      <trkpt lat="44.18" lon="5.25526">
        <ele>1442</ele>
        <time>2014-01-26T13:52:42.480Z</time>
      </trkpt>
      <trkpt lat="44.1799" lon="5.2552">
        <ele>1442</ele>
        <time>2014-01-26T13:52:52.390Z</time>
      </trkpt>
      <trkpt lat="44.17981" lon="5.25512">
        <ele>1445</ele>
        <time>2014-01-26T13:53:03.380Z</time>
      </trkpt>
      <trkpt lat="44.17974" lon="5.25503">
        <ele>1446</ele>
        <time>2014-01-26T13:53:13.380Z</time>
      </trkpt>
      <trkpt lat="44.1797" lon="5.25491">
        <ele>1446</ele>
        <time>2014-01-26T13:53:22.480Z</time>
      </trkpt>
      <trkpt lat="44.17967" lon="5.25481">
        <ele>1447.12</ele>
        <time>2014-01-26T13:53:30.480Z</time>
      </trkpt>
      <trkpt lat="44.17964" lon="5.2547">
        <ele>1448</ele>
        <time>2014-01-26T13:53:39.380Z</time>
      </trkpt>
      <trkpt lat="44.17961" lon="5.25458">
        <ele>1450</ele>
        <time>2014-01-26T13:53:49.340Z</time>
      </trkpt>
      <trkpt lat="44.17958" lon="5.25446">
        <ele>1450</ele>
        <time>2014-01-26T13:53:59.240Z</time>
      </trkpt>
      <trkpt lat="44.17955" lon="5.25436">
        <ele>1451</ele>
        <time>2014-01-26T13:54:08.480Z</time>
      </trkpt>
      <trkpt lat="44.17951" lon="5.25424">
        <ele>1452</ele>
        <time>2014-01-26T13:54:17.480Z</time>
      </trkpt>
      <trkpt lat="44.1795" lon="5.25414">
        <ele>1453</ele>
        <time>2014-01-26T13:54:24.380Z</time>
      </trkpt>
      <trkpt lat="44.17949" lon="5.25404">
        <ele>1453.9200128</ele>
        <time>2014-01-26T13:54:30.380Z</time>
      </trkpt>
      <trkpt lat="44.17946" lon="5.25396">
        <ele>1455</ele>
        <time>2014-01-26T13:54:35.480Z</time>
      </trkpt>
      <trkpt lat="44.17943" lon="5.25387">
        <ele>1456</ele>
        <time>2014-01-26T13:54:42.350Z</time>
      </trkpt>
      <trkpt lat="44.17938" lon="5.25379">
        <ele>1456</ele>
        <time>2014-01-26T13:55:00.480Z</time>
      </trkpt>
      <trkpt lat="44.17934" lon="5.25371">
        <ele>1456</ele>
        <time>2014-01-26T13:55:08.480Z</time>
      </trkpt>
      <trkpt lat="44.17931" lon="5.25363">
        <ele>1457</ele>
        <time>2014-01-26T13:55:14.240Z</time>
      </trkpt>
      <trkpt lat="44.17927" lon="5.25352">
        <ele>1459</ele>
        <time>2014-01-26T13:55:26.380Z</time>
      </trkpt>
      <trkpt lat="44.17927" lon="5.2534">
        <ele>1459</ele>
        <time>2014-01-26T13:55:34.480Z</time>
      </trkpt>
      <trkpt lat="44.17923" lon="5.25329">
        <ele>1460</ele>
        <time>2014-01-26T13:55:55.380Z</time>
      </trkpt>
      <trkpt lat="44.17923" lon="5.25319">
        <ele>1462</ele>
        <time>2014-01-26T13:56:01.480Z</time>
      </trkpt>
      <trkpt lat="44.17921" lon="5.25308">
        <ele>1462</ele>
        <time>2014-01-26T13:56:08.380Z</time>
      </trkpt>
      <trkpt lat="44.17919" lon="5.25297">
        <ele>1463</ele>
        <time>2014-01-26T13:56:16.240Z</time>
      </trkpt>
      <trkpt lat="44.17917" lon="5.25285">
        <ele>1463</ele>
        <time>2014-01-26T13:56:25.480Z</time>
      </trkpt>
      <trkpt lat="44.17915" lon="5.25274">
        <ele>1465</ele>
        <time>2014-01-26T13:56:33.180Z</time>
      </trkpt>
      <trkpt lat="44.17913" lon="5.25263">
        <ele>1467</ele>
        <time>2014-01-26T13:56:41.480Z</time>
      </trkpt>
      <trkpt lat="44.17909" lon="5.25253">
        <ele>1467</ele>
        <time>2014-01-26T13:56:49.480Z</time>
      </trkpt>
      <trkpt lat="44.17905" lon="5.25242">
        <ele>1469</ele>
        <time>2014-01-26T13:56:59.480Z</time>
      </trkpt>
      <trkpt lat="44.17901" lon="5.25234">
        <ele>1469</ele>
        <time>2014-01-26T13:57:07.340Z</time>
      </trkpt>
      <trkpt lat="44.17896" lon="5.25226">
        <ele>1470</ele>
        <time>2014-01-26T13:57:15.380Z</time>
      </trkpt>
      <trkpt lat="44.17892" lon="5.25216">
        <ele>1472</ele>
        <time>2014-01-26T13:57:23.380Z</time>
      </trkpt>
      <trkpt lat="44.17887" lon="5.25208">
        <ele>1472</ele>
        <time>2014-01-26T13:57:30.170Z</time>
      </trkpt>
      <trkpt lat="44.17886" lon="5.25197">
        <ele>1472</ele>
        <time>2014-01-26T13:57:37.380Z</time>
      </trkpt>
      <trkpt lat="44.17887" lon="5.25187">
        <ele>1474</ele>
        <time>2014-01-26T13:57:44.380Z</time>
      </trkpt>
      <trkpt lat="44.17889" lon="5.25177">
        <ele>1475</ele>
        <time>2014-01-26T13:57:51.480Z</time>
      </trkpt>
      <trkpt lat="44.17893" lon="5.25168">
        <ele>1475</ele>
        <time>2014-01-26T13:57:57.480Z</time>
      </trkpt>
      <trkpt lat="44.17897" lon="5.25158">
        <ele>1476</ele>
        <time>2014-01-26T13:58:03.380Z</time>
      </trkpt>
      <trkpt lat="44.17899" lon="5.25146">
        <ele>1476</ele>
        <time>2014-01-26T13:58:09.480Z</time>
      </trkpt>
      <trkpt lat="44.17901" lon="5.25135">
        <ele>1478</ele>
        <time>2014-01-26T13:58:17.480Z</time>
      </trkpt>
      <trkpt lat="44.17902" lon="5.25123">
        <ele>1479</ele>
        <time>2014-01-26T13:58:25.380Z</time>
      </trkpt>
      <trkpt lat="44.17902" lon="5.2511">
        <ele>1481</ele>
        <time>2014-01-26T13:58:33.280Z</time>
      </trkpt>
      <trkpt lat="44.17899" lon="5.25098">
        <ele>1482</ele>
        <time>2014-01-26T13:58:42.380Z</time>
      </trkpt>
      <trkpt lat="44.17896" lon="5.25087">
        <ele>1482</ele>
        <time>2014-01-26T13:58:49.380Z</time>
      </trkpt>
      <trkpt lat="44.17893" lon="5.25075">
        <ele>1483</ele>
        <time>2014-01-26T13:58:57.480Z</time>
      </trkpt>
      <trkpt lat="44.17887" lon="5.25065">
        <ele>1484</ele>
        <time>2014-01-26T13:59:06.480Z</time>
      </trkpt>
      <trkpt lat="44.17883" lon="5.25054">
        <ele>1486</ele>
        <time>2014-01-26T13:59:14.380Z</time>
      </trkpt>
      <trkpt lat="44.17877" lon="5.25043">
        <ele>1487</ele>
        <time>2014-01-26T13:59:23.380Z</time>
      </trkpt>
      <trkpt lat="44.17873" lon="5.25032">
        <ele>1489</ele>
        <time>2014-01-26T13:59:31.480Z</time>
      </trkpt>
      <trkpt lat="44.17868" lon="5.25023">
        <ele>1489</ele>
        <time>2014-01-26T13:59:39.480Z</time>
      </trkpt>
      <trkpt lat="44.17864" lon="5.25014">
        <ele>1490</ele>
        <time>2014-01-26T13:59:46.240Z</time>
      </trkpt>
      <trkpt lat="44.1786" lon="5.25005">
        <ele>1490</ele>
        <time>2014-01-26T13:59:54.380Z</time>
      </trkpt>
      <trkpt lat="44.17855" lon="5.24996">
        <ele>1492</ele>
        <time>2014-01-26T14:00:01.480Z</time>
      </trkpt>
      <trkpt lat="44.17853" lon="5.24986">
        <ele>1492</ele>
        <time>2014-01-26T14:00:07.380Z</time>
      </trkpt>
      <trkpt lat="44.17848" lon="5.24975">
        <ele>1494</ele>
        <time>2014-01-26T14:00:14.380Z</time>
      </trkpt>
      <trkpt lat="44.17845" lon="5.24965">
        <ele>1495</ele>
        <time>2014-01-26T14:00:21.480Z</time>
      </trkpt>
      <trkpt lat="44.17841" lon="5.24956">
        <ele>1495</ele>
        <time>2014-01-26T14:00:28.480Z</time>
      </trkpt>
      <trkpt lat="44.17838" lon="5.24946">
        <ele>1496</ele>
        <time>2014-01-26T14:00:34.480Z</time>
      </trkpt>
      <trkpt lat="44.17833" lon="5.24937">
        <ele>1496.4600064</ele>
        <time>2014-01-26T14:00:40.380Z</time>
      </trkpt>
      <trkpt lat="44.17829" lon="5.24928">
        <ele>1497</ele>
        <time>2014-01-26T14:00:45.380Z</time>
      </trkpt>
      <trkpt lat="44.17824" lon="5.24919">
        <ele>1499</ele>
        <time>2014-01-26T14:00:51.380Z</time>
      </trkpt>
      <trkpt lat="44.17816" lon="5.2491">
        <ele>1499</ele>
        <time>2014-01-26T14:00:58.480Z</time>
      </trkpt>
      <trkpt lat="44.17809" lon="5.24903">
        <ele>1501</ele>
        <time>2014-01-26T14:01:04.480Z</time>
      </trkpt>
      <trkpt lat="44.17803" lon="5.24893">
        <ele>1501.5384615385</ele>
        <time>2014-01-26T14:01:10.480Z</time>
      </trkpt>
      <trkpt lat="44.17796" lon="5.24884">
        <ele>1502</ele>
        <time>2014-01-26T14:01:16.380Z</time>
      </trkpt>
      <trkpt lat="44.1779" lon="5.24875">
        <ele>1504</ele>
        <time>2014-01-26T14:01:22.380Z</time>
      </trkpt>
      <trkpt lat="44.17782" lon="5.24866">
        <ele>1504</ele>
        <time>2014-01-26T14:01:29.380Z</time>
      </trkpt>
      <trkpt lat="44.17779" lon="5.24854">
        <ele>1507</ele>
        <time>2014-01-26T14:01:43.290Z</time>
      </trkpt>
      <trkpt lat="44.17774" lon="5.24845">
        <ele>1508.4600064</ele>
        <time>2014-01-26T14:02:00.380Z</time>
      </trkpt>
      <trkpt lat="44.17767" lon="5.24837">
        <ele>1509</ele>
        <time>2014-01-26T14:02:07.480Z</time>
      </trkpt>
      <trkpt lat="44.17763" lon="5.24827">
        <ele>1510</ele>
        <time>2014-01-26T14:02:14.480Z</time>
      </trkpt>
      <trkpt lat="44.17757" lon="5.24817">
        <ele>1511</ele>
        <time>2014-01-26T14:02:21.480Z</time>
      </trkpt>
      <trkpt lat="44.17751" lon="5.2481">
        <ele>1511</ele>
        <time>2014-01-26T14:02:29.480Z</time>
      </trkpt>
      <trkpt lat="44.17746" lon="5.248">
        <ele>1513</ele>
        <time>2014-01-26T14:02:37.380Z</time>
      </trkpt>
      <trkpt lat="44.17741" lon="5.2479">
        <ele>1514</ele>
        <time>2014-01-26T14:02:45.380Z</time>
      </trkpt>
      <trkpt lat="44.17734" lon="5.24783">
        <ele>1515</ele>
        <time>2014-01-26T14:02:52.380Z</time>
      </trkpt>
      <trkpt lat="44.17727" lon="5.24775">
        <ele>1515.56</ele>
        <time>2014-01-26T14:03:00.480Z</time>
      </trkpt>
      <trkpt lat="44.1772" lon="5.24765">
        <ele>1516</ele>
        <time>2014-01-26T14:03:07.340Z</time>
      </trkpt>
      <trkpt lat="44.17717" lon="5.24755">
        <ele>1518</ele>
        <time>2014-01-26T14:03:13.350Z</time>
      </trkpt>
      <trkpt lat="44.17711" lon="5.24747">
        <ele>1518.9200128</ele>
        <time>2014-01-26T14:03:20.380Z</time>
      </trkpt>
      <trkpt lat="44.17704" lon="5.2474">
        <ele>1520</ele>
        <time>2014-01-26T14:03:26.480Z</time>
      </trkpt>
      <trkpt lat="44.17698" lon="5.24731">
        <ele>1521</ele>
        <time>2014-01-26T14:03:33.380Z</time>
      </trkpt>
      <trkpt lat="44.17692" lon="5.24723">
        <ele>1521.9200128</ele>
        <time>2014-01-26T14:03:40.380Z</time>
      </trkpt>
      <trkpt lat="44.17687" lon="5.24714">
        <ele>1523</ele>
        <time>2014-01-26T14:03:47.480Z</time>
      </trkpt>
      <trkpt lat="44.17683" lon="5.24704">
        <ele>1525</ele>
        <time>2014-01-26T14:03:53.480Z</time>
      </trkpt>
      <trkpt lat="44.1768" lon="5.24694">
        <ele>1525</ele>
        <time>2014-01-26T14:03:59.240Z</time>
      </trkpt>
      <trkpt lat="44.17677" lon="5.24687">
        <ele>1526</ele>
        <time>2014-01-26T14:04:04.480Z</time>
      </trkpt>
      <trkpt lat="44.17677" lon="5.247">
        <ele>1531</ele>
        <time>2014-01-26T14:04:31.380Z</time>
      </trkpt>
      <trkpt lat="44.17682" lon="5.24712">
        <ele>1532</ele>
        <time>2014-01-26T14:04:41.480Z</time>
      </trkpt>
      <trkpt lat="44.17687" lon="5.24724">
        <ele>1532</ele>
        <time>2014-01-26T14:04:58.380Z</time>
      </trkpt>
      <trkpt lat="44.17688" lon="5.24739">
        <ele>1533</ele>
        <time>2014-01-26T14:06:54.480Z</time>
      </trkpt>
      <trkpt lat="44.17692" lon="5.24752">
        <ele>1535</ele>
        <time>2014-01-26T14:07:02.480Z</time>
      </trkpt>
      <trkpt lat="44.17695" lon="5.24766">
        <ele>1535.4600064</ele>
        <time>2014-01-26T14:07:10.380Z</time>
      </trkpt>
      <trkpt lat="44.17699" lon="5.2478">
        <ele>1535</ele>
        <time>2014-01-26T14:07:19.380Z</time>
      </trkpt>
      <trkpt lat="44.17703" lon="5.24793">
        <ele>1535</ele>
        <time>2014-01-26T14:07:27.480Z</time>
      </trkpt>
      <trkpt lat="44.17706" lon="5.24806">
        <ele>1536</ele>
        <time>2014-01-26T14:07:34.480Z</time>
      </trkpt>
      <trkpt lat="44.1771" lon="5.2482">
        <ele>1538</ele>
        <time>2014-01-26T14:07:41.340Z</time>
      </trkpt>
      <trkpt lat="44.17713" lon="5.24834">
        <ele>1538</ele>
        <time>2014-01-26T14:07:48.380Z</time>
      </trkpt>
      <trkpt lat="44.17717" lon="5.24848">
        <ele>1538</ele>
        <time>2014-01-26T14:07:55.380Z</time>
      </trkpt>
      <trkpt lat="44.1772" lon="5.24863">
        <ele>1540</ele>
        <time>2014-01-26T14:08:03.380Z</time>
      </trkpt>
      <trkpt lat="44.17723" lon="5.24876">
        <ele>1540.4600064</ele>
        <time>2014-01-26T14:08:10.380Z</time>
      </trkpt>
      <trkpt lat="44.17727" lon="5.24892">
        <ele>1541</ele>
        <time>2014-01-26T14:08:17.380Z</time>
      </trkpt>
      <trkpt lat="44.1773" lon="5.24906">
        <ele>1542</ele>
        <time>2014-01-26T14:08:25.380Z</time>
      </trkpt>
      <trkpt lat="44.17734" lon="5.24921">
        <ele>1543</ele>
        <time>2014-01-26T14:08:32.350Z</time>
      </trkpt>
      <trkpt lat="44.17737" lon="5.24934">
        <ele>1543</ele>
        <time>2014-01-26T14:08:39.480Z</time>
      </trkpt>
      <trkpt lat="44.17741" lon="5.24948">
        <ele>1544</ele>
        <time>2014-01-26T14:08:46.480Z</time>
      </trkpt>
      <trkpt lat="44.17745" lon="5.24963">
        <ele>1544</ele>
        <time>2014-01-26T14:08:53.380Z</time>
      </trkpt>
      <trkpt lat="44.17747" lon="5.24976">
        <ele>1545.3800192</ele>
        <time>2014-01-26T14:09:00.380Z</time>
      </trkpt>
      <trkpt lat="44.1775" lon="5.24991">
        <ele>1547</ele>
        <time>2014-01-26T14:09:08.480Z</time>
      </trkpt>
      <trkpt lat="44.17753" lon="5.25005">
        <ele>1547</ele>
        <time>2014-01-26T14:09:15.480Z</time>
      </trkpt>
      <trkpt lat="44.17753" lon="5.25019">
        <ele>1549</ele>
        <time>2014-01-26T14:09:23.480Z</time>
      </trkpt>
      <trkpt lat="44.17755" lon="5.25034">
        <ele>1549.4600064</ele>
        <time>2014-01-26T14:09:30.380Z</time>
      </trkpt>
      <trkpt lat="44.17757" lon="5.25048">
        <ele>1550</ele>
        <time>2014-01-26T14:09:38.380Z</time>
      </trkpt>
      <trkpt lat="44.17758" lon="5.25061">
        <ele>1551</ele>
        <time>2014-01-26T14:09:45.480Z</time>
      </trkpt>
      <trkpt lat="44.1776" lon="5.25076">
        <ele>1552</ele>
        <time>2014-01-26T14:09:52.480Z</time>
      </trkpt>
      <trkpt lat="44.17762" lon="5.2509">
        <ele>1552</ele>
        <time>2014-01-26T14:09:58.260Z</time>
      </trkpt>
      <trkpt lat="44.17763" lon="5.25105">
        <ele>1553</ele>
        <time>2014-01-26T14:10:04.380Z</time>
      </trkpt>
      <trkpt lat="44.17764" lon="5.2512">
        <ele>1554</ele>
        <time>2014-01-26T14:10:11.380Z</time>
      </trkpt>
      <trkpt lat="44.17764" lon="5.25135">
        <ele>1554</ele>
        <time>2014-01-26T14:10:17.480Z</time>
      </trkpt>
      <trkpt lat="44.17765" lon="5.25149">
        <ele>1554</ele>
        <time>2014-01-26T14:10:23.480Z</time>
      </trkpt>
      <trkpt lat="44.17766" lon="5.25164">
        <ele>1554</ele>
        <time>2014-01-26T14:10:29.480Z</time>
      </trkpt>
      <trkpt lat="44.17766" lon="5.25178">
        <ele>1555</ele>
        <time>2014-01-26T14:10:35.380Z</time>
      </trkpt>
      <trkpt lat="44.17766" lon="5.25193">
        <ele>1556</ele>
        <time>2014-01-26T14:10:42.380Z</time>
      </trkpt>
      <trkpt lat="44.17767" lon="5.25209">
        <ele>1556</ele>
        <time>2014-01-26T14:10:49.360Z</time>
      </trkpt>
      <trkpt lat="44.17769" lon="5.25225">
        <ele>1557</ele>
        <time>2014-01-26T14:10:56.450Z</time>
      </trkpt>
      <trkpt lat="44.1777" lon="5.25239">
        <ele>1559</ele>
        <time>2014-01-26T14:11:02.480Z</time>
      </trkpt>
      <trkpt lat="44.17772" lon="5.25255">
        <ele>1558.44</ele>
        <time>2014-01-26T14:11:09.480Z</time>
      </trkpt>
      <trkpt lat="44.17773" lon="5.2527">
        <ele>1559</ele>
        <time>2014-01-26T14:11:15.480Z</time>
      </trkpt>
      <trkpt lat="44.17774" lon="5.25285">
        <ele>1559</ele>
        <time>2014-01-26T14:11:21.480Z</time>
      </trkpt>
      <trkpt lat="44.17775" lon="5.25299">
        <ele>1559</ele>
        <time>2014-01-26T14:11:27.380Z</time>
      </trkpt>
      <trkpt lat="44.17777" lon="5.25315">
        <ele>1560</ele>
        <time>2014-01-26T14:11:34.380Z</time>
      </trkpt>
      <trkpt lat="44.17778" lon="5.25329">
        <ele>1560.4081605998</ele>
        <time>2014-01-26T14:11:40.340Z</time>
      </trkpt>
      <trkpt lat="44.17779" lon="5.25344">
        <ele>1561</ele>
        <time>2014-01-26T14:11:46.480Z</time>
      </trkpt>
      <trkpt lat="44.1778" lon="5.25357">
        <ele>1563</ele>
        <time>2014-01-26T14:11:52.480Z</time>
      </trkpt>
      <trkpt lat="44.1778" lon="5.25372">
        <ele>1563</ele>
        <time>2014-01-26T14:11:58.240Z</time>
      </trkpt>
      <trkpt lat="44.17781" lon="5.25386">
        <ele>1563</ele>
        <time>2014-01-26T14:12:04.380Z</time>
      </trkpt>
      <trkpt lat="44.17784" lon="5.25402">
        <ele>1563</ele>
        <time>2014-01-26T14:12:10.380Z</time>
      </trkpt>
      <trkpt lat="44.17784" lon="5.25417">
        <ele>1563</ele>
        <time>2014-01-26T14:12:16.480Z</time>
      </trkpt>
      <trkpt lat="44.17785" lon="5.25432">
        <ele>1565</ele>
        <time>2014-01-26T14:12:22.450Z</time>
      </trkpt>
      <trkpt lat="44.17787" lon="5.25447">
        <ele>1565</ele>
        <time>2014-01-26T14:12:28.480Z</time>
      </trkpt>
      <trkpt lat="44.17786" lon="5.25462">
        <ele>1566</ele>
        <time>2014-01-26T14:12:35.380Z</time>
      </trkpt>
      <trkpt lat="44.17785" lon="5.25476">
        <ele>1566</ele>
        <time>2014-01-26T14:12:41.290Z</time>
      </trkpt>
      <trkpt lat="44.17782" lon="5.2549">
        <ele>1566</ele>
        <time>2014-01-26T14:12:48.240Z</time>
      </trkpt>
      <trkpt lat="44.17778" lon="5.25504">
        <ele>1568</ele>
        <time>2014-01-26T14:12:55.380Z</time>
      </trkpt>
      <trkpt lat="44.17774" lon="5.2552">
        <ele>1569</ele>
        <time>2014-01-26T14:13:03.380Z</time>
      </trkpt>
      <trkpt lat="44.17771" lon="5.25534">
        <ele>1569.4600064</ele>
        <time>2014-01-26T14:13:10.380Z</time>
      </trkpt>
      <trkpt lat="44.17775" lon="5.25547">
        <ele>1570</ele>
        <time>2014-01-26T14:13:18.380Z</time>
      </trkpt>
      <trkpt lat="44.17776" lon="5.25563">
        <ele>1571</ele>
        <time>2014-01-26T14:13:27.480Z</time>
      </trkpt>
      <trkpt lat="44.17781" lon="5.25577">
        <ele>1571</ele>
        <time>2014-01-26T14:13:34.450Z</time>
      </trkpt>
      <trkpt lat="44.17787" lon="5.25592">
        <ele>1573</ele>
        <time>2014-01-26T14:13:41.240Z</time>
      </trkpt>
      <trkpt lat="44.17792" lon="5.25607">
        <ele>1573</ele>
        <time>2014-01-26T14:13:47.380Z</time>
      </trkpt>
      <trkpt lat="44.17796" lon="5.25621">
        <ele>1573</ele>
        <time>2014-01-26T14:13:53.380Z</time>
      </trkpt>
      <trkpt lat="44.178" lon="5.25634">
        <ele>1573</ele>
        <time>2014-01-26T14:13:59.480Z</time>
      </trkpt>
      <trkpt lat="44.17801" lon="5.2565">
        <ele>1575</ele>
        <time>2014-01-26T14:14:06.380Z</time>
      </trkpt>
      <trkpt lat="44.17801" lon="5.25665">
        <ele>1576</ele>
        <time>2014-01-26T14:14:14.480Z</time>
      </trkpt>
      <trkpt lat="44.17802" lon="5.25681">
        <ele>1577</ele>
        <time>2014-01-26T14:14:21.480Z</time>
      </trkpt>
      <trkpt lat="44.17803" lon="5.25696">
        <ele>1577</ele>
        <time>2014-01-26T14:14:28.480Z</time>
      </trkpt>
      <trkpt lat="44.17805" lon="5.25711">
        <ele>1578</ele>
        <time>2014-01-26T14:14:36.380Z</time>
      </trkpt>
      <trkpt lat="44.17806" lon="5.25727">
        <ele>1579</ele>
        <time>2014-01-26T14:14:43.380Z</time>
      </trkpt>
      <trkpt lat="44.17806" lon="5.25744">
        <ele>1579.56</ele>
        <time>2014-01-26T14:14:50.480Z</time>
      </trkpt>
      <trkpt lat="44.17806" lon="5.25759">
        <ele>1580</ele>
        <time>2014-01-26T14:14:57.480Z</time>
      </trkpt>
      <trkpt lat="44.17807" lon="5.25774">
        <ele>1581</ele>
        <time>2014-01-26T14:15:04.240Z</time>
      </trkpt>
      <trkpt lat="44.17805" lon="5.25788">
        <ele>1582</ele>
        <time>2014-01-26T14:15:11.480Z</time>
      </trkpt>
      <trkpt lat="44.17805" lon="5.25803">
        <ele>1582</ele>
        <time>2014-01-26T14:15:18.480Z</time>
      </trkpt>
      <trkpt lat="44.17803" lon="5.25818">
        <ele>1583</ele>
        <time>2014-01-26T14:15:25.380Z</time>
      </trkpt>
      <trkpt lat="44.178" lon="5.25833">
        <ele>1584</ele>
        <time>2014-01-26T14:15:33.380Z</time>
      </trkpt>
      <trkpt lat="44.17796" lon="5.25845">
        <ele>1585.12</ele>
        <time>2014-01-26T14:15:40.480Z</time>
      </trkpt>
      <trkpt lat="44.17792" lon="5.25858">
        <ele>1586</ele>
        <time>2014-01-26T14:15:47.480Z</time>
      </trkpt>
      <trkpt lat="44.17785" lon="5.25872">
        <ele>1586</ele>
        <time>2014-01-26T14:15:55.240Z</time>
      </trkpt>
      <trkpt lat="44.17779" lon="5.25885">
        <ele>1588</ele>
        <time>2014-01-26T14:16:03.480Z</time>
      </trkpt>
      <trkpt lat="44.17776" lon="5.259">
        <ele>1589</ele>
        <time>2014-01-26T14:16:11.480Z</time>
      </trkpt>
      <trkpt lat="44.17773" lon="5.25909">
        <ele>1589</ele>
        <time>2014-01-26T14:16:16.380Z</time>
      </trkpt>
      <trkpt lat="44.17775" lon="5.25922">
        <ele>1591</ele>
        <time>2014-01-26T14:16:24.380Z</time>
      </trkpt>
      <trkpt lat="44.17779" lon="5.25937">
        <ele>1592</ele>
        <time>2014-01-26T14:16:33.380Z</time>
      </trkpt>
      <trkpt lat="44.17783" lon="5.25949">
        <ele>1592</ele>
        <time>2014-01-26T14:16:39.380Z</time>
      </trkpt>
      <trkpt lat="44.17786" lon="5.25964">
        <ele>1592</ele>
        <time>2014-01-26T14:16:47.480Z</time>
      </trkpt>
      <trkpt lat="44.17789" lon="5.25978">
        <ele>1594</ele>
        <time>2014-01-26T14:16:55.480Z</time>
      </trkpt>
      <trkpt lat="44.17791" lon="5.25992">
        <ele>1596</ele>
        <time>2014-01-26T14:17:02.480Z</time>
      </trkpt>
      <trkpt lat="44.17792" lon="5.26007">
        <ele>1596.56</ele>
        <time>2014-01-26T14:17:10.480Z</time>
      </trkpt>
      <trkpt lat="44.17793" lon="5.26021">
        <ele>1597</ele>
        <time>2014-01-26T14:17:18.480Z</time>
      </trkpt>
      <trkpt lat="44.17794" lon="5.26036">
        <ele>1599</ele>
        <time>2014-01-26T14:17:26.350Z</time>
      </trkpt>
      <trkpt lat="44.17794" lon="5.26051">
        <ele>1600</ele>
        <time>2014-01-26T14:17:34.380Z</time>
      </trkpt>
      <trkpt lat="44.17795" lon="5.26066">
        <ele>1602</ele>
        <time>2014-01-26T14:17:41.340Z</time>
      </trkpt>
      <trkpt lat="44.17795" lon="5.26081">
        <ele>1602</ele>
        <time>2014-01-26T14:17:49.480Z</time>
      </trkpt>
      <trkpt lat="44.17795" lon="5.26096">
        <ele>1603</ele>
        <time>2014-01-26T14:17:57.380Z</time>
      </trkpt>
      <trkpt lat="44.17795" lon="5.26111">
        <ele>1604</ele>
        <time>2014-01-26T14:18:06.480Z</time>
      </trkpt>
      <trkpt lat="44.17795" lon="5.26125">
        <ele>1606</ele>
        <time>2014-01-26T14:18:14.380Z</time>
      </trkpt>
      <trkpt lat="44.17793" lon="5.26141">
        <ele>1607</ele>
        <time>2014-01-26T14:18:23.380Z</time>
      </trkpt>
      <trkpt lat="44.17793" lon="5.26155">
        <ele>1608</ele>
        <time>2014-01-26T14:18:31.480Z</time>
      </trkpt>
      <trkpt lat="44.17793" lon="5.2617">
        <ele>1608</ele>
        <time>2014-01-26T14:18:39.480Z</time>
      </trkpt>
      <trkpt lat="44.17791" lon="5.26185">
        <ele>1610</ele>
        <time>2014-01-26T14:18:48.380Z</time>
      </trkpt>
      <trkpt lat="44.17789" lon="5.26199">
        <ele>1611</ele>
        <time>2014-01-26T14:18:56.380Z</time>
      </trkpt>
      <trkpt lat="44.17789" lon="5.26214">
        <ele>1612</ele>
        <time>2014-01-26T14:19:05.480Z</time>
      </trkpt>
      <trkpt lat="44.17788" lon="5.26229">
        <ele>1612</ele>
        <time>2014-01-26T14:19:13.450Z</time>
      </trkpt>
      <trkpt lat="44.17788" lon="5.26243">
        <ele>1614</ele>
        <time>2014-01-26T14:19:21.380Z</time>
      </trkpt>
      <trkpt lat="44.17789" lon="5.26257">
        <ele>1614</ele>
        <time>2014-01-26T14:19:29.380Z</time>
      </trkpt>
      <trkpt lat="44.1779" lon="5.26272">
        <ele>1615</ele>
        <time>2014-01-26T14:19:38.480Z</time>
      </trkpt>
      <trkpt lat="44.1779" lon="5.26286">
        <ele>1617</ele>
        <time>2014-01-26T14:20:11.480Z</time>
      </trkpt>
      <trkpt lat="44.17792" lon="5.26301">
        <ele>1619</ele>
        <time>2014-01-26T14:20:23.480Z</time>
      </trkpt>
      <trkpt lat="44.17785" lon="5.26311">
        <ele>1620</ele>
        <time>2014-01-26T14:21:12.480Z</time>
      </trkpt>
      <trkpt lat="44.17793" lon="5.26321">
        <ele>1619</ele>
        <time>2014-01-26T14:26:45.480Z</time>
      </trkpt>
      <trkpt lat="44.17793" lon="5.26335">
        <ele>1621</ele>
        <time>2014-01-26T14:26:55.480Z</time>
      </trkpt>
      <trkpt lat="44.17794" lon="5.2635">
        <ele>1621</ele>
        <time>2014-01-26T14:27:06.240Z</time>
      </trkpt>
      <trkpt lat="44.17793" lon="5.26363">
        <ele>1623</ele>
        <time>2014-01-26T14:27:16.480Z</time>
      </trkpt>
      <trkpt lat="44.17794" lon="5.26377">
        <ele>1624</ele>
        <time>2014-01-26T14:27:27.480Z</time>
      </trkpt>
      <trkpt lat="44.17792" lon="5.26391">
        <ele>1626</ele>
        <time>2014-01-26T14:27:43.450Z</time>
      </trkpt>
      <trkpt lat="44.1779" lon="5.26405">
        <ele>1627</ele>
        <time>2014-01-26T14:27:54.380Z</time>
      </trkpt>
      <trkpt lat="44.17791" lon="5.2642">
        <ele>1627</ele>
        <time>2014-01-26T14:28:07.480Z</time>
      </trkpt>
      <trkpt lat="44.17792" lon="5.26434">
        <ele>1627</ele>
        <time>2014-01-26T14:28:19.450Z</time>
      </trkpt>
      <trkpt lat="44.17787" lon="5.26439">
        <ele>1630</ele>
        <time>2014-01-26T14:30:30.380Z</time>
      </trkpt>
      <trkpt lat="44.17795" lon="5.26429">
        <ele>1627</ele>
        <time>2014-01-26T14:36:54.480Z</time>
      </trkpt>
      <trkpt lat="44.17796" lon="5.26415">
        <ele>1627</ele>
        <time>2014-01-26T14:36:58.480Z</time>
      </trkpt>
      <trkpt lat="44.17798" lon="5.26398">
        <ele>1622</ele>
        <time>2014-01-26T14:37:03.480Z</time>
      </trkpt>
      <trkpt lat="44.178" lon="5.26389">
        <ele>1620</ele>
        <time>2014-01-26T14:37:06.480Z</time>
      </trkpt>
      <trkpt lat="44.17802" lon="5.2638">
        <ele>1620</ele>
        <time>2014-01-26T14:37:09.480Z</time>
      </trkpt>
      <trkpt lat="44.17811" lon="5.26382">
        <ele>1613</ele>
        <time>2014-01-26T14:37:27.240Z</time>
      </trkpt>
      <trkpt lat="44.17821" lon="5.26376">
        <ele>1606.1600256</ele>
        <time>2014-01-26T14:37:31.380Z</time>
      </trkpt>
      <trkpt lat="44.17834" lon="5.26374">
        <ele>1598.5400064</ele>
        <time>2014-01-26T14:37:35.380Z</time>
      </trkpt>
      <trkpt lat="44.17846" lon="5.26375">
        <ele>1591.5399936</ele>
        <time>2014-01-26T14:37:38.380Z</time>
      </trkpt>
      <trkpt lat="44.17858" lon="5.26367">
        <ele>1584.5399936</ele>
        <time>2014-01-26T14:37:42.380Z</time>
      </trkpt>
      <trkpt lat="44.1787" lon="5.26374">
        <ele>1579.4583466667</ele>
        <time>2014-01-26T14:37:44.330Z</time>
      </trkpt>
      <trkpt lat="44.17882" lon="5.26369">
        <ele>1571.56</ele>
        <time>2014-01-26T14:37:49.480Z</time>
      </trkpt>
      <trkpt lat="44.17891" lon="5.26375">
        <ele>1564.44</ele>
        <time>2014-01-26T14:37:53.480Z</time>
      </trkpt>
      <trkpt lat="44.17902" lon="5.26374">
        <ele>1560.32</ele>
        <time>2014-01-26T14:37:56.480Z</time>
      </trkpt>
      <trkpt lat="44.17912" lon="5.26367">
        <ele>1550.8461538461</ele>
        <time>2014-01-26T14:38:00.480Z</time>
      </trkpt>
      <trkpt lat="44.17922" lon="5.26372">
        <ele>1542</ele>
        <time>2014-01-26T14:38:07.580Z</time>
      </trkpt>
      <trkpt lat="44.17933" lon="5.26363">
        <ele>1539</ele>
        <time>2014-01-26T14:38:10.350Z</time>
      </trkpt>
      <trkpt lat="44.17946" lon="5.26364">
        <ele>1531.5400064</ele>
        <time>2014-01-26T14:38:13.380Z</time>
      </trkpt>
      <trkpt lat="44.17958" lon="5.26367">
        <ele>1525.2307938461</ele>
        <time>2014-01-26T14:38:17.380Z</time>
      </trkpt>
      <trkpt lat="44.17965" lon="5.26364">
        <ele>1516</ele>
        <time>2014-01-26T14:38:34.480Z</time>
      </trkpt>
      <trkpt lat="44.17976" lon="5.2636">
        <ele>1515.6199808</ele>
        <time>2014-01-26T14:39:20.380Z</time>
      </trkpt>
      <trkpt lat="44.17987" lon="5.26359">
        <ele>1514</ele>
        <time>2014-01-26T14:39:24.480Z</time>
      </trkpt>
      <trkpt lat="44.17998" lon="5.26358">
        <ele>1507</ele>
        <time>2014-01-26T14:39:27.380Z</time>
      </trkpt>
      <trkpt lat="44.18007" lon="5.26351">
        <ele>1502.8599424</ele>
        <time>2014-01-26T14:39:30.380Z</time>
      </trkpt>
      <trkpt lat="44.18018" lon="5.26352">
        <ele>1489.0800128</ele>
        <time>2014-01-26T14:39:33.380Z</time>
      </trkpt>
      <trkpt lat="44.1803" lon="5.26347">
        <ele>1481.5399936</ele>
        <time>2014-01-26T14:39:36.380Z</time>
      </trkpt>
      <trkpt lat="44.1804" lon="5.26342">
        <ele>1477.0799872</ele>
        <time>2014-01-26T14:39:38.380Z</time>
      </trkpt>
      <trkpt lat="44.18051" lon="5.26341">
        <ele>1470.1599744</ele>
        <time>2014-01-26T14:39:40.380Z</time>
      </trkpt>
      <trkpt lat="44.18065" lon="5.26341">
        <ele>1463.2940969782</ele>
        <time>2014-01-26T14:39:42.380Z</time>
      </trkpt>
      <trkpt lat="44.18076" lon="5.26335">
        <ele>1455.76</ele>
        <time>2014-01-26T14:39:44.480Z</time>
      </trkpt>
      <trkpt lat="44.1809" lon="5.26328">
        <ele>1448.32</ele>
        <time>2014-01-26T14:39:46.480Z</time>
      </trkpt>
      <trkpt lat="44.18099" lon="5.26332">
        <ele>1445.32</ele>
        <time>2014-01-26T14:39:47.480Z</time>
      </trkpt>
      <trkpt lat="44.18105" lon="5.26339">
        <ele>1443.44</ele>
        <time>2014-01-26T14:39:48.480Z</time>
      </trkpt>
      <trkpt lat="44.1811" lon="5.26351">
        <ele>1441.44</ele>
        <time>2014-01-26T14:39:50.480Z</time>
      </trkpt>
      <trkpt lat="44.18114" lon="5.26359">
        <ele>1441.56</ele>
        <time>2014-01-26T14:39:52.480Z</time>
      </trkpt>
      <trkpt lat="44.18123" lon="5.26354">
        <ele>1442</ele>
        <time>2014-01-26T14:40:19.380Z</time>
      </trkpt>
      <trkpt lat="44.18134" lon="5.26345">
        <ele>1439</ele>
        <time>2014-01-26T14:40:21.380Z</time>
      </trkpt>
      <trkpt lat="44.18142" lon="5.26341">
        <ele>1439</ele>
        <time>2014-01-26T14:40:22.380Z</time>
      </trkpt>
      <trkpt lat="44.18151" lon="5.26337">
        <ele>1439</ele>
        <time>2014-01-26T14:40:23.380Z</time>
      </trkpt>
      <trkpt lat="44.1816" lon="5.26332">
        <ele>1439</ele>
        <time>2014-01-26T14:40:24.380Z</time>
      </trkpt>
      <trkpt lat="44.1817" lon="5.26328">
        <ele>1433.9400704</ele>
        <time>2014-01-26T14:40:25.380Z</time>
      </trkpt>
      <trkpt lat="44.18181" lon="5.26324">
        <ele>1428</ele>
        <time>2014-01-26T14:40:26.380Z</time>
      </trkpt>
      <trkpt lat="44.18191" lon="5.2632">
        <ele>1428</ele>
        <time>2014-01-26T14:40:27.380Z</time>
      </trkpt>
      <trkpt lat="44.182" lon="5.26316">
        <ele>1428</ele>
        <time>2014-01-26T14:40:28.380Z</time>
      </trkpt>
      <trkpt lat="44.1821" lon="5.26312">
        <ele>1428</ele>
        <time>2014-01-26T14:40:29.380Z</time>
      </trkpt>
      <trkpt lat="44.1822" lon="5.2631">
        <ele>1423.399936</ele>
        <time>2014-01-26T14:40:30.380Z</time>
      </trkpt>
      <trkpt lat="44.18242" lon="5.26304">
        <ele>1408.849984</ele>
        <time>2014-01-26T14:40:32.350Z</time>
      </trkpt>
      <trkpt lat="44.18252" lon="5.26299">
        <ele>1406.4509769473</ele>
        <time>2014-01-26T14:40:33.380Z</time>
      </trkpt>
      <trkpt lat="44.18261" lon="5.26293">
        <ele>1406.1836788005</ele>
        <time>2014-01-26T14:40:34.340Z</time>
      </trkpt>
      <trkpt lat="44.18269" lon="5.26284">
        <ele>1401.64</ele>
        <time>2014-01-26T14:40:35.480Z</time>
      </trkpt>
      <trkpt lat="44.18276" lon="5.26276">
        <ele>1397.88</ele>
        <time>2014-01-26T14:40:36.480Z</time>
      </trkpt>
      <trkpt lat="44.18284" lon="5.2627">
        <ele>1396.44</ele>
        <time>2014-01-26T14:40:37.480Z</time>
      </trkpt>
      <trkpt lat="44.18291" lon="5.26266">
        <ele>1395.44</ele>
        <time>2014-01-26T14:40:38.480Z</time>
      </trkpt>
      <trkpt lat="44.18302" lon="5.26252">
        <ele>1392.88</ele>
        <time>2014-01-26T14:40:40.480Z</time>
      </trkpt>
      <trkpt lat="44.18312" lon="5.2625">
        <ele>1388.44</ele>
        <time>2014-01-26T14:40:42.480Z</time>
      </trkpt>
      <trkpt lat="44.18315" lon="5.26256">
        <ele>1388</ele>
        <time>2014-01-26T14:40:48.200Z</time>
      </trkpt>
      <trkpt lat="44.1832" lon="5.26259">
        <ele>1388</ele>
        <time>2014-01-26T14:41:57.480Z</time>
      </trkpt>
      <trkpt lat="44.18322" lon="5.26272">
        <ele>1389</ele>
        <time>2014-01-26T14:42:16.230Z</time>
      </trkpt>
      <trkpt lat="44.18316" lon="5.26283">
        <ele>1389</ele>
        <time>2014-01-26T14:42:38.480Z</time>
      </trkpt>
      <trkpt lat="44.18307" lon="5.26293">
        <ele>1390</ele>
        <time>2014-01-26T14:42:43.480Z</time>
      </trkpt>
      <trkpt lat="44.18303" lon="5.26299">
        <ele>1393</ele>
        <time>2014-01-26T14:43:02.350Z</time>
      </trkpt>
      <trkpt lat="44.18305" lon="5.26284">
        <ele>1393</ele>
        <time>2014-01-26T14:43:19.380Z</time>
      </trkpt>
      <trkpt lat="44.18306" lon="5.26274">
        <ele>1392</ele>
        <time>2014-01-26T14:43:22.240Z</time>
      </trkpt>
      <trkpt lat="44.18307" lon="5.26263">
        <ele>1392</ele>
        <time>2014-01-26T14:43:26.480Z</time>
      </trkpt>
      <trkpt lat="44.18307" lon="5.26251">
        <ele>1392</ele>
        <time>2014-01-26T14:43:30.480Z</time>
      </trkpt>
      <trkpt lat="44.18306" lon="5.26241">
        <ele>1392</ele>
        <time>2014-01-26T14:43:34.480Z</time>
      </trkpt>
      <trkpt lat="44.18306" lon="5.26229">
        <ele>1390.9230769231</ele>
        <time>2014-01-26T14:43:40.480Z</time>
      </trkpt>
      <trkpt lat="44.18307" lon="5.26219">
        <ele>1390</ele>
        <time>2014-01-26T14:43:48.380Z</time>
      </trkpt>
      <trkpt lat="44.18302" lon="5.26212">
        <ele>1390</ele>
        <time>2014-01-26T14:47:04.380Z</time>
      </trkpt>
      <trkpt lat="44.18305" lon="5.26201">
        <ele>1391</ele>
        <time>2014-01-26T14:47:24.380Z</time>
      </trkpt>
      <trkpt lat="44.18304" lon="5.26191">
        <ele>1391</ele>
        <time>2014-01-26T14:47:31.380Z</time>
      </trkpt>
      <trkpt lat="44.18306" lon="5.26178">
        <ele>1391</ele>
        <time>2014-01-26T14:47:41.480Z</time>
      </trkpt>
      <trkpt lat="44.18309" lon="5.26163">
        <ele>1391</ele>
        <time>2014-01-26T14:47:51.480Z</time>
      </trkpt>
      <trkpt lat="44.18309" lon="5.26149">
        <ele>1391</ele>
        <time>2014-01-26T14:48:01.380Z</time>
      </trkpt>
      <trkpt lat="44.1831" lon="5.26136">
        <ele>1391</ele>
        <time>2014-01-26T14:48:11.350Z</time>
      </trkpt>
      <trkpt lat="44.1831" lon="5.26127">
        <ele>1391</ele>
        <time>2014-01-26T14:48:18.480Z</time>
      </trkpt>
      <trkpt lat="44.1831" lon="5.26112">
        <ele>1391</ele>
        <time>2014-01-26T14:48:26.480Z</time>
      </trkpt>
      <trkpt lat="44.18309" lon="5.26099">
        <ele>1392</ele>
        <time>2014-01-26T14:48:33.380Z</time>
      </trkpt>
      <trkpt lat="44.18308" lon="5.26086">
        <ele>1392</ele>
        <time>2014-01-26T14:48:39.380Z</time>
      </trkpt>
      <trkpt lat="44.18307" lon="5.26072">
        <ele>1393</ele>
        <time>2014-01-26T14:48:47.360Z</time>
      </trkpt>
      <trkpt lat="44.18306" lon="5.26061">
        <ele>1396</ele>
        <time>2014-01-26T14:48:53.480Z</time>
      </trkpt>
      <trkpt lat="44.18303" lon="5.26051">
        <ele>1397</ele>
        <time>2014-01-26T14:48:59.480Z</time>
      </trkpt>
      <trkpt lat="44.18301" lon="5.2604">
        <ele>1398</ele>
        <time>2014-01-26T14:49:05.220Z</time>
      </trkpt>
      <trkpt lat="44.18301" lon="5.26031">
        <ele>1398</ele>
        <time>2014-01-26T14:49:10.380Z</time>
      </trkpt>
      <trkpt lat="44.183" lon="5.26022">
        <ele>1398</ele>
        <time>2014-01-26T14:49:15.380Z</time>
      </trkpt>
      <trkpt lat="44.18298" lon="5.26011">
        <ele>1399</ele>
        <time>2014-01-26T14:49:21.360Z</time>
      </trkpt>
      <trkpt lat="44.18297" lon="5.26007">
        <ele>1399</ele>
        <time>2014-01-26T14:49:24.480Z</time>
      </trkpt>
      <trkpt lat="44.18296" lon="5.26002">
        <ele>1399</ele>
        <time>2014-01-26T14:49:27.480Z</time>
      </trkpt>
      <trkpt lat="44.18295" lon="5.25997">
        <ele>1399</ele>
        <time>2014-01-26T14:49:30.480Z</time>
      </trkpt>
      <trkpt lat="44.18295" lon="5.25992">
        <ele>1399</ele>
        <time>2014-01-26T14:49:33.480Z</time>
      </trkpt>
      <trkpt lat="44.18294" lon="5.25988">
        <ele>1399</ele>
        <time>2014-01-26T14:49:36.480Z</time>
      </trkpt>
      <trkpt lat="44.18293" lon="5.25983">
        <ele>1399</ele>
        <time>2014-01-26T14:49:39.260Z</time>
      </trkpt>
      <trkpt lat="44.18292" lon="5.25979">
        <ele>1401</ele>
        <time>2014-01-26T14:49:42.380Z</time>
      </trkpt>
      <trkpt lat="44.18291" lon="5.25974">
        <ele>1401</ele>
        <time>2014-01-26T14:49:45.380Z</time>
      </trkpt>
      <trkpt lat="44.18291" lon="5.25971">
        <ele>1401</ele>
        <time>2014-01-26T14:49:47.380Z</time>
      </trkpt>
      <trkpt lat="44.18291" lon="5.25968">
        <ele>1401</ele>
        <time>2014-01-26T14:49:49.380Z</time>
      </trkpt>
      <trkpt lat="44.1829" lon="5.25964">
        <ele>1402</ele>
        <time>2014-01-26T14:49:51.380Z</time>
      </trkpt>
      <trkpt lat="44.1829" lon="5.25961">
        <ele>1402</ele>
        <time>2014-01-26T14:49:53.380Z</time>
      </trkpt>
      <trkpt lat="44.18289" lon="5.25958">
        <ele>1402</ele>
        <time>2014-01-26T14:49:55.270Z</time>
      </trkpt>
      <trkpt lat="44.18288" lon="5.25954">
        <ele>1402</ele>
        <time>2014-01-26T14:49:57.480Z</time>
      </trkpt>
      <trkpt lat="44.18286" lon="5.25947">
        <ele>1403</ele>
        <time>2014-01-26T14:50:02.480Z</time>
      </trkpt>
      <trkpt lat="44.18285" lon="5.25943">
        <ele>1403</ele>
        <time>2014-01-26T14:50:04.480Z</time>
      </trkpt>
      <trkpt lat="44.18283" lon="5.25941">
        <ele>1403</ele>
        <time>2014-01-26T14:50:06.480Z</time>
      </trkpt>
      <trkpt lat="44.18281" lon="5.2594">
        <ele>1403</ele>
        <time>2014-01-26T14:50:08.480Z</time>
      </trkpt>
      <trkpt lat="44.18279" lon="5.25938">
        <ele>1403</ele>
        <time>2014-01-26T14:50:10.480Z</time>
      </trkpt>
      <trkpt lat="44.18277" lon="5.25937">
        <ele>1403</ele>
        <time>2014-01-26T14:50:12.200Z</time>
      </trkpt>
      <trkpt lat="44.18275" lon="5.25934">
        <ele>1403</ele>
        <time>2014-01-26T14:50:14.380Z</time>
      </trkpt>
      <trkpt lat="44.18276" lon="5.25929">
        <ele>1403</ele>
        <time>2014-01-26T14:50:23.380Z</time>
      </trkpt>
      <trkpt lat="44.18274" lon="5.25926">
        <ele>1403</ele>
        <time>2014-01-26T14:50:26.380Z</time>
      </trkpt>
      <trkpt lat="44.18272" lon="5.25922">
        <ele>1403</ele>
        <time>2014-01-26T14:50:29.340Z</time>
      </trkpt>
      <trkpt lat="44.18271" lon="5.25918">
        <ele>1404</ele>
        <time>2014-01-26T14:50:31.450Z</time>
      </trkpt>
      <trkpt lat="44.18269" lon="5.25915">
        <ele>1404</ele>
        <time>2014-01-26T14:50:33.480Z</time>
      </trkpt>
      <trkpt lat="44.18268" lon="5.25912">
        <ele>1404</ele>
        <time>2014-01-26T14:50:36.480Z</time>
      </trkpt>
      <trkpt lat="44.18266" lon="5.25909">
        <ele>1404</ele>
        <time>2014-01-26T14:50:38.480Z</time>
      </trkpt>
      <trkpt lat="44.18264" lon="5.25906">
        <ele>1405.12</ele>
        <time>2014-01-26T14:50:40.480Z</time>
      </trkpt>
      <trkpt lat="44.18262" lon="5.25904">
        <ele>1406</ele>
        <time>2014-01-26T14:50:42.480Z</time>
      </trkpt>
      <trkpt lat="44.18261" lon="5.25901">
        <ele>1406</ele>
        <time>2014-01-26T14:50:44.480Z</time>
      </trkpt>
      <trkpt lat="44.18259" lon="5.25897">
        <ele>1406</ele>
        <time>2014-01-26T14:50:46.240Z</time>
      </trkpt>
      <trkpt lat="44.18257" lon="5.25893">
        <ele>1406</ele>
        <time>2014-01-26T14:50:48.450Z</time>
      </trkpt>
      <trkpt lat="44.18255" lon="5.25889">
        <ele>1406.56</ele>
        <time>2014-01-26T14:50:50.480Z</time>
      </trkpt>
      <trkpt lat="44.18254" lon="5.25885">
        <ele>1407</ele>
        <time>2014-01-26T14:50:53.480Z</time>
      </trkpt>
      <trkpt lat="44.18252" lon="5.2588">
        <ele>1407</ele>
        <time>2014-01-26T14:50:56.480Z</time>
      </trkpt>
      <trkpt lat="44.18247" lon="5.2588">
        <ele>1407.56</ele>
        <time>2014-01-26T14:51:00.480Z</time>
      </trkpt>
      <trkpt lat="44.18242" lon="5.25879">
        <ele>1408</ele>
        <time>2014-01-26T14:51:04.240Z</time>
      </trkpt>
      <trkpt lat="44.18238" lon="5.25878">
        <ele>1408</ele>
        <time>2014-01-26T14:51:08.380Z</time>
      </trkpt>
      <trkpt lat="44.18233" lon="5.25878">
        <ele>1409</ele>
        <time>2014-01-26T14:51:12.380Z</time>
      </trkpt>
      <trkpt lat="44.18228" lon="5.25875">
        <ele>1409</ele>
        <time>2014-01-26T14:51:15.380Z</time>
      </trkpt>
      <trkpt lat="44.18224" lon="5.25873">
        <ele>1409</ele>
        <time>2014-01-26T14:51:18.380Z</time>
      </trkpt>
      <trkpt lat="44.18219" lon="5.25871">
        <ele>1411</ele>
        <time>2014-01-26T14:51:24.380Z</time>
      </trkpt>
      <trkpt lat="44.18214" lon="5.25868">
        <ele>1411</ele>
        <time>2014-01-26T14:51:28.380Z</time>
      </trkpt>
      <trkpt lat="44.18208" lon="5.25867">
        <ele>1413</ele>
        <time>2014-01-26T14:51:33.380Z</time>
      </trkpt>
      <trkpt lat="44.18204" lon="5.25866">
        <ele>1413</ele>
        <time>2014-01-26T14:51:36.380Z</time>
      </trkpt>
      <trkpt lat="44.18198" lon="5.25865">
        <ele>1415</ele>
        <time>2014-01-26T14:51:42.380Z</time>
      </trkpt>
      <trkpt lat="44.18192" lon="5.25866">
        <ele>1415</ele>
        <time>2014-01-26T14:51:47.380Z</time>
      </trkpt>
      <trkpt lat="44.18188" lon="5.25865">
        <ele>1417</ele>
        <time>2014-01-26T14:51:51.380Z</time>
      </trkpt>
      <trkpt lat="44.18183" lon="5.25865">
        <ele>1417</ele>
        <time>2014-01-26T14:51:56.340Z</time>
      </trkpt>
      <trkpt lat="44.18178" lon="5.25864">
        <ele>1419</ele>
        <time>2014-01-26T14:52:02.480Z</time>
      </trkpt>
      <trkpt lat="44.18172" lon="5.25865">
        <ele>1419</ele>
        <time>2014-01-26T14:52:08.480Z</time>
      </trkpt>
      <trkpt lat="44.18167" lon="5.25865">
        <ele>1420</ele>
        <time>2014-01-26T14:52:14.350Z</time>
      </trkpt>
      <trkpt lat="44.18162" lon="5.25865">
        <ele>1420</ele>
        <time>2014-01-26T14:52:18.380Z</time>
      </trkpt>
      <trkpt lat="44.18158" lon="5.25867">
        <ele>1423</ele>
        <time>2014-01-26T14:52:23.380Z</time>
      </trkpt>
      <trkpt lat="44.18154" lon="5.25867">
        <ele>1425</ele>
        <time>2014-01-26T14:52:28.330Z</time>
      </trkpt>
      <trkpt lat="44.1815" lon="5.25865">
        <ele>1426</ele>
        <time>2014-01-26T14:52:32.450Z</time>
      </trkpt>
      <trkpt lat="44.18146" lon="5.25865">
        <ele>1428</ele>
        <time>2014-01-26T14:52:36.480Z</time>
      </trkpt>
      <trkpt lat="44.18143" lon="5.25865">
        <ele>1428</ele>
        <time>2014-01-26T14:52:40.480Z</time>
      </trkpt>
      <trkpt lat="44.18139" lon="5.25867">
        <ele>1428</ele>
        <time>2014-01-26T14:52:45.240Z</time>
      </trkpt>
      <trkpt lat="44.18136" lon="5.25868">
        <ele>1428.56</ele>
        <time>2014-01-26T14:52:50.480Z</time>
      </trkpt>
      <trkpt lat="44.18132" lon="5.25868">
        <ele>1429</ele>
        <time>2014-01-26T14:52:55.480Z</time>
      </trkpt>
      <trkpt lat="44.18129" lon="5.25869">
        <ele>1429</ele>
        <time>2014-01-26T14:52:59.480Z</time>
      </trkpt>
      <trkpt lat="44.18125" lon="5.25869">
        <ele>1430</ele>
        <time>2014-01-26T14:53:04.240Z</time>
      </trkpt>
      <trkpt lat="44.18121" lon="5.25868">
        <ele>1430</ele>
        <time>2014-01-26T14:53:09.380Z</time>
      </trkpt>
      <trkpt lat="44.18118" lon="5.25867">
        <ele>1432</ele>
        <time>2014-01-26T14:53:14.380Z</time>
      </trkpt>
      <trkpt lat="44.18115" lon="5.25868">
        <ele>1435</ele>
        <time>2014-01-26T14:53:21.340Z</time>
      </trkpt>
      <trkpt lat="44.18112" lon="5.25864">
        <ele>1435</ele>
        <time>2014-01-26T14:53:26.480Z</time>
      </trkpt>
      <trkpt lat="44.18108" lon="5.2586">
        <ele>1435.56</ele>
        <time>2014-01-26T14:53:30.480Z</time>
      </trkpt>
      <trkpt lat="44.18105" lon="5.25855">
        <ele>1436</ele>
        <time>2014-01-26T14:53:33.480Z</time>
      </trkpt>
      <trkpt lat="44.18102" lon="5.2585">
        <ele>1436</ele>
        <time>2014-01-26T14:53:36.230Z</time>
      </trkpt>
      <trkpt lat="44.181" lon="5.25845">
        <ele>1436</ele>
        <time>2014-01-26T14:53:39.480Z</time>
      </trkpt>
      <trkpt lat="44.18098" lon="5.25842">
        <ele>1436</ele>
        <time>2014-01-26T14:53:41.480Z</time>
      </trkpt>
      <trkpt lat="44.18095" lon="5.25837">
        <ele>1436</ele>
        <time>2014-01-26T14:53:44.480Z</time>
      </trkpt>
      <trkpt lat="44.18092" lon="5.25833">
        <ele>1436</ele>
        <time>2014-01-26T14:53:47.480Z</time>
      </trkpt>
      <trkpt lat="44.18091" lon="5.25826">
        <ele>1436</ele>
        <time>2014-01-26T14:53:50.480Z</time>
      </trkpt>
      <trkpt lat="44.1809" lon="5.25819">
        <ele>1436</ele>
        <time>2014-01-26T14:53:53.170Z</time>
      </trkpt>
      <trkpt lat="44.1809" lon="5.25812">
        <ele>1436</ele>
        <time>2014-01-26T14:53:56.240Z</time>
      </trkpt>
      <trkpt lat="44.18091" lon="5.25803">
        <ele>1436.6599936</ele>
        <time>2014-01-26T14:54:00.580Z</time>
      </trkpt>
      <trkpt lat="44.18091" lon="5.25795">
        <ele>1437</ele>
        <time>2014-01-26T14:54:03.380Z</time>
      </trkpt>
      <trkpt lat="44.18091" lon="5.25786">
        <ele>1437</ele>
        <time>2014-01-26T14:54:07.380Z</time>
      </trkpt>
      <trkpt lat="44.18091" lon="5.25778">
        <ele>1437</ele>
        <time>2014-01-26T14:54:11.480Z</time>
      </trkpt>
      <trkpt lat="44.18091" lon="5.2577">
        <ele>1437</ele>
        <time>2014-01-26T14:54:15.480Z</time>
      </trkpt>
      <trkpt lat="44.1809" lon="5.25761">
        <ele>1436.44</ele>
        <time>2014-01-26T14:54:20.480Z</time>
      </trkpt>
      <trkpt lat="44.18089" lon="5.25752">
        <ele>1436</ele>
        <time>2014-01-26T14:54:26.480Z</time>
      </trkpt>
      <trkpt lat="44.18088" lon="5.25742">
        <ele>1437</ele>
        <time>2014-01-26T14:54:31.380Z</time>
      </trkpt>
      <trkpt lat="44.18088" lon="5.25731">
        <ele>1437</ele>
        <time>2014-01-26T14:54:36.380Z</time>
      </trkpt>
      <trkpt lat="44.18089" lon="5.25721">
        <ele>1437</ele>
        <time>2014-01-26T14:54:41.380Z</time>
      </trkpt>
      <trkpt lat="44.18089" lon="5.25711">
        <ele>1437</ele>
        <time>2014-01-26T14:54:46.480Z</time>
      </trkpt>
      <trkpt lat="44.18089" lon="5.25701">
        <ele>1438</ele>
        <time>2014-01-26T14:54:50.380Z</time>
      </trkpt>
      <trkpt lat="44.18089" lon="5.25694">
        <ele>1438</ele>
        <time>2014-01-26T14:54:53.380Z</time>
      </trkpt>
      <trkpt lat="44.18089" lon="5.25686">
        <ele>1438</ele>
        <time>2014-01-26T14:54:57.380Z</time>
      </trkpt>
      <trkpt lat="44.18089" lon="5.25678">
        <ele>1437.549016163</ele>
        <time>2014-01-26T14:55:00.380Z</time>
      </trkpt>
      <trkpt lat="44.18089" lon="5.25669">
        <ele>1437</ele>
        <time>2014-01-26T14:55:04.340Z</time>
      </trkpt>
      <trkpt lat="44.18089" lon="5.25661">
        <ele>1437</ele>
        <time>2014-01-26T14:55:07.480Z</time>
      </trkpt>
      <trkpt lat="44.18088" lon="5.25653">
        <ele>1437</ele>
        <time>2014-01-26T14:55:11.480Z</time>
      </trkpt>
      <trkpt lat="44.18087" lon="5.25645">
        <ele>1437</ele>
        <time>2014-01-26T14:55:15.480Z</time>
      </trkpt>
      <trkpt lat="44.18086" lon="5.2564">
        <ele>1437</ele>
        <time>2014-01-26T14:55:18.230Z</time>
      </trkpt>
      <trkpt lat="44.18086" lon="5.25634">
        <ele>1436</ele>
        <time>2014-01-26T14:55:21.240Z</time>
      </trkpt>
      <trkpt lat="44.18086" lon="5.25629">
        <ele>1435</ele>
        <time>2014-01-26T14:55:31.380Z</time>
      </trkpt>
      <trkpt lat="44.18088" lon="5.25623">
        <ele>1434</ele>
        <time>2014-01-26T14:56:19.380Z</time>
      </trkpt>
      <trkpt lat="44.18093" lon="5.2563">
        <ele>1436</ele>
        <time>2014-01-26T14:58:29.380Z</time>
      </trkpt>
      <trkpt lat="44.18088" lon="5.25624">
        <ele>1436</ele>
        <time>2014-01-26T15:04:59.480Z</time>
      </trkpt>
      <trkpt lat="44.18091" lon="5.25629">
        <ele>1437</ele>
        <time>2014-01-26T15:06:44.380Z</time>
      </trkpt>
      <trkpt lat="44.18091" lon="5.25624">
        <ele>1438</ele>
        <time>2014-01-26T15:14:46.600Z</time>
      </trkpt>
    </trkseg>
  </trk>
</gpx>